<?xml version="1.0" encoding="UTF-8" standalone="no" ?>
<gpx xmlns="http://www.topografix.com/GPX/1/1" xmlns:xsi="http://www.w3.org/2001/XMLSchema-instance" xsi:schemaLocation="http://www.topografix.com/GPX/1/1 http://www.topografix.com/GPX/1/1/gpx.xsd" version="1.1" creator="VisuGPX - https://www.visugpx.com">
  <metadata>
    <name>Randonnée Vebre</name>
    <desc><![CDATA[Randonnée variée, avec visite possible du château de Lordat en été.]]></desc>
  </metadata>
  <trk>
    <name><![CDATA[Tracé actuel: 26 FEV 2017 10:58]]></name>
    <trkseg>
      <trkpt lat="42.77513" lon="1.72133">
        <ele>607.69</ele>
        <time>2017-02-26T09:58:32Z</time>
      </trkpt>
      <trkpt lat="42.77499" lon="1.72133">
        <ele>605.77</ele>
        <time>2017-02-26T09:58:47Z</time>
      </trkpt>
      <trkpt lat="42.77495" lon="1.72134">
        <ele>602.4</ele>
        <time>2017-02-26T09:58:53Z</time>
      </trkpt>
      <trkpt lat="42.77492" lon="1.72149">
        <ele>599.52</ele>
        <time>2017-02-26T09:59:06Z</time>
      </trkpt>
      <trkpt lat="42.77489" lon="1.7216">
        <ele>599.04</ele>
        <time>2017-02-26T09:59:19Z</time>
      </trkpt>
      <trkpt lat="42.77489" lon="1.72164">
        <ele>598.08</ele>
        <time>2017-02-26T09:59:28Z</time>
      </trkpt>
      <trkpt lat="42.77486" lon="1.72163">
        <ele>604.81</ele>
        <time>2017-02-26T09:59:43Z</time>
      </trkpt>
      <trkpt lat="42.77489" lon="1.72162">
        <ele>604.81</ele>
        <time>2017-02-26T10:00:07Z</time>
      </trkpt>
      <trkpt lat="42.7749" lon="1.72165">
        <ele>598.08</ele>
        <time>2017-02-26T10:00:40Z</time>
      </trkpt>
      <trkpt lat="42.7749" lon="1.72165">
        <ele>596.15</ele>
        <time>2017-02-26T10:01:06Z</time>
      </trkpt>
      <trkpt lat="42.7749" lon="1.72167">
        <ele>594.23</ele>
        <time>2017-02-26T10:01:32Z</time>
      </trkpt>
      <trkpt lat="42.7749" lon="1.72166">
        <ele>595.67</ele>
        <time>2017-02-26T10:02:02Z</time>
      </trkpt>
      <trkpt lat="42.7749" lon="1.72167">
        <ele>595.19</ele>
        <time>2017-02-26T10:02:21Z</time>
      </trkpt>
      <trkpt lat="42.77489" lon="1.72165">
        <ele>597.6</ele>
        <time>2017-02-26T10:02:49Z</time>
      </trkpt>
      <trkpt lat="42.77489" lon="1.72165">
        <ele>597.6</ele>
        <time>2017-02-26T10:03:14Z</time>
      </trkpt>
      <trkpt lat="42.77489" lon="1.72164">
        <ele>598.08</ele>
        <time>2017-02-26T10:03:48Z</time>
      </trkpt>
      <trkpt lat="42.77489" lon="1.72165">
        <ele>597.6</ele>
        <time>2017-02-26T10:04:14Z</time>
      </trkpt>
      <trkpt lat="42.77489" lon="1.72165">
        <ele>597.6</ele>
        <time>2017-02-26T10:04:17Z</time>
      </trkpt>
      <trkpt lat="42.77489" lon="1.72164">
        <ele>597.6</ele>
        <time>2017-02-26T10:04:20Z</time>
      </trkpt>
      <trkpt lat="42.77489" lon="1.72166">
        <ele>597.12</ele>
        <time>2017-02-26T10:04:23Z</time>
      </trkpt>
      <trkpt lat="42.77496" lon="1.72163">
        <ele>596.64</ele>
        <time>2017-02-26T10:04:28Z</time>
      </trkpt>
      <trkpt lat="42.77513" lon="1.72163">
        <ele>598.08</ele>
        <time>2017-02-26T10:04:41Z</time>
      </trkpt>
      <trkpt lat="42.77527" lon="1.72169">
        <ele>599.04</ele>
        <time>2017-02-26T10:04:55Z</time>
      </trkpt>
      <trkpt lat="42.77528" lon="1.72173">
        <ele>599.04</ele>
        <time>2017-02-26T10:05:08Z</time>
      </trkpt>
      <trkpt lat="42.77535" lon="1.72178">
        <ele>598.56</ele>
        <time>2017-02-26T10:05:25Z</time>
      </trkpt>
      <trkpt lat="42.77537" lon="1.72179">
        <ele>599.04</ele>
        <time>2017-02-26T10:05:27Z</time>
      </trkpt>
      <trkpt lat="42.77539" lon="1.72183">
        <ele>599.52</ele>
        <time>2017-02-26T10:05:32Z</time>
      </trkpt>
      <trkpt lat="42.77553" lon="1.72204">
        <ele>600.48</ele>
        <time>2017-02-26T10:05:48Z</time>
      </trkpt>
      <trkpt lat="42.77561" lon="1.72214">
        <ele>600.96</ele>
        <time>2017-02-26T10:06:00Z</time>
      </trkpt>
      <trkpt lat="42.77564" lon="1.72222">
        <ele>602.4</ele>
        <time>2017-02-26T10:06:15Z</time>
      </trkpt>
      <trkpt lat="42.77568" lon="1.72229">
        <ele>603.36</ele>
        <time>2017-02-26T10:06:30Z</time>
      </trkpt>
      <trkpt lat="42.77575" lon="1.72249">
        <ele>603.85</ele>
        <time>2017-02-26T10:06:47Z</time>
      </trkpt>
      <trkpt lat="42.7758" lon="1.7227">
        <ele>603.36</ele>
        <time>2017-02-26T10:07:02Z</time>
      </trkpt>
      <trkpt lat="42.77585" lon="1.72296">
        <ele>604.33</ele>
        <time>2017-02-26T10:07:18Z</time>
      </trkpt>
      <trkpt lat="42.7759" lon="1.72317">
        <ele>604.81</ele>
        <time>2017-02-26T10:07:33Z</time>
      </trkpt>
      <trkpt lat="42.77596" lon="1.72332">
        <ele>605.29</ele>
        <time>2017-02-26T10:07:43Z</time>
      </trkpt>
      <trkpt lat="42.776" lon="1.72335">
        <ele>605.77</ele>
        <time>2017-02-26T10:07:56Z</time>
      </trkpt>
      <trkpt lat="42.776" lon="1.72337">
        <ele>605.77</ele>
        <time>2017-02-26T10:07:58Z</time>
      </trkpt>
      <trkpt lat="42.77601" lon="1.72354">
        <ele>606.25</ele>
        <time>2017-02-26T10:08:13Z</time>
      </trkpt>
      <trkpt lat="42.77602" lon="1.72357">
        <ele>606.25</ele>
        <time>2017-02-26T10:08:20Z</time>
      </trkpt>
      <trkpt lat="42.77603" lon="1.7236">
        <ele>606.25</ele>
        <time>2017-02-26T10:08:22Z</time>
      </trkpt>
      <trkpt lat="42.7761" lon="1.72381">
        <ele>606.73</ele>
        <time>2017-02-26T10:08:39Z</time>
      </trkpt>
      <trkpt lat="42.77615" lon="1.72404">
        <ele>607.21</ele>
        <time>2017-02-26T10:08:55Z</time>
      </trkpt>
      <trkpt lat="42.77619" lon="1.72423">
        <ele>606.25</ele>
        <time>2017-02-26T10:09:08Z</time>
      </trkpt>
      <trkpt lat="42.77623" lon="1.72442">
        <ele>606.73</ele>
        <time>2017-02-26T10:09:22Z</time>
      </trkpt>
      <trkpt lat="42.77624" lon="1.72449">
        <ele>607.21</ele>
        <time>2017-02-26T10:09:29Z</time>
      </trkpt>
      <trkpt lat="42.77625" lon="1.72455">
        <ele>605.77</ele>
        <time>2017-02-26T10:09:39Z</time>
      </trkpt>
      <trkpt lat="42.77626" lon="1.72455">
        <ele>604.81</ele>
        <time>2017-02-26T10:09:51Z</time>
      </trkpt>
      <trkpt lat="42.77626" lon="1.72458">
        <ele>605.77</ele>
        <time>2017-02-26T10:10:07Z</time>
      </trkpt>
      <trkpt lat="42.77626" lon="1.72471">
        <ele>606.25</ele>
        <time>2017-02-26T10:10:15Z</time>
      </trkpt>
      <trkpt lat="42.77627" lon="1.72492">
        <ele>608.17</ele>
        <time>2017-02-26T10:10:30Z</time>
      </trkpt>
      <trkpt lat="42.77629" lon="1.72511">
        <ele>608.17</ele>
        <time>2017-02-26T10:10:45Z</time>
      </trkpt>
      <trkpt lat="42.77629" lon="1.72515">
        <ele>608.65</ele>
        <time>2017-02-26T10:10:58Z</time>
      </trkpt>
      <trkpt lat="42.77631" lon="1.72526">
        <ele>607.69</ele>
        <time>2017-02-26T10:11:09Z</time>
      </trkpt>
      <trkpt lat="42.77631" lon="1.72528">
        <ele>607.69</ele>
        <time>2017-02-26T10:11:11Z</time>
      </trkpt>
      <trkpt lat="42.77634" lon="1.72545">
        <ele>607.21</ele>
        <time>2017-02-26T10:11:26Z</time>
      </trkpt>
      <trkpt lat="42.77636" lon="1.72552">
        <ele>606.73</ele>
        <time>2017-02-26T10:11:32Z</time>
      </trkpt>
      <trkpt lat="42.7764" lon="1.72569">
        <ele>606.25</ele>
        <time>2017-02-26T10:11:44Z</time>
      </trkpt>
      <trkpt lat="42.77641" lon="1.72573">
        <ele>605.77</ele>
        <time>2017-02-26T10:11:48Z</time>
      </trkpt>
      <trkpt lat="42.77643" lon="1.72577">
        <ele>605.77</ele>
        <time>2017-02-26T10:11:51Z</time>
      </trkpt>
      <trkpt lat="42.77643" lon="1.7258">
        <ele>606.25</ele>
        <time>2017-02-26T10:11:53Z</time>
      </trkpt>
      <trkpt lat="42.77645" lon="1.72586">
        <ele>605.77</ele>
        <time>2017-02-26T10:11:58Z</time>
      </trkpt>
      <trkpt lat="42.7765" lon="1.72611">
        <ele>606.25</ele>
        <time>2017-02-26T10:12:16Z</time>
      </trkpt>
      <trkpt lat="42.77649" lon="1.72611">
        <ele>606.25</ele>
        <time>2017-02-26T10:12:28Z</time>
      </trkpt>
      <trkpt lat="42.77649" lon="1.72613">
        <ele>605.77</ele>
        <time>2017-02-26T10:12:41Z</time>
      </trkpt>
      <trkpt lat="42.77653" lon="1.72614">
        <ele>604.81</ele>
        <time>2017-02-26T10:12:53Z</time>
      </trkpt>
      <trkpt lat="42.77653" lon="1.72614">
        <ele>604.81</ele>
        <time>2017-02-26T10:12:54Z</time>
      </trkpt>
      <trkpt lat="42.77651" lon="1.72615">
        <ele>604.81</ele>
        <time>2017-02-26T10:12:57Z</time>
      </trkpt>
      <trkpt lat="42.77648" lon="1.72621">
        <ele>604.33</ele>
        <time>2017-02-26T10:13:03Z</time>
      </trkpt>
      <trkpt lat="42.77649" lon="1.72635">
        <ele>603.85</ele>
        <time>2017-02-26T10:13:15Z</time>
      </trkpt>
      <trkpt lat="42.7765" lon="1.72646">
        <ele>603.36</ele>
        <time>2017-02-26T10:13:25Z</time>
      </trkpt>
      <trkpt lat="42.77649" lon="1.72659">
        <ele>603.85</ele>
        <time>2017-02-26T10:13:38Z</time>
      </trkpt>
      <trkpt lat="42.7765" lon="1.72681">
        <ele>605.29</ele>
        <time>2017-02-26T10:13:53Z</time>
      </trkpt>
      <trkpt lat="42.7765" lon="1.72705">
        <ele>604.81</ele>
        <time>2017-02-26T10:14:10Z</time>
      </trkpt>
      <trkpt lat="42.77647" lon="1.72728">
        <ele>604.33</ele>
        <time>2017-02-26T10:14:27Z</time>
      </trkpt>
      <trkpt lat="42.77646" lon="1.72733">
        <ele>605.77</ele>
        <time>2017-02-26T10:14:38Z</time>
      </trkpt>
      <trkpt lat="42.77646" lon="1.72736">
        <ele>607.21</ele>
        <time>2017-02-26T10:15:08Z</time>
      </trkpt>
      <trkpt lat="42.77646" lon="1.72739">
        <ele>607.21</ele>
        <time>2017-02-26T10:15:10Z</time>
      </trkpt>
      <trkpt lat="42.77644" lon="1.72756">
        <ele>607.69</ele>
        <time>2017-02-26T10:15:23Z</time>
      </trkpt>
      <trkpt lat="42.77643" lon="1.72776">
        <ele>608.65</ele>
        <time>2017-02-26T10:15:37Z</time>
      </trkpt>
      <trkpt lat="42.77639" lon="1.72802">
        <ele>608.17</ele>
        <time>2017-02-26T10:15:54Z</time>
      </trkpt>
      <trkpt lat="42.77638" lon="1.72808">
        <ele>607.69</ele>
        <time>2017-02-26T10:15:58Z</time>
      </trkpt>
      <trkpt lat="42.77637" lon="1.72838">
        <ele>607.21</ele>
        <time>2017-02-26T10:16:17Z</time>
      </trkpt>
      <trkpt lat="42.77641" lon="1.72854">
        <ele>603.85</ele>
        <time>2017-02-26T10:16:32Z</time>
      </trkpt>
      <trkpt lat="42.77647" lon="1.72854">
        <ele>602.88</ele>
        <time>2017-02-26T10:16:44Z</time>
      </trkpt>
      <trkpt lat="42.77653" lon="1.72848">
        <ele>605.29</ele>
        <time>2017-02-26T10:16:57Z</time>
      </trkpt>
      <trkpt lat="42.77652" lon="1.72847">
        <ele>606.73</ele>
        <time>2017-02-26T10:17:15Z</time>
      </trkpt>
      <trkpt lat="42.77652" lon="1.72847">
        <ele>606.73</ele>
        <time>2017-02-26T10:17:19Z</time>
      </trkpt>
      <trkpt lat="42.7766" lon="1.7284">
        <ele>609.61</ele>
        <time>2017-02-26T10:17:31Z</time>
      </trkpt>
      <trkpt lat="42.77663" lon="1.72853">
        <ele>610.57</ele>
        <time>2017-02-26T10:17:45Z</time>
      </trkpt>
      <trkpt lat="42.77666" lon="1.7286">
        <ele>611.06</ele>
        <time>2017-02-26T10:17:59Z</time>
      </trkpt>
      <trkpt lat="42.77672" lon="1.72862">
        <ele>611.54</ele>
        <time>2017-02-26T10:18:12Z</time>
      </trkpt>
      <trkpt lat="42.77679" lon="1.72863">
        <ele>612.98</ele>
        <time>2017-02-26T10:18:29Z</time>
      </trkpt>
      <trkpt lat="42.77682" lon="1.72864">
        <ele>613.94</ele>
        <time>2017-02-26T10:18:47Z</time>
      </trkpt>
      <trkpt lat="42.77685" lon="1.72865">
        <ele>614.42</ele>
        <time>2017-02-26T10:19:02Z</time>
      </trkpt>
      <trkpt lat="42.77693" lon="1.72871">
        <ele>616.34</ele>
        <time>2017-02-26T10:19:17Z</time>
      </trkpt>
      <trkpt lat="42.77696" lon="1.72884">
        <ele>619.71</ele>
        <time>2017-02-26T10:19:31Z</time>
      </trkpt>
      <trkpt lat="42.77698" lon="1.72903">
        <ele>620.19</ele>
        <time>2017-02-26T10:19:45Z</time>
      </trkpt>
      <trkpt lat="42.77698" lon="1.72917">
        <ele>620.67</ele>
        <time>2017-02-26T10:19:59Z</time>
      </trkpt>
      <trkpt lat="42.77706" lon="1.72922">
        <ele>619.23</ele>
        <time>2017-02-26T10:20:15Z</time>
      </trkpt>
      <trkpt lat="42.77714" lon="1.72927">
        <ele>619.23</ele>
        <time>2017-02-26T10:20:28Z</time>
      </trkpt>
      <trkpt lat="42.77719" lon="1.72932">
        <ele>619.23</ele>
        <time>2017-02-26T10:20:41Z</time>
      </trkpt>
      <trkpt lat="42.77727" lon="1.72943">
        <ele>620.67</ele>
        <time>2017-02-26T10:20:54Z</time>
      </trkpt>
      <trkpt lat="42.77733" lon="1.72953">
        <ele>622.11</ele>
        <time>2017-02-26T10:21:08Z</time>
      </trkpt>
      <trkpt lat="42.77737" lon="1.72964">
        <ele>624.99</ele>
        <time>2017-02-26T10:21:24Z</time>
      </trkpt>
      <trkpt lat="42.77739" lon="1.72979">
        <ele>624.99</ele>
        <time>2017-02-26T10:21:40Z</time>
      </trkpt>
      <trkpt lat="42.77732" lon="1.72982">
        <ele>624.51</ele>
        <time>2017-02-26T10:21:58Z</time>
      </trkpt>
      <trkpt lat="42.7773" lon="1.72984">
        <ele>624.03</ele>
        <time>2017-02-26T10:22:00Z</time>
      </trkpt>
      <trkpt lat="42.77726" lon="1.72989">
        <ele>624.51</ele>
        <time>2017-02-26T10:22:05Z</time>
      </trkpt>
      <trkpt lat="42.77711" lon="1.73013">
        <ele>625.96</ele>
        <time>2017-02-26T10:22:25Z</time>
      </trkpt>
      <trkpt lat="42.77705" lon="1.73031">
        <ele>627.88</ele>
        <time>2017-02-26T10:22:41Z</time>
      </trkpt>
      <trkpt lat="42.77696" lon="1.73055">
        <ele>629.32</ele>
        <time>2017-02-26T10:22:57Z</time>
      </trkpt>
      <trkpt lat="42.7769" lon="1.73064">
        <ele>627.88</ele>
        <time>2017-02-26T10:23:02Z</time>
      </trkpt>
      <trkpt lat="42.77677" lon="1.73093">
        <ele>627.4</ele>
        <time>2017-02-26T10:23:19Z</time>
      </trkpt>
      <trkpt lat="42.77667" lon="1.7311">
        <ele>624.99</ele>
        <time>2017-02-26T10:23:36Z</time>
      </trkpt>
      <trkpt lat="42.77659" lon="1.73124">
        <ele>622.59</ele>
        <time>2017-02-26T10:23:51Z</time>
      </trkpt>
      <trkpt lat="42.77651" lon="1.73142">
        <ele>620.19</ele>
        <time>2017-02-26T10:24:07Z</time>
      </trkpt>
      <trkpt lat="42.77646" lon="1.7316">
        <ele>619.71</ele>
        <time>2017-02-26T10:24:22Z</time>
      </trkpt>
      <trkpt lat="42.77642" lon="1.73177">
        <ele>617.78</ele>
        <time>2017-02-26T10:24:37Z</time>
      </trkpt>
      <trkpt lat="42.77636" lon="1.73197">
        <ele>615.86</ele>
        <time>2017-02-26T10:24:54Z</time>
      </trkpt>
      <trkpt lat="42.77632" lon="1.73217">
        <ele>614.42</ele>
        <time>2017-02-26T10:25:11Z</time>
      </trkpt>
      <trkpt lat="42.7763" lon="1.73242">
        <ele>610.57</ele>
        <time>2017-02-26T10:25:31Z</time>
      </trkpt>
      <trkpt lat="42.77629" lon="1.73266">
        <ele>608.17</ele>
        <time>2017-02-26T10:25:51Z</time>
      </trkpt>
      <trkpt lat="42.77629" lon="1.73284">
        <ele>606.25</ele>
        <time>2017-02-26T10:26:05Z</time>
      </trkpt>
      <trkpt lat="42.77629" lon="1.73289">
        <ele>605.29</ele>
        <time>2017-02-26T10:26:09Z</time>
      </trkpt>
      <trkpt lat="42.77631" lon="1.73311">
        <ele>602.88</ele>
        <time>2017-02-26T10:26:26Z</time>
      </trkpt>
      <trkpt lat="42.77632" lon="1.7333">
        <ele>600.96</ele>
        <time>2017-02-26T10:26:41Z</time>
      </trkpt>
      <trkpt lat="42.77632" lon="1.73332">
        <ele>600.96</ele>
        <time>2017-02-26T10:26:42Z</time>
      </trkpt>
      <trkpt lat="42.77629" lon="1.73353">
        <ele>600</ele>
        <time>2017-02-26T10:26:58Z</time>
      </trkpt>
      <trkpt lat="42.77622" lon="1.73378">
        <ele>599.52</ele>
        <time>2017-02-26T10:27:17Z</time>
      </trkpt>
      <trkpt lat="42.77615" lon="1.73397">
        <ele>597.6</ele>
        <time>2017-02-26T10:27:32Z</time>
      </trkpt>
      <trkpt lat="42.77607" lon="1.7342">
        <ele>596.64</ele>
        <time>2017-02-26T10:27:51Z</time>
      </trkpt>
      <trkpt lat="42.776" lon="1.7344">
        <ele>595.67</ele>
        <time>2017-02-26T10:28:08Z</time>
      </trkpt>
      <trkpt lat="42.77587" lon="1.73454">
        <ele>594.23</ele>
        <time>2017-02-26T10:28:26Z</time>
      </trkpt>
      <trkpt lat="42.77578" lon="1.73459">
        <ele>593.75</ele>
        <time>2017-02-26T10:28:35Z</time>
      </trkpt>
      <trkpt lat="42.7757" lon="1.73459">
        <ele>595.19</ele>
        <time>2017-02-26T10:28:52Z</time>
      </trkpt>
      <trkpt lat="42.77567" lon="1.73462">
        <ele>595.67</ele>
        <time>2017-02-26T10:29:03Z</time>
      </trkpt>
      <trkpt lat="42.77565" lon="1.73473">
        <ele>596.64</ele>
        <time>2017-02-26T10:29:19Z</time>
      </trkpt>
      <trkpt lat="42.77563" lon="1.73489">
        <ele>596.64</ele>
        <time>2017-02-26T10:29:34Z</time>
      </trkpt>
      <trkpt lat="42.77563" lon="1.73499">
        <ele>595.67</ele>
        <time>2017-02-26T10:29:48Z</time>
      </trkpt>
      <trkpt lat="42.77568" lon="1.73519">
        <ele>595.19</ele>
        <time>2017-02-26T10:30:04Z</time>
      </trkpt>
      <trkpt lat="42.77574" lon="1.73535">
        <ele>596.15</ele>
        <time>2017-02-26T10:30:18Z</time>
      </trkpt>
      <trkpt lat="42.77577" lon="1.73546">
        <ele>600.48</ele>
        <time>2017-02-26T10:30:33Z</time>
      </trkpt>
      <trkpt lat="42.77583" lon="1.73561">
        <ele>599.04</ele>
        <time>2017-02-26T10:30:49Z</time>
      </trkpt>
      <trkpt lat="42.77586" lon="1.73567">
        <ele>600.48</ele>
        <time>2017-02-26T10:31:02Z</time>
      </trkpt>
      <trkpt lat="42.77587" lon="1.73574">
        <ele>601.92</ele>
        <time>2017-02-26T10:31:19Z</time>
      </trkpt>
      <trkpt lat="42.77586" lon="1.73575">
        <ele>602.88</ele>
        <time>2017-02-26T10:31:39Z</time>
      </trkpt>
      <trkpt lat="42.77586" lon="1.73578">
        <ele>604.33</ele>
        <time>2017-02-26T10:32:04Z</time>
      </trkpt>
      <trkpt lat="42.77586" lon="1.7358">
        <ele>604.33</ele>
        <time>2017-02-26T10:32:31Z</time>
      </trkpt>
      <trkpt lat="42.77587" lon="1.73591">
        <ele>604.81</ele>
        <time>2017-02-26T10:32:44Z</time>
      </trkpt>
      <trkpt lat="42.77588" lon="1.73605">
        <ele>606.73</ele>
        <time>2017-02-26T10:32:59Z</time>
      </trkpt>
      <trkpt lat="42.7759" lon="1.73618">
        <ele>608.17</ele>
        <time>2017-02-26T10:33:15Z</time>
      </trkpt>
      <trkpt lat="42.77592" lon="1.7363">
        <ele>610.57</ele>
        <time>2017-02-26T10:33:32Z</time>
      </trkpt>
      <trkpt lat="42.77593" lon="1.73641">
        <ele>610.09</ele>
        <time>2017-02-26T10:33:47Z</time>
      </trkpt>
      <trkpt lat="42.77594" lon="1.73652">
        <ele>610.57</ele>
        <time>2017-02-26T10:34:01Z</time>
      </trkpt>
      <trkpt lat="42.77597" lon="1.73664">
        <ele>612.02</ele>
        <time>2017-02-26T10:34:15Z</time>
      </trkpt>
      <trkpt lat="42.77597" lon="1.73677">
        <ele>612.5</ele>
        <time>2017-02-26T10:34:28Z</time>
      </trkpt>
      <trkpt lat="42.77597" lon="1.73687">
        <ele>613.46</ele>
        <time>2017-02-26T10:34:38Z</time>
      </trkpt>
      <trkpt lat="42.77596" lon="1.73704">
        <ele>617.3</ele>
        <time>2017-02-26T10:34:53Z</time>
      </trkpt>
      <trkpt lat="42.77595" lon="1.73718">
        <ele>619.71</ele>
        <time>2017-02-26T10:35:08Z</time>
      </trkpt>
      <trkpt lat="42.77593" lon="1.73733">
        <ele>622.11</ele>
        <time>2017-02-26T10:35:22Z</time>
      </trkpt>
      <trkpt lat="42.77594" lon="1.73751">
        <ele>622.59</ele>
        <time>2017-02-26T10:35:38Z</time>
      </trkpt>
      <trkpt lat="42.77594" lon="1.7377">
        <ele>621.15</ele>
        <time>2017-02-26T10:35:54Z</time>
      </trkpt>
      <trkpt lat="42.77595" lon="1.73792">
        <ele>621.15</ele>
        <time>2017-02-26T10:36:11Z</time>
      </trkpt>
      <trkpt lat="42.77596" lon="1.73808">
        <ele>620.67</ele>
        <time>2017-02-26T10:36:26Z</time>
      </trkpt>
      <trkpt lat="42.77594" lon="1.73828">
        <ele>620.67</ele>
        <time>2017-02-26T10:36:40Z</time>
      </trkpt>
      <trkpt lat="42.77591" lon="1.73846">
        <ele>620.19</ele>
        <time>2017-02-26T10:36:56Z</time>
      </trkpt>
      <trkpt lat="42.77588" lon="1.73863">
        <ele>621.63</ele>
        <time>2017-02-26T10:37:09Z</time>
      </trkpt>
      <trkpt lat="42.77587" lon="1.73873">
        <ele>619.71</ele>
        <time>2017-02-26T10:37:25Z</time>
      </trkpt>
      <trkpt lat="42.77586" lon="1.73875">
        <ele>619.23</ele>
        <time>2017-02-26T10:37:46Z</time>
      </trkpt>
      <trkpt lat="42.77584" lon="1.73877">
        <ele>618.26</ele>
        <time>2017-02-26T10:38:02Z</time>
      </trkpt>
      <trkpt lat="42.77584" lon="1.73885">
        <ele>616.82</ele>
        <time>2017-02-26T10:38:17Z</time>
      </trkpt>
      <trkpt lat="42.77584" lon="1.73889">
        <ele>615.38</ele>
        <time>2017-02-26T10:38:33Z</time>
      </trkpt>
      <trkpt lat="42.77585" lon="1.73896">
        <ele>616.34</ele>
        <time>2017-02-26T10:38:47Z</time>
      </trkpt>
      <trkpt lat="42.77586" lon="1.73897">
        <ele>616.34</ele>
        <time>2017-02-26T10:39:12Z</time>
      </trkpt>
      <trkpt lat="42.77586" lon="1.73896">
        <ele>616.34</ele>
        <time>2017-02-26T10:39:40Z</time>
      </trkpt>
      <trkpt lat="42.77586" lon="1.73896">
        <ele>617.3</ele>
        <time>2017-02-26T10:39:58Z</time>
      </trkpt>
      <trkpt lat="42.77586" lon="1.73897">
        <ele>617.78</ele>
        <time>2017-02-26T10:40:20Z</time>
      </trkpt>
      <trkpt lat="42.77585" lon="1.73897">
        <ele>618.26</ele>
        <time>2017-02-26T10:40:38Z</time>
      </trkpt>
      <trkpt lat="42.77584" lon="1.73897">
        <ele>619.23</ele>
        <time>2017-02-26T10:40:58Z</time>
      </trkpt>
      <trkpt lat="42.77581" lon="1.73912">
        <ele>618.75</ele>
        <time>2017-02-26T10:41:11Z</time>
      </trkpt>
      <trkpt lat="42.77578" lon="1.73925">
        <ele>617.3</ele>
        <time>2017-02-26T10:41:25Z</time>
      </trkpt>
      <trkpt lat="42.77577" lon="1.73944">
        <ele>618.26</ele>
        <time>2017-02-26T10:41:40Z</time>
      </trkpt>
      <trkpt lat="42.77577" lon="1.73959">
        <ele>618.26</ele>
        <time>2017-02-26T10:41:54Z</time>
      </trkpt>
      <trkpt lat="42.77575" lon="1.73974">
        <ele>620.67</ele>
        <time>2017-02-26T10:42:10Z</time>
      </trkpt>
      <trkpt lat="42.77575" lon="1.73987">
        <ele>621.63</ele>
        <time>2017-02-26T10:42:24Z</time>
      </trkpt>
      <trkpt lat="42.77575" lon="1.73994">
        <ele>626.44</ele>
        <time>2017-02-26T10:42:39Z</time>
      </trkpt>
      <trkpt lat="42.77575" lon="1.73998">
        <ele>626.92</ele>
        <time>2017-02-26T10:42:53Z</time>
      </trkpt>
      <trkpt lat="42.77574" lon="1.73999">
        <ele>626.92</ele>
        <time>2017-02-26T10:43:15Z</time>
      </trkpt>
      <trkpt lat="42.77574" lon="1.73999">
        <ele>627.88</ele>
        <time>2017-02-26T10:43:30Z</time>
      </trkpt>
      <trkpt lat="42.77574" lon="1.73998">
        <ele>630.76</ele>
        <time>2017-02-26T10:43:41Z</time>
      </trkpt>
      <trkpt lat="42.77575" lon="1.74004">
        <ele>631.24</ele>
        <time>2017-02-26T10:43:59Z</time>
      </trkpt>
      <trkpt lat="42.77579" lon="1.74017">
        <ele>632.2</ele>
        <time>2017-02-26T10:44:11Z</time>
      </trkpt>
      <trkpt lat="42.77583" lon="1.74031">
        <ele>634.61</ele>
        <time>2017-02-26T10:44:24Z</time>
      </trkpt>
      <trkpt lat="42.77583" lon="1.7405">
        <ele>637.97</ele>
        <time>2017-02-26T10:44:41Z</time>
      </trkpt>
      <trkpt lat="42.77585" lon="1.74059">
        <ele>640.38</ele>
        <time>2017-02-26T10:44:53Z</time>
      </trkpt>
      <trkpt lat="42.77586" lon="1.74069">
        <ele>642.78</ele>
        <time>2017-02-26T10:45:05Z</time>
      </trkpt>
      <trkpt lat="42.77589" lon="1.74075">
        <ele>647.1</ele>
        <time>2017-02-26T10:45:20Z</time>
      </trkpt>
      <trkpt lat="42.7759" lon="1.74079">
        <ele>648.07</ele>
        <time>2017-02-26T10:45:31Z</time>
      </trkpt>
      <trkpt lat="42.77596" lon="1.74083">
        <ele>649.99</ele>
        <time>2017-02-26T10:45:45Z</time>
      </trkpt>
      <trkpt lat="42.776" lon="1.74093">
        <ele>651.91</ele>
        <time>2017-02-26T10:46:00Z</time>
      </trkpt>
      <trkpt lat="42.77602" lon="1.74099">
        <ele>653.83</ele>
        <time>2017-02-26T10:46:13Z</time>
      </trkpt>
      <trkpt lat="42.77601" lon="1.74102">
        <ele>654.31</ele>
        <time>2017-02-26T10:46:26Z</time>
      </trkpt>
      <trkpt lat="42.77601" lon="1.74102">
        <ele>654.8</ele>
        <time>2017-02-26T10:46:40Z</time>
      </trkpt>
      <trkpt lat="42.77601" lon="1.74102">
        <ele>654.8</ele>
        <time>2017-02-26T10:47:08Z</time>
      </trkpt>
      <trkpt lat="42.77601" lon="1.74103">
        <ele>653.83</ele>
        <time>2017-02-26T10:47:41Z</time>
      </trkpt>
      <trkpt lat="42.776" lon="1.74102">
        <ele>654.8</ele>
        <time>2017-02-26T10:48:17Z</time>
      </trkpt>
      <trkpt lat="42.77601" lon="1.74102">
        <ele>655.28</ele>
        <time>2017-02-26T10:48:33Z</time>
      </trkpt>
      <trkpt lat="42.776" lon="1.74103">
        <ele>655.28</ele>
        <time>2017-02-26T10:48:58Z</time>
      </trkpt>
      <trkpt lat="42.776" lon="1.74103">
        <ele>655.28</ele>
        <time>2017-02-26T10:49:10Z</time>
      </trkpt>
      <trkpt lat="42.776" lon="1.74103">
        <ele>655.76</ele>
        <time>2017-02-26T10:49:39Z</time>
      </trkpt>
      <trkpt lat="42.77602" lon="1.74103">
        <ele>656.24</ele>
        <time>2017-02-26T10:50:17Z</time>
      </trkpt>
      <trkpt lat="42.77602" lon="1.74103">
        <ele>657.2</ele>
        <time>2017-02-26T10:50:54Z</time>
      </trkpt>
      <trkpt lat="42.77602" lon="1.74102">
        <ele>657.68</ele>
        <time>2017-02-26T10:51:08Z</time>
      </trkpt>
      <trkpt lat="42.77603" lon="1.74104">
        <ele>657.68</ele>
        <time>2017-02-26T10:51:21Z</time>
      </trkpt>
      <trkpt lat="42.77604" lon="1.74105">
        <ele>657.2</ele>
        <time>2017-02-26T10:51:46Z</time>
      </trkpt>
      <trkpt lat="42.77603" lon="1.74107">
        <ele>657.2</ele>
        <time>2017-02-26T10:52:00Z</time>
      </trkpt>
      <trkpt lat="42.77601" lon="1.74112">
        <ele>656.72</ele>
        <time>2017-02-26T10:52:16Z</time>
      </trkpt>
      <trkpt lat="42.77598" lon="1.74123">
        <ele>657.2</ele>
        <time>2017-02-26T10:52:32Z</time>
      </trkpt>
      <trkpt lat="42.77598" lon="1.74129">
        <ele>658.16</ele>
        <time>2017-02-26T10:52:47Z</time>
      </trkpt>
      <trkpt lat="42.77594" lon="1.74144">
        <ele>659.12</ele>
        <time>2017-02-26T10:53:06Z</time>
      </trkpt>
      <trkpt lat="42.77593" lon="1.74151">
        <ele>660.08</ele>
        <time>2017-02-26T10:53:18Z</time>
      </trkpt>
      <trkpt lat="42.77591" lon="1.74162">
        <ele>661.04</ele>
        <time>2017-02-26T10:53:36Z</time>
      </trkpt>
      <trkpt lat="42.7759" lon="1.7417">
        <ele>662.01</ele>
        <time>2017-02-26T10:53:50Z</time>
      </trkpt>
      <trkpt lat="42.77591" lon="1.74181">
        <ele>666.33</ele>
        <time>2017-02-26T10:54:07Z</time>
      </trkpt>
      <trkpt lat="42.77595" lon="1.74186">
        <ele>670.18</ele>
        <time>2017-02-26T10:54:21Z</time>
      </trkpt>
      <trkpt lat="42.776" lon="1.7419">
        <ele>673.06</ele>
        <time>2017-02-26T10:54:33Z</time>
      </trkpt>
      <trkpt lat="42.77603" lon="1.74194">
        <ele>675.46</ele>
        <time>2017-02-26T10:54:48Z</time>
      </trkpt>
      <trkpt lat="42.77605" lon="1.74197">
        <ele>676.42</ele>
        <time>2017-02-26T10:55:02Z</time>
      </trkpt>
      <trkpt lat="42.77609" lon="1.74201">
        <ele>677.39</ele>
        <time>2017-02-26T10:55:15Z</time>
      </trkpt>
      <trkpt lat="42.77612" lon="1.74205">
        <ele>678.83</ele>
        <time>2017-02-26T10:55:27Z</time>
      </trkpt>
      <trkpt lat="42.7762" lon="1.74214">
        <ele>679.79</ele>
        <time>2017-02-26T10:55:40Z</time>
      </trkpt>
      <trkpt lat="42.77627" lon="1.7422">
        <ele>683.15</ele>
        <time>2017-02-26T10:55:55Z</time>
      </trkpt>
      <trkpt lat="42.77637" lon="1.74224">
        <ele>688.92</ele>
        <time>2017-02-26T10:56:09Z</time>
      </trkpt>
      <trkpt lat="42.7764" lon="1.74225">
        <ele>691.81</ele>
        <time>2017-02-26T10:56:30Z</time>
      </trkpt>
      <trkpt lat="42.77642" lon="1.74227">
        <ele>694.69</ele>
        <time>2017-02-26T10:57:00Z</time>
      </trkpt>
      <trkpt lat="42.77642" lon="1.74229">
        <ele>695.65</ele>
        <time>2017-02-26T10:57:17Z</time>
      </trkpt>
      <trkpt lat="42.77644" lon="1.74228">
        <ele>697.57</ele>
        <time>2017-02-26T10:57:47Z</time>
      </trkpt>
      <trkpt lat="42.77645" lon="1.74228">
        <ele>699.5</ele>
        <time>2017-02-26T10:58:12Z</time>
      </trkpt>
      <trkpt lat="42.77645" lon="1.74229">
        <ele>701.42</ele>
        <time>2017-02-26T10:58:41Z</time>
      </trkpt>
      <trkpt lat="42.77646" lon="1.74229">
        <ele>702.38</ele>
        <time>2017-02-26T10:59:15Z</time>
      </trkpt>
      <trkpt lat="42.77646" lon="1.7423">
        <ele>703.34</ele>
        <time>2017-02-26T10:59:43Z</time>
      </trkpt>
      <trkpt lat="42.77647" lon="1.7423">
        <ele>704.3</ele>
        <time>2017-02-26T11:00:07Z</time>
      </trkpt>
      <trkpt lat="42.77647" lon="1.7423">
        <ele>704.3</ele>
        <time>2017-02-26T11:00:30Z</time>
      </trkpt>
      <trkpt lat="42.77647" lon="1.7423">
        <ele>704.3</ele>
        <time>2017-02-26T11:00:52Z</time>
      </trkpt>
      <trkpt lat="42.77647" lon="1.74232">
        <ele>704.3</ele>
        <time>2017-02-26T11:01:15Z</time>
      </trkpt>
      <trkpt lat="42.77647" lon="1.74234">
        <ele>703.82</ele>
        <time>2017-02-26T11:01:29Z</time>
      </trkpt>
      <trkpt lat="42.77647" lon="1.74236">
        <ele>702.86</ele>
        <time>2017-02-26T11:01:44Z</time>
      </trkpt>
      <trkpt lat="42.77647" lon="1.74241">
        <ele>701.9</ele>
        <time>2017-02-26T11:02:07Z</time>
      </trkpt>
      <trkpt lat="42.77647" lon="1.74243">
        <ele>701.9</ele>
        <time>2017-02-26T11:02:24Z</time>
      </trkpt>
      <trkpt lat="42.77647" lon="1.74245">
        <ele>702.86</ele>
        <time>2017-02-26T11:02:43Z</time>
      </trkpt>
      <trkpt lat="42.77646" lon="1.74248">
        <ele>702.38</ele>
        <time>2017-02-26T11:02:59Z</time>
      </trkpt>
      <trkpt lat="42.77646" lon="1.74252">
        <ele>702.86</ele>
        <time>2017-02-26T11:03:15Z</time>
      </trkpt>
      <trkpt lat="42.77646" lon="1.74261">
        <ele>703.34</ele>
        <time>2017-02-26T11:03:28Z</time>
      </trkpt>
      <trkpt lat="42.77647" lon="1.74274">
        <ele>702.38</ele>
        <time>2017-02-26T11:03:47Z</time>
      </trkpt>
      <trkpt lat="42.7765" lon="1.74282">
        <ele>700.94</ele>
        <time>2017-02-26T11:04:03Z</time>
      </trkpt>
      <trkpt lat="42.77653" lon="1.74288">
        <ele>699.5</ele>
        <time>2017-02-26T11:04:17Z</time>
      </trkpt>
      <trkpt lat="42.77655" lon="1.74294">
        <ele>698.53</ele>
        <time>2017-02-26T11:04:35Z</time>
      </trkpt>
      <trkpt lat="42.77656" lon="1.743">
        <ele>699.02</ele>
        <time>2017-02-26T11:04:51Z</time>
      </trkpt>
      <trkpt lat="42.77658" lon="1.74305">
        <ele>699.02</ele>
        <time>2017-02-26T11:05:06Z</time>
      </trkpt>
      <trkpt lat="42.7766" lon="1.7431">
        <ele>699.98</ele>
        <time>2017-02-26T11:05:31Z</time>
      </trkpt>
      <trkpt lat="42.77661" lon="1.74315">
        <ele>700.94</ele>
        <time>2017-02-26T11:06:01Z</time>
      </trkpt>
      <trkpt lat="42.77661" lon="1.74318">
        <ele>703.34</ele>
        <time>2017-02-26T11:06:22Z</time>
      </trkpt>
      <trkpt lat="42.77661" lon="1.7432">
        <ele>705.26</ele>
        <time>2017-02-26T11:06:43Z</time>
      </trkpt>
      <trkpt lat="42.77662" lon="1.74324">
        <ele>706.23</ele>
        <time>2017-02-26T11:06:59Z</time>
      </trkpt>
      <trkpt lat="42.77664" lon="1.74328">
        <ele>705.75</ele>
        <time>2017-02-26T11:07:12Z</time>
      </trkpt>
      <trkpt lat="42.77668" lon="1.74335">
        <ele>705.75</ele>
        <time>2017-02-26T11:07:25Z</time>
      </trkpt>
      <trkpt lat="42.77674" lon="1.74344">
        <ele>706.71</ele>
        <time>2017-02-26T11:07:38Z</time>
      </trkpt>
      <trkpt lat="42.77677" lon="1.74353">
        <ele>710.07</ele>
        <time>2017-02-26T11:07:50Z</time>
      </trkpt>
      <trkpt lat="42.77676" lon="1.74357">
        <ele>711.03</ele>
        <time>2017-02-26T11:08:04Z</time>
      </trkpt>
      <trkpt lat="42.77677" lon="1.74363">
        <ele>713.92</ele>
        <time>2017-02-26T11:08:18Z</time>
      </trkpt>
      <trkpt lat="42.7768" lon="1.74372">
        <ele>718.72</ele>
        <time>2017-02-26T11:08:33Z</time>
      </trkpt>
      <trkpt lat="42.77675" lon="1.74374">
        <ele>722.57</ele>
        <time>2017-02-26T11:08:49Z</time>
      </trkpt>
      <trkpt lat="42.77666" lon="1.74373">
        <ele>724.49</ele>
        <time>2017-02-26T11:09:04Z</time>
      </trkpt>
      <trkpt lat="42.77663" lon="1.74373">
        <ele>728.82</ele>
        <time>2017-02-26T11:09:21Z</time>
      </trkpt>
      <trkpt lat="42.77653" lon="1.74379">
        <ele>733.14</ele>
        <time>2017-02-26T11:09:35Z</time>
      </trkpt>
      <trkpt lat="42.77642" lon="1.74373">
        <ele>742.28</ele>
        <time>2017-02-26T11:09:52Z</time>
      </trkpt>
      <trkpt lat="42.77631" lon="1.7437">
        <ele>745.64</ele>
        <time>2017-02-26T11:10:09Z</time>
      </trkpt>
      <trkpt lat="42.77623" lon="1.7437">
        <ele>749</ele>
        <time>2017-02-26T11:10:25Z</time>
      </trkpt>
      <trkpt lat="42.77612" lon="1.74373">
        <ele>751.89</ele>
        <time>2017-02-26T11:10:41Z</time>
      </trkpt>
      <trkpt lat="42.77604" lon="1.74377">
        <ele>754.29</ele>
        <time>2017-02-26T11:10:54Z</time>
      </trkpt>
      <trkpt lat="42.77595" lon="1.74381">
        <ele>753.81</ele>
        <time>2017-02-26T11:11:07Z</time>
      </trkpt>
      <trkpt lat="42.77588" lon="1.74386">
        <ele>754.29</ele>
        <time>2017-02-26T11:11:22Z</time>
      </trkpt>
      <trkpt lat="42.77595" lon="1.74391">
        <ele>755.25</ele>
        <time>2017-02-26T11:11:35Z</time>
      </trkpt>
      <trkpt lat="42.77603" lon="1.74393">
        <ele>757.18</ele>
        <time>2017-02-26T11:11:48Z</time>
      </trkpt>
      <trkpt lat="42.77608" lon="1.74394">
        <ele>758.14</ele>
        <time>2017-02-26T11:11:55Z</time>
      </trkpt>
      <trkpt lat="42.77621" lon="1.74397">
        <ele>760.06</ele>
        <time>2017-02-26T11:12:11Z</time>
      </trkpt>
      <trkpt lat="42.77629" lon="1.744">
        <ele>762.94</ele>
        <time>2017-02-26T11:12:25Z</time>
      </trkpt>
      <trkpt lat="42.77631" lon="1.74399">
        <ele>764.87</ele>
        <time>2017-02-26T11:12:52Z</time>
      </trkpt>
      <trkpt lat="42.77632" lon="1.74399">
        <ele>766.31</ele>
        <time>2017-02-26T11:13:26Z</time>
      </trkpt>
      <trkpt lat="42.77633" lon="1.74399">
        <ele>767.75</ele>
        <time>2017-02-26T11:14:00Z</time>
      </trkpt>
      <trkpt lat="42.77636" lon="1.74399">
        <ele>768.71</ele>
        <time>2017-02-26T11:14:33Z</time>
      </trkpt>
      <trkpt lat="42.77637" lon="1.74399">
        <ele>769.67</ele>
        <time>2017-02-26T11:14:52Z</time>
      </trkpt>
      <trkpt lat="42.77637" lon="1.744">
        <ele>769.67</ele>
        <time>2017-02-26T11:15:21Z</time>
      </trkpt>
      <trkpt lat="42.77637" lon="1.74402">
        <ele>771.6</ele>
        <time>2017-02-26T11:15:51Z</time>
      </trkpt>
      <trkpt lat="42.77638" lon="1.74403">
        <ele>772.56</ele>
        <time>2017-02-26T11:16:21Z</time>
      </trkpt>
      <trkpt lat="42.77637" lon="1.74404">
        <ele>774</ele>
        <time>2017-02-26T11:16:50Z</time>
      </trkpt>
      <trkpt lat="42.7764" lon="1.74405">
        <ele>774</ele>
        <time>2017-02-26T11:17:04Z</time>
      </trkpt>
      <trkpt lat="42.7764" lon="1.74407">
        <ele>773.04</ele>
        <time>2017-02-26T11:17:20Z</time>
      </trkpt>
      <trkpt lat="42.77641" lon="1.74409">
        <ele>772.56</ele>
        <time>2017-02-26T11:17:33Z</time>
      </trkpt>
      <trkpt lat="42.77647" lon="1.74416">
        <ele>771.11</ele>
        <time>2017-02-26T11:17:47Z</time>
      </trkpt>
      <trkpt lat="42.77655" lon="1.74427">
        <ele>767.27</ele>
        <time>2017-02-26T11:18:03Z</time>
      </trkpt>
      <trkpt lat="42.77662" lon="1.74438">
        <ele>764.87</ele>
        <time>2017-02-26T11:18:17Z</time>
      </trkpt>
      <trkpt lat="42.77663" lon="1.74442">
        <ele>764.87</ele>
        <time>2017-02-26T11:18:37Z</time>
      </trkpt>
      <trkpt lat="42.77667" lon="1.74448">
        <ele>765.83</ele>
        <time>2017-02-26T11:18:59Z</time>
      </trkpt>
      <trkpt lat="42.77671" lon="1.74455">
        <ele>766.31</ele>
        <time>2017-02-26T11:19:15Z</time>
      </trkpt>
      <trkpt lat="42.77673" lon="1.74458">
        <ele>767.27</ele>
        <time>2017-02-26T11:19:31Z</time>
      </trkpt>
      <trkpt lat="42.77675" lon="1.74462">
        <ele>769.19</ele>
        <time>2017-02-26T11:19:46Z</time>
      </trkpt>
      <trkpt lat="42.77682" lon="1.7447">
        <ele>770.15</ele>
        <time>2017-02-26T11:20:01Z</time>
      </trkpt>
      <trkpt lat="42.77686" lon="1.74478">
        <ele>770.63</ele>
        <time>2017-02-26T11:20:17Z</time>
      </trkpt>
      <trkpt lat="42.77689" lon="1.74481">
        <ele>772.08</ele>
        <time>2017-02-26T11:20:32Z</time>
      </trkpt>
      <trkpt lat="42.7769" lon="1.74483">
        <ele>772.08</ele>
        <time>2017-02-26T11:20:48Z</time>
      </trkpt>
      <trkpt lat="42.77693" lon="1.74485">
        <ele>773.52</ele>
        <time>2017-02-26T11:21:04Z</time>
      </trkpt>
      <trkpt lat="42.77694" lon="1.74487">
        <ele>774</ele>
        <time>2017-02-26T11:21:18Z</time>
      </trkpt>
      <trkpt lat="42.77695" lon="1.74489">
        <ele>774.48</ele>
        <time>2017-02-26T11:21:33Z</time>
      </trkpt>
      <trkpt lat="42.77697" lon="1.74491">
        <ele>775.44</ele>
        <time>2017-02-26T11:21:45Z</time>
      </trkpt>
      <trkpt lat="42.77699" lon="1.74493">
        <ele>776.88</ele>
        <time>2017-02-26T11:21:58Z</time>
      </trkpt>
      <trkpt lat="42.77702" lon="1.74497">
        <ele>778.81</ele>
        <time>2017-02-26T11:22:13Z</time>
      </trkpt>
      <trkpt lat="42.77709" lon="1.74505">
        <ele>782.65</ele>
        <time>2017-02-26T11:22:27Z</time>
      </trkpt>
      <trkpt lat="42.7772" lon="1.74517">
        <ele>786.02</ele>
        <time>2017-02-26T11:22:40Z</time>
      </trkpt>
      <trkpt lat="42.77726" lon="1.74522">
        <ele>785.53</ele>
        <time>2017-02-26T11:22:52Z</time>
      </trkpt>
      <trkpt lat="42.77732" lon="1.7453">
        <ele>785.53</ele>
        <time>2017-02-26T11:23:05Z</time>
      </trkpt>
      <trkpt lat="42.77744" lon="1.7454">
        <ele>786.5</ele>
        <time>2017-02-26T11:23:18Z</time>
      </trkpt>
      <trkpt lat="42.77757" lon="1.7455">
        <ele>786.98</ele>
        <time>2017-02-26T11:23:30Z</time>
      </trkpt>
      <trkpt lat="42.77763" lon="1.74558">
        <ele>786.98</ele>
        <time>2017-02-26T11:23:42Z</time>
      </trkpt>
      <trkpt lat="42.77775" lon="1.74569">
        <ele>786.98</ele>
        <time>2017-02-26T11:23:56Z</time>
      </trkpt>
      <trkpt lat="42.77781" lon="1.74578">
        <ele>786.98</ele>
        <time>2017-02-26T11:24:08Z</time>
      </trkpt>
      <trkpt lat="42.77789" lon="1.74584">
        <ele>787.94</ele>
        <time>2017-02-26T11:24:18Z</time>
      </trkpt>
      <trkpt lat="42.77796" lon="1.74596">
        <ele>789.86</ele>
        <time>2017-02-26T11:24:32Z</time>
      </trkpt>
      <trkpt lat="42.77798" lon="1.74602">
        <ele>790.82</ele>
        <time>2017-02-26T11:24:46Z</time>
      </trkpt>
      <trkpt lat="42.77801" lon="1.74608">
        <ele>791.78</ele>
        <time>2017-02-26T11:25:00Z</time>
      </trkpt>
      <trkpt lat="42.77807" lon="1.74626">
        <ele>795.63</ele>
        <time>2017-02-26T11:25:14Z</time>
      </trkpt>
      <trkpt lat="42.7781" lon="1.74639">
        <ele>798.51</ele>
        <time>2017-02-26T11:25:27Z</time>
      </trkpt>
      <trkpt lat="42.77813" lon="1.74646">
        <ele>798.51</ele>
        <time>2017-02-26T11:25:39Z</time>
      </trkpt>
      <trkpt lat="42.77816" lon="1.74659">
        <ele>797.55</ele>
        <time>2017-02-26T11:25:52Z</time>
      </trkpt>
      <trkpt lat="42.77817" lon="1.7467">
        <ele>798.03</ele>
        <time>2017-02-26T11:26:07Z</time>
      </trkpt>
      <trkpt lat="42.77817" lon="1.74673">
        <ele>799.95</ele>
        <time>2017-02-26T11:26:23Z</time>
      </trkpt>
      <trkpt lat="42.77819" lon="1.74675">
        <ele>800.92</ele>
        <time>2017-02-26T11:26:50Z</time>
      </trkpt>
      <trkpt lat="42.77819" lon="1.74676">
        <ele>801.88</ele>
        <time>2017-02-26T11:27:10Z</time>
      </trkpt>
      <trkpt lat="42.7782" lon="1.74676">
        <ele>802.84</ele>
        <time>2017-02-26T11:27:38Z</time>
      </trkpt>
      <trkpt lat="42.77821" lon="1.74677">
        <ele>802.36</ele>
        <time>2017-02-26T11:27:57Z</time>
      </trkpt>
      <trkpt lat="42.77823" lon="1.74679">
        <ele>803.32</ele>
        <time>2017-02-26T11:28:30Z</time>
      </trkpt>
      <trkpt lat="42.77823" lon="1.74679">
        <ele>803.8</ele>
        <time>2017-02-26T11:28:52Z</time>
      </trkpt>
      <trkpt lat="42.77824" lon="1.7468">
        <ele>804.76</ele>
        <time>2017-02-26T11:29:21Z</time>
      </trkpt>
      <trkpt lat="42.77824" lon="1.7468">
        <ele>804.76</ele>
        <time>2017-02-26T11:29:53Z</time>
      </trkpt>
      <trkpt lat="42.77824" lon="1.7468">
        <ele>805.72</ele>
        <time>2017-02-26T11:30:24Z</time>
      </trkpt>
      <trkpt lat="42.77825" lon="1.74683">
        <ele>805.72</ele>
        <time>2017-02-26T11:30:40Z</time>
      </trkpt>
      <trkpt lat="42.77827" lon="1.74696">
        <ele>807.16</ele>
        <time>2017-02-26T11:30:55Z</time>
      </trkpt>
      <trkpt lat="42.77831" lon="1.74712">
        <ele>808.61</ele>
        <time>2017-02-26T11:31:10Z</time>
      </trkpt>
      <trkpt lat="42.77834" lon="1.74722">
        <ele>807.64</ele>
        <time>2017-02-26T11:31:22Z</time>
      </trkpt>
      <trkpt lat="42.77837" lon="1.74729">
        <ele>809.57</ele>
        <time>2017-02-26T11:31:40Z</time>
      </trkpt>
      <trkpt lat="42.77838" lon="1.7474">
        <ele>811.97</ele>
        <time>2017-02-26T11:31:51Z</time>
      </trkpt>
      <trkpt lat="42.77839" lon="1.74741">
        <ele>811.97</ele>
        <time>2017-02-26T11:31:52Z</time>
      </trkpt>
      <trkpt lat="42.77842" lon="1.74755">
        <ele>814.85</ele>
        <time>2017-02-26T11:32:05Z</time>
      </trkpt>
      <trkpt lat="42.77844" lon="1.74767">
        <ele>816.3</ele>
        <time>2017-02-26T11:32:18Z</time>
      </trkpt>
      <trkpt lat="42.77848" lon="1.74782">
        <ele>816.3</ele>
        <time>2017-02-26T11:32:32Z</time>
      </trkpt>
      <trkpt lat="42.77851" lon="1.74797">
        <ele>818.22</ele>
        <time>2017-02-26T11:32:48Z</time>
      </trkpt>
      <trkpt lat="42.77853" lon="1.74811">
        <ele>819.18</ele>
        <time>2017-02-26T11:33:01Z</time>
      </trkpt>
      <trkpt lat="42.77855" lon="1.74817">
        <ele>819.66</ele>
        <time>2017-02-26T11:33:14Z</time>
      </trkpt>
      <trkpt lat="42.77857" lon="1.74824">
        <ele>820.14</ele>
        <time>2017-02-26T11:33:27Z</time>
      </trkpt>
      <trkpt lat="42.77859" lon="1.7483">
        <ele>820.62</ele>
        <time>2017-02-26T11:33:53Z</time>
      </trkpt>
      <trkpt lat="42.77861" lon="1.74848">
        <ele>819.18</ele>
        <time>2017-02-26T11:34:08Z</time>
      </trkpt>
      <trkpt lat="42.77862" lon="1.74866">
        <ele>819.18</ele>
        <time>2017-02-26T11:34:23Z</time>
      </trkpt>
      <trkpt lat="42.77863" lon="1.74886">
        <ele>822.06</ele>
        <time>2017-02-26T11:34:37Z</time>
      </trkpt>
      <trkpt lat="42.77863" lon="1.74902">
        <ele>823.51</ele>
        <time>2017-02-26T11:34:50Z</time>
      </trkpt>
      <trkpt lat="42.77864" lon="1.74914">
        <ele>825.91</ele>
        <time>2017-02-26T11:35:00Z</time>
      </trkpt>
      <trkpt lat="42.77865" lon="1.7493">
        <ele>827.83</ele>
        <time>2017-02-26T11:35:12Z</time>
      </trkpt>
      <trkpt lat="42.77864" lon="1.74942">
        <ele>828.79</ele>
        <time>2017-02-26T11:35:22Z</time>
      </trkpt>
      <trkpt lat="42.77863" lon="1.74944">
        <ele>828.79</ele>
        <time>2017-02-26T11:35:24Z</time>
      </trkpt>
      <trkpt lat="42.77863" lon="1.74962">
        <ele>829.27</ele>
        <time>2017-02-26T11:35:39Z</time>
      </trkpt>
      <trkpt lat="42.77863" lon="1.74967">
        <ele>830.24</ele>
        <time>2017-02-26T11:35:44Z</time>
      </trkpt>
      <trkpt lat="42.77863" lon="1.74979">
        <ele>831.2</ele>
        <time>2017-02-26T11:35:58Z</time>
      </trkpt>
      <trkpt lat="42.77861" lon="1.74996">
        <ele>831.2</ele>
        <time>2017-02-26T11:36:12Z</time>
      </trkpt>
      <trkpt lat="42.77861" lon="1.75003">
        <ele>833.12</ele>
        <time>2017-02-26T11:36:26Z</time>
      </trkpt>
      <trkpt lat="42.77861" lon="1.75003">
        <ele>833.6</ele>
        <time>2017-02-26T11:36:46Z</time>
      </trkpt>
      <trkpt lat="42.77862" lon="1.75005">
        <ele>835.04</ele>
        <time>2017-02-26T11:37:03Z</time>
      </trkpt>
      <trkpt lat="42.77861" lon="1.75005">
        <ele>835.52</ele>
        <time>2017-02-26T11:37:18Z</time>
      </trkpt>
      <trkpt lat="42.7786" lon="1.7501">
        <ele>836</ele>
        <time>2017-02-26T11:37:37Z</time>
      </trkpt>
      <trkpt lat="42.77858" lon="1.75023">
        <ele>836.48</ele>
        <time>2017-02-26T11:37:51Z</time>
      </trkpt>
      <trkpt lat="42.77856" lon="1.75032">
        <ele>836.48</ele>
        <time>2017-02-26T11:38:02Z</time>
      </trkpt>
      <trkpt lat="42.77859" lon="1.75047">
        <ele>837.45</ele>
        <time>2017-02-26T11:38:16Z</time>
      </trkpt>
      <trkpt lat="42.77862" lon="1.75063">
        <ele>838.41</ele>
        <time>2017-02-26T11:38:31Z</time>
      </trkpt>
      <trkpt lat="42.77862" lon="1.75078">
        <ele>839.85</ele>
        <time>2017-02-26T11:38:46Z</time>
      </trkpt>
      <trkpt lat="42.77863" lon="1.75089">
        <ele>839.85</ele>
        <time>2017-02-26T11:38:56Z</time>
      </trkpt>
      <trkpt lat="42.77865" lon="1.75108">
        <ele>839.85</ele>
        <time>2017-02-26T11:39:10Z</time>
      </trkpt>
      <trkpt lat="42.77865" lon="1.75113">
        <ele>839.85</ele>
        <time>2017-02-26T11:39:14Z</time>
      </trkpt>
      <trkpt lat="42.77869" lon="1.75129">
        <ele>841.77</ele>
        <time>2017-02-26T11:39:26Z</time>
      </trkpt>
      <trkpt lat="42.7787" lon="1.75134">
        <ele>841.77</ele>
        <time>2017-02-26T11:39:31Z</time>
      </trkpt>
      <trkpt lat="42.77872" lon="1.75144">
        <ele>842.73</ele>
        <time>2017-02-26T11:39:46Z</time>
      </trkpt>
      <trkpt lat="42.77873" lon="1.75146">
        <ele>843.21</ele>
        <time>2017-02-26T11:40:01Z</time>
      </trkpt>
      <trkpt lat="42.77873" lon="1.75152">
        <ele>842.73</ele>
        <time>2017-02-26T11:40:11Z</time>
      </trkpt>
      <trkpt lat="42.77875" lon="1.75162">
        <ele>843.21</ele>
        <time>2017-02-26T11:40:26Z</time>
      </trkpt>
      <trkpt lat="42.77877" lon="1.75173">
        <ele>844.18</ele>
        <time>2017-02-26T11:40:34Z</time>
      </trkpt>
      <trkpt lat="42.77879" lon="1.75178">
        <ele>844.66</ele>
        <time>2017-02-26T11:40:38Z</time>
      </trkpt>
      <trkpt lat="42.7788" lon="1.75182">
        <ele>845.14</ele>
        <time>2017-02-26T11:40:41Z</time>
      </trkpt>
      <trkpt lat="42.77881" lon="1.75184">
        <ele>846.1</ele>
        <time>2017-02-26T11:40:43Z</time>
      </trkpt>
      <trkpt lat="42.77883" lon="1.75189">
        <ele>846.58</ele>
        <time>2017-02-26T11:40:47Z</time>
      </trkpt>
      <trkpt lat="42.77885" lon="1.75194">
        <ele>847.06</ele>
        <time>2017-02-26T11:40:51Z</time>
      </trkpt>
      <trkpt lat="42.77888" lon="1.75198">
        <ele>847.06</ele>
        <time>2017-02-26T11:40:54Z</time>
      </trkpt>
      <trkpt lat="42.77891" lon="1.75203">
        <ele>848.5</ele>
        <time>2017-02-26T11:41:07Z</time>
      </trkpt>
      <trkpt lat="42.77891" lon="1.75206">
        <ele>848.98</ele>
        <time>2017-02-26T11:41:20Z</time>
      </trkpt>
      <trkpt lat="42.77889" lon="1.75204">
        <ele>849.46</ele>
        <time>2017-02-26T11:41:34Z</time>
      </trkpt>
      <trkpt lat="42.77891" lon="1.75205">
        <ele>848.98</ele>
        <time>2017-02-26T11:41:53Z</time>
      </trkpt>
      <trkpt lat="42.77892" lon="1.75204">
        <ele>849.94</ele>
        <time>2017-02-26T11:42:10Z</time>
      </trkpt>
      <trkpt lat="42.7789" lon="1.75203">
        <ele>848.5</ele>
        <time>2017-02-26T11:42:41Z</time>
      </trkpt>
      <trkpt lat="42.77891" lon="1.75203">
        <ele>848.98</ele>
        <time>2017-02-26T11:43:13Z</time>
      </trkpt>
      <trkpt lat="42.77891" lon="1.75203">
        <ele>848.5</ele>
        <time>2017-02-26T11:43:26Z</time>
      </trkpt>
      <trkpt lat="42.77891" lon="1.75203">
        <ele>848.5</ele>
        <time>2017-02-26T11:43:51Z</time>
      </trkpt>
      <trkpt lat="42.77891" lon="1.75203">
        <ele>848.98</ele>
        <time>2017-02-26T11:44:16Z</time>
      </trkpt>
      <trkpt lat="42.7789" lon="1.75203">
        <ele>848.98</ele>
        <time>2017-02-26T11:44:47Z</time>
      </trkpt>
      <trkpt lat="42.7789" lon="1.75203">
        <ele>848.5</ele>
        <time>2017-02-26T11:45:04Z</time>
      </trkpt>
      <trkpt lat="42.77889" lon="1.75204">
        <ele>848.98</ele>
        <time>2017-02-26T11:45:27Z</time>
      </trkpt>
      <trkpt lat="42.77888" lon="1.75204">
        <ele>848.98</ele>
        <time>2017-02-26T11:46:04Z</time>
      </trkpt>
      <trkpt lat="42.77888" lon="1.75204">
        <ele>849.46</ele>
        <time>2017-02-26T11:46:23Z</time>
      </trkpt>
      <trkpt lat="42.77889" lon="1.75204">
        <ele>849.46</ele>
        <time>2017-02-26T11:46:56Z</time>
      </trkpt>
      <trkpt lat="42.7789" lon="1.75204">
        <ele>849.94</ele>
        <time>2017-02-26T11:47:29Z</time>
      </trkpt>
      <trkpt lat="42.77889" lon="1.75202">
        <ele>849.46</ele>
        <time>2017-02-26T11:47:58Z</time>
      </trkpt>
      <trkpt lat="42.77888" lon="1.75202">
        <ele>849.46</ele>
        <time>2017-02-26T11:48:30Z</time>
      </trkpt>
      <trkpt lat="42.77889" lon="1.75203">
        <ele>849.46</ele>
        <time>2017-02-26T11:48:53Z</time>
      </trkpt>
      <trkpt lat="42.77888" lon="1.75202">
        <ele>848.5</ele>
        <time>2017-02-26T11:49:15Z</time>
      </trkpt>
      <trkpt lat="42.77882" lon="1.75201">
        <ele>848.98</ele>
        <time>2017-02-26T11:49:30Z</time>
      </trkpt>
      <trkpt lat="42.77872" lon="1.75196">
        <ele>849.46</ele>
        <time>2017-02-26T11:49:44Z</time>
      </trkpt>
      <trkpt lat="42.77859" lon="1.75193">
        <ele>848.98</ele>
        <time>2017-02-26T11:49:58Z</time>
      </trkpt>
      <trkpt lat="42.77845" lon="1.75188">
        <ele>848.5</ele>
        <time>2017-02-26T11:50:13Z</time>
      </trkpt>
      <trkpt lat="42.77833" lon="1.75178">
        <ele>849.94</ele>
        <time>2017-02-26T11:50:29Z</time>
      </trkpt>
      <trkpt lat="42.77821" lon="1.75167">
        <ele>849.94</ele>
        <time>2017-02-26T11:50:43Z</time>
      </trkpt>
      <trkpt lat="42.77811" lon="1.75154">
        <ele>849.94</ele>
        <time>2017-02-26T11:50:59Z</time>
      </trkpt>
      <trkpt lat="42.77804" lon="1.75145">
        <ele>850.42</ele>
        <time>2017-02-26T11:51:14Z</time>
      </trkpt>
      <trkpt lat="42.77796" lon="1.75136">
        <ele>851.87</ele>
        <time>2017-02-26T11:51:26Z</time>
      </trkpt>
      <trkpt lat="42.77792" lon="1.75133">
        <ele>852.83</ele>
        <time>2017-02-26T11:51:31Z</time>
      </trkpt>
      <trkpt lat="42.77778" lon="1.75121">
        <ele>855.71</ele>
        <time>2017-02-26T11:51:46Z</time>
      </trkpt>
      <trkpt lat="42.77769" lon="1.75112">
        <ele>858.11</ele>
        <time>2017-02-26T11:51:59Z</time>
      </trkpt>
      <trkpt lat="42.77766" lon="1.75108">
        <ele>859.56</ele>
        <time>2017-02-26T11:52:04Z</time>
      </trkpt>
      <trkpt lat="42.77755" lon="1.75099">
        <ele>859.08</ele>
        <time>2017-02-26T11:52:18Z</time>
      </trkpt>
      <trkpt lat="42.7775" lon="1.75095">
        <ele>859.08</ele>
        <time>2017-02-26T11:52:30Z</time>
      </trkpt>
      <trkpt lat="42.77743" lon="1.75082">
        <ele>861.48</ele>
        <time>2017-02-26T11:52:44Z</time>
      </trkpt>
      <trkpt lat="42.7774" lon="1.75067">
        <ele>867.25</ele>
        <time>2017-02-26T11:52:58Z</time>
      </trkpt>
      <trkpt lat="42.77731" lon="1.75051">
        <ele>868.21</ele>
        <time>2017-02-26T11:53:15Z</time>
      </trkpt>
      <trkpt lat="42.77721" lon="1.75042">
        <ele>869.17</ele>
        <time>2017-02-26T11:53:29Z</time>
      </trkpt>
      <trkpt lat="42.77708" lon="1.75038">
        <ele>868.21</ele>
        <time>2017-02-26T11:53:42Z</time>
      </trkpt>
      <trkpt lat="42.77697" lon="1.75036">
        <ele>869.65</ele>
        <time>2017-02-26T11:53:58Z</time>
      </trkpt>
      <trkpt lat="42.77691" lon="1.75035">
        <ele>873.01</ele>
        <time>2017-02-26T11:54:12Z</time>
      </trkpt>
      <trkpt lat="42.77685" lon="1.75033">
        <ele>873.5</ele>
        <time>2017-02-26T11:54:27Z</time>
      </trkpt>
      <trkpt lat="42.77674" lon="1.75033">
        <ele>874.94</ele>
        <time>2017-02-26T11:54:40Z</time>
      </trkpt>
      <trkpt lat="42.77659" lon="1.75033">
        <ele>876.38</ele>
        <time>2017-02-26T11:54:53Z</time>
      </trkpt>
      <trkpt lat="42.77646" lon="1.75033">
        <ele>879.26</ele>
        <time>2017-02-26T11:55:08Z</time>
      </trkpt>
      <trkpt lat="42.77633" lon="1.75036">
        <ele>881.67</ele>
        <time>2017-02-26T11:55:20Z</time>
      </trkpt>
      <trkpt lat="42.77626" lon="1.7504">
        <ele>883.59</ele>
        <time>2017-02-26T11:55:33Z</time>
      </trkpt>
      <trkpt lat="42.77626" lon="1.7504">
        <ele>884.07</ele>
        <time>2017-02-26T11:55:35Z</time>
      </trkpt>
      <trkpt lat="42.77621" lon="1.75043">
        <ele>883.59</ele>
        <time>2017-02-26T11:55:47Z</time>
      </trkpt>
      <trkpt lat="42.77619" lon="1.75044">
        <ele>884.55</ele>
        <time>2017-02-26T11:56:01Z</time>
      </trkpt>
      <trkpt lat="42.77617" lon="1.75045">
        <ele>885.03</ele>
        <time>2017-02-26T11:56:13Z</time>
      </trkpt>
      <trkpt lat="42.77616" lon="1.75043">
        <ele>885.99</ele>
        <time>2017-02-26T11:56:26Z</time>
      </trkpt>
      <trkpt lat="42.77616" lon="1.75042">
        <ele>887.91</ele>
        <time>2017-02-26T11:56:42Z</time>
      </trkpt>
      <trkpt lat="42.77616" lon="1.75041">
        <ele>885.51</ele>
        <time>2017-02-26T11:57:04Z</time>
      </trkpt>
      <trkpt lat="42.77617" lon="1.75042">
        <ele>885.99</ele>
        <time>2017-02-26T11:57:19Z</time>
      </trkpt>
      <trkpt lat="42.77615" lon="1.75037">
        <ele>885.03</ele>
        <time>2017-02-26T11:57:25Z</time>
      </trkpt>
      <trkpt lat="42.77614" lon="1.7503">
        <ele>884.07</ele>
        <time>2017-02-26T11:57:30Z</time>
      </trkpt>
      <trkpt lat="42.77607" lon="1.75023">
        <ele>885.99</ele>
        <time>2017-02-26T11:57:43Z</time>
      </trkpt>
      <trkpt lat="42.77595" lon="1.75014">
        <ele>888.4</ele>
        <time>2017-02-26T11:57:58Z</time>
      </trkpt>
      <trkpt lat="42.77597" lon="1.75012">
        <ele>888.88</ele>
        <time>2017-02-26T11:58:14Z</time>
      </trkpt>
      <trkpt lat="42.77594" lon="1.75003">
        <ele>888.88</ele>
        <time>2017-02-26T11:58:26Z</time>
      </trkpt>
      <trkpt lat="42.77587" lon="1.74992">
        <ele>891.76</ele>
        <time>2017-02-26T11:58:39Z</time>
      </trkpt>
      <trkpt lat="42.77591" lon="1.74985">
        <ele>893.2</ele>
        <time>2017-02-26T11:58:51Z</time>
      </trkpt>
      <trkpt lat="42.77591" lon="1.74985">
        <ele>893.2</ele>
        <time>2017-02-26T11:58:55Z</time>
      </trkpt>
      <trkpt lat="42.77587" lon="1.74988">
        <ele>895.12</ele>
        <time>2017-02-26T11:59:10Z</time>
      </trkpt>
      <trkpt lat="42.77588" lon="1.7499">
        <ele>896.09</ele>
        <time>2017-02-26T11:59:21Z</time>
      </trkpt>
      <trkpt lat="42.77584" lon="1.74989">
        <ele>897.53</ele>
        <time>2017-02-26T11:59:34Z</time>
      </trkpt>
      <trkpt lat="42.77584" lon="1.74987">
        <ele>897.05</ele>
        <time>2017-02-26T11:59:56Z</time>
      </trkpt>
      <trkpt lat="42.77585" lon="1.74987">
        <ele>896.57</ele>
        <time>2017-02-26T12:00:21Z</time>
      </trkpt>
      <trkpt lat="42.77586" lon="1.74987">
        <ele>896.57</ele>
        <time>2017-02-26T12:00:38Z</time>
      </trkpt>
      <trkpt lat="42.7759" lon="1.74984">
        <ele>896.57</ele>
        <time>2017-02-26T12:00:52Z</time>
      </trkpt>
      <trkpt lat="42.77587" lon="1.74986">
        <ele>897.53</ele>
        <time>2017-02-26T12:01:06Z</time>
      </trkpt>
      <trkpt lat="42.77587" lon="1.74985">
        <ele>896.57</ele>
        <time>2017-02-26T12:01:23Z</time>
      </trkpt>
      <trkpt lat="42.77587" lon="1.74985">
        <ele>895.12</ele>
        <time>2017-02-26T12:01:37Z</time>
      </trkpt>
      <trkpt lat="42.77589" lon="1.74988">
        <ele>894.16</ele>
        <time>2017-02-26T12:01:49Z</time>
      </trkpt>
      <trkpt lat="42.77589" lon="1.74988">
        <ele>894.16</ele>
        <time>2017-02-26T12:02:03Z</time>
      </trkpt>
      <trkpt lat="42.77589" lon="1.74989">
        <ele>894.16</ele>
        <time>2017-02-26T12:02:28Z</time>
      </trkpt>
      <trkpt lat="42.77591" lon="1.74989">
        <ele>893.68</ele>
        <time>2017-02-26T12:02:42Z</time>
      </trkpt>
      <trkpt lat="42.77591" lon="1.74989">
        <ele>893.2</ele>
        <time>2017-02-26T12:03:07Z</time>
      </trkpt>
      <trkpt lat="42.77593" lon="1.74989">
        <ele>893.2</ele>
        <time>2017-02-26T12:03:23Z</time>
      </trkpt>
      <trkpt lat="42.77592" lon="1.74988">
        <ele>893.2</ele>
        <time>2017-02-26T12:03:39Z</time>
      </trkpt>
      <trkpt lat="42.77591" lon="1.74988">
        <ele>892.72</ele>
        <time>2017-02-26T12:04:00Z</time>
      </trkpt>
      <trkpt lat="42.77591" lon="1.74988">
        <ele>892.72</ele>
        <time>2017-02-26T12:04:22Z</time>
      </trkpt>
      <trkpt lat="42.77589" lon="1.74985">
        <ele>893.2</ele>
        <time>2017-02-26T12:04:42Z</time>
      </trkpt>
      <trkpt lat="42.77592" lon="1.74982">
        <ele>892.72</ele>
        <time>2017-02-26T12:04:56Z</time>
      </trkpt>
      <trkpt lat="42.77591" lon="1.74984">
        <ele>893.2</ele>
        <time>2017-02-26T12:05:16Z</time>
      </trkpt>
      <trkpt lat="42.77587" lon="1.74987">
        <ele>893.68</ele>
        <time>2017-02-26T12:05:29Z</time>
      </trkpt>
      <trkpt lat="42.77589" lon="1.74996">
        <ele>891.28</ele>
        <time>2017-02-26T12:05:41Z</time>
      </trkpt>
      <trkpt lat="42.77589" lon="1.74999">
        <ele>892.72</ele>
        <time>2017-02-26T12:06:00Z</time>
      </trkpt>
      <trkpt lat="42.77589" lon="1.74999">
        <ele>893.2</ele>
        <time>2017-02-26T12:06:18Z</time>
      </trkpt>
      <trkpt lat="42.77596" lon="1.75012">
        <ele>890.32</ele>
        <time>2017-02-26T12:06:37Z</time>
      </trkpt>
      <trkpt lat="42.77606" lon="1.7502">
        <ele>885.03</ele>
        <time>2017-02-26T12:06:54Z</time>
      </trkpt>
      <trkpt lat="42.77613" lon="1.75023">
        <ele>883.59</ele>
        <time>2017-02-26T12:07:10Z</time>
      </trkpt>
      <trkpt lat="42.77616" lon="1.75024">
        <ele>884.07</ele>
        <time>2017-02-26T12:07:22Z</time>
      </trkpt>
      <trkpt lat="42.77617" lon="1.75028">
        <ele>884.07</ele>
        <time>2017-02-26T12:07:26Z</time>
      </trkpt>
      <trkpt lat="42.77613" lon="1.75051">
        <ele>881.19</ele>
        <time>2017-02-26T12:07:44Z</time>
      </trkpt>
      <trkpt lat="42.77602" lon="1.75059">
        <ele>882.15</ele>
        <time>2017-02-26T12:07:57Z</time>
      </trkpt>
      <trkpt lat="42.77589" lon="1.75067">
        <ele>883.11</ele>
        <time>2017-02-26T12:08:12Z</time>
      </trkpt>
      <trkpt lat="42.77586" lon="1.75069">
        <ele>883.59</ele>
        <time>2017-02-26T12:08:15Z</time>
      </trkpt>
      <trkpt lat="42.77579" lon="1.75065">
        <ele>886.95</ele>
        <time>2017-02-26T12:08:27Z</time>
      </trkpt>
      <trkpt lat="42.7758" lon="1.75064">
        <ele>886.95</ele>
        <time>2017-02-26T12:08:38Z</time>
      </trkpt>
      <trkpt lat="42.77584" lon="1.75061">
        <ele>885.99</ele>
        <time>2017-02-26T12:08:50Z</time>
      </trkpt>
      <trkpt lat="42.77586" lon="1.7506">
        <ele>886.47</ele>
        <time>2017-02-26T12:09:09Z</time>
      </trkpt>
      <trkpt lat="42.77588" lon="1.7506">
        <ele>887.91</ele>
        <time>2017-02-26T12:09:36Z</time>
      </trkpt>
      <trkpt lat="42.77589" lon="1.7506">
        <ele>888.4</ele>
        <time>2017-02-26T12:10:04Z</time>
      </trkpt>
      <trkpt lat="42.7759" lon="1.7506">
        <ele>888.4</ele>
        <time>2017-02-26T12:10:28Z</time>
      </trkpt>
      <trkpt lat="42.77589" lon="1.75059">
        <ele>888.4</ele>
        <time>2017-02-26T12:10:53Z</time>
      </trkpt>
      <trkpt lat="42.77588" lon="1.75059">
        <ele>889.36</ele>
        <time>2017-02-26T12:11:18Z</time>
      </trkpt>
      <trkpt lat="42.77588" lon="1.75059">
        <ele>890.32</ele>
        <time>2017-02-26T12:11:41Z</time>
      </trkpt>
      <trkpt lat="42.77587" lon="1.7506">
        <ele>890.32</ele>
        <time>2017-02-26T12:12:00Z</time>
      </trkpt>
      <trkpt lat="42.77587" lon="1.7506">
        <ele>890.32</ele>
        <time>2017-02-26T12:12:02Z</time>
      </trkpt>
      <trkpt lat="42.77577" lon="1.75063">
        <ele>890.8</ele>
        <time>2017-02-26T12:12:14Z</time>
      </trkpt>
      <trkpt lat="42.77567" lon="1.75066">
        <ele>889.84</ele>
        <time>2017-02-26T12:12:27Z</time>
      </trkpt>
      <trkpt lat="42.77555" lon="1.75074">
        <ele>888.4</ele>
        <time>2017-02-26T12:12:40Z</time>
      </trkpt>
      <trkpt lat="42.7755" lon="1.7508">
        <ele>890.8</ele>
        <time>2017-02-26T12:12:49Z</time>
      </trkpt>
      <trkpt lat="42.7755" lon="1.75081">
        <ele>888.4</ele>
        <time>2017-02-26T12:13:05Z</time>
      </trkpt>
      <trkpt lat="42.77549" lon="1.75081">
        <ele>886.95</ele>
        <time>2017-02-26T12:13:28Z</time>
      </trkpt>
      <trkpt lat="42.77549" lon="1.75082">
        <ele>886.95</ele>
        <time>2017-02-26T12:13:43Z</time>
      </trkpt>
      <trkpt lat="42.77549" lon="1.75081">
        <ele>885.99</ele>
        <time>2017-02-26T12:14:11Z</time>
      </trkpt>
      <trkpt lat="42.7755" lon="1.75079">
        <ele>885.51</ele>
        <time>2017-02-26T12:14:27Z</time>
      </trkpt>
      <trkpt lat="42.77552" lon="1.75075">
        <ele>885.03</ele>
        <time>2017-02-26T12:14:42Z</time>
      </trkpt>
      <trkpt lat="42.77563" lon="1.75063">
        <ele>883.59</ele>
        <time>2017-02-26T12:14:59Z</time>
      </trkpt>
      <trkpt lat="42.7757" lon="1.75061">
        <ele>883.11</ele>
        <time>2017-02-26T12:15:14Z</time>
      </trkpt>
      <trkpt lat="42.77571" lon="1.75062">
        <ele>883.11</ele>
        <time>2017-02-26T12:15:16Z</time>
      </trkpt>
      <trkpt lat="42.77584" lon="1.75068">
        <ele>883.11</ele>
        <time>2017-02-26T12:15:30Z</time>
      </trkpt>
      <trkpt lat="42.77593" lon="1.75063">
        <ele>884.07</ele>
        <time>2017-02-26T12:15:44Z</time>
      </trkpt>
      <trkpt lat="42.77598" lon="1.75059">
        <ele>883.59</ele>
        <time>2017-02-26T12:15:57Z</time>
      </trkpt>
      <trkpt lat="42.77606" lon="1.75048">
        <ele>885.99</ele>
        <time>2017-02-26T12:16:10Z</time>
      </trkpt>
      <trkpt lat="42.77608" lon="1.75046">
        <ele>885.99</ele>
        <time>2017-02-26T12:16:29Z</time>
      </trkpt>
      <trkpt lat="42.7761" lon="1.75046">
        <ele>886.95</ele>
        <time>2017-02-26T12:16:41Z</time>
      </trkpt>
      <trkpt lat="42.77614" lon="1.75045">
        <ele>885.99</ele>
        <time>2017-02-26T12:16:58Z</time>
      </trkpt>
      <trkpt lat="42.77621" lon="1.7504">
        <ele>885.51</ele>
        <time>2017-02-26T12:17:13Z</time>
      </trkpt>
      <trkpt lat="42.7762" lon="1.75041">
        <ele>884.07</ele>
        <time>2017-02-26T12:17:27Z</time>
      </trkpt>
      <trkpt lat="42.7762" lon="1.75039">
        <ele>885.03</ele>
        <time>2017-02-26T12:17:54Z</time>
      </trkpt>
      <trkpt lat="42.7762" lon="1.75039">
        <ele>884.55</ele>
        <time>2017-02-26T12:18:22Z</time>
      </trkpt>
      <trkpt lat="42.7762" lon="1.75039">
        <ele>885.03</ele>
        <time>2017-02-26T12:18:36Z</time>
      </trkpt>
      <trkpt lat="42.7762" lon="1.75039">
        <ele>885.03</ele>
        <time>2017-02-26T12:18:41Z</time>
      </trkpt>
      <trkpt lat="42.77622" lon="1.75041">
        <ele>885.51</ele>
        <time>2017-02-26T12:18:55Z</time>
      </trkpt>
      <trkpt lat="42.77622" lon="1.75041">
        <ele>885.03</ele>
        <time>2017-02-26T12:19:24Z</time>
      </trkpt>
      <trkpt lat="42.77622" lon="1.75042">
        <ele>885.03</ele>
        <time>2017-02-26T12:19:49Z</time>
      </trkpt>
      <trkpt lat="42.77622" lon="1.75042">
        <ele>884.55</ele>
        <time>2017-02-26T12:20:15Z</time>
      </trkpt>
      <trkpt lat="42.77623" lon="1.75042">
        <ele>885.51</ele>
        <time>2017-02-26T12:20:50Z</time>
      </trkpt>
      <trkpt lat="42.77624" lon="1.75041">
        <ele>886.47</ele>
        <time>2017-02-26T12:21:27Z</time>
      </trkpt>
      <trkpt lat="42.77623" lon="1.75041">
        <ele>885.51</ele>
        <time>2017-02-26T12:21:55Z</time>
      </trkpt>
      <trkpt lat="42.77623" lon="1.7504">
        <ele>885.99</ele>
        <time>2017-02-26T12:22:13Z</time>
      </trkpt>
      <trkpt lat="42.77621" lon="1.75037">
        <ele>886.95</ele>
        <time>2017-02-26T12:22:50Z</time>
      </trkpt>
      <trkpt lat="42.77621" lon="1.75037">
        <ele>887.43</ele>
        <time>2017-02-26T12:23:21Z</time>
      </trkpt>
      <trkpt lat="42.77623" lon="1.75036">
        <ele>888.4</ele>
        <time>2017-02-26T12:23:49Z</time>
      </trkpt>
      <trkpt lat="42.77622" lon="1.75035">
        <ele>888.88</ele>
        <time>2017-02-26T12:24:20Z</time>
      </trkpt>
      <trkpt lat="42.77621" lon="1.75037">
        <ele>889.36</ele>
        <time>2017-02-26T12:24:56Z</time>
      </trkpt>
      <trkpt lat="42.77622" lon="1.75037">
        <ele>888.88</ele>
        <time>2017-02-26T12:25:17Z</time>
      </trkpt>
      <trkpt lat="42.77622" lon="1.75034">
        <ele>889.36</ele>
        <time>2017-02-26T12:25:49Z</time>
      </trkpt>
      <trkpt lat="42.77622" lon="1.75035">
        <ele>887.43</ele>
        <time>2017-02-26T12:26:27Z</time>
      </trkpt>
      <trkpt lat="42.77622" lon="1.75036">
        <ele>886.47</ele>
        <time>2017-02-26T12:26:49Z</time>
      </trkpt>
      <trkpt lat="42.77622" lon="1.75036">
        <ele>885.99</ele>
        <time>2017-02-26T12:27:29Z</time>
      </trkpt>
      <trkpt lat="42.77623" lon="1.75036">
        <ele>886.47</ele>
        <time>2017-02-26T12:28:03Z</time>
      </trkpt>
      <trkpt lat="42.77623" lon="1.75036">
        <ele>886.47</ele>
        <time>2017-02-26T12:28:34Z</time>
      </trkpt>
      <trkpt lat="42.77622" lon="1.75036">
        <ele>885.99</ele>
        <time>2017-02-26T12:28:55Z</time>
      </trkpt>
      <trkpt lat="42.77622" lon="1.75037">
        <ele>885.99</ele>
        <time>2017-02-26T12:29:28Z</time>
      </trkpt>
      <trkpt lat="42.77622" lon="1.75037">
        <ele>885.51</ele>
        <time>2017-02-26T12:29:50Z</time>
      </trkpt>
      <trkpt lat="42.77622" lon="1.75038">
        <ele>886.47</ele>
        <time>2017-02-26T12:30:22Z</time>
      </trkpt>
      <trkpt lat="42.77623" lon="1.75036">
        <ele>886.95</ele>
        <time>2017-02-26T12:30:59Z</time>
      </trkpt>
      <trkpt lat="42.77623" lon="1.75036">
        <ele>887.43</ele>
        <time>2017-02-26T12:31:37Z</time>
      </trkpt>
      <trkpt lat="42.77623" lon="1.75036">
        <ele>886.47</ele>
        <time>2017-02-26T12:32:00Z</time>
      </trkpt>
      <trkpt lat="42.77622" lon="1.75032">
        <ele>888.88</ele>
        <time>2017-02-26T12:32:39Z</time>
      </trkpt>
      <trkpt lat="42.77622" lon="1.75033">
        <ele>887.91</ele>
        <time>2017-02-26T12:33:07Z</time>
      </trkpt>
      <trkpt lat="42.77622" lon="1.75033">
        <ele>888.4</ele>
        <time>2017-02-26T12:33:30Z</time>
      </trkpt>
      <trkpt lat="42.77621" lon="1.75032">
        <ele>887.91</ele>
        <time>2017-02-26T12:33:59Z</time>
      </trkpt>
      <trkpt lat="42.77621" lon="1.75031">
        <ele>887.43</ele>
        <time>2017-02-26T12:34:24Z</time>
      </trkpt>
      <trkpt lat="42.7762" lon="1.75033">
        <ele>888.88</ele>
        <time>2017-02-26T12:34:59Z</time>
      </trkpt>
      <trkpt lat="42.77621" lon="1.75033">
        <ele>888.88</ele>
        <time>2017-02-26T12:35:28Z</time>
      </trkpt>
      <trkpt lat="42.77621" lon="1.75034">
        <ele>889.36</ele>
        <time>2017-02-26T12:36:09Z</time>
      </trkpt>
      <trkpt lat="42.77622" lon="1.75035">
        <ele>887.43</ele>
        <time>2017-02-26T12:36:41Z</time>
      </trkpt>
      <trkpt lat="42.7762" lon="1.75035">
        <ele>889.36</ele>
        <time>2017-02-26T12:37:11Z</time>
      </trkpt>
      <trkpt lat="42.77621" lon="1.75035">
        <ele>889.36</ele>
        <time>2017-02-26T12:37:43Z</time>
      </trkpt>
      <trkpt lat="42.7762" lon="1.75036">
        <ele>888.4</ele>
        <time>2017-02-26T12:38:14Z</time>
      </trkpt>
      <trkpt lat="42.7762" lon="1.75037">
        <ele>888.88</ele>
        <time>2017-02-26T12:38:37Z</time>
      </trkpt>
      <trkpt lat="42.77622" lon="1.75036">
        <ele>889.36</ele>
        <time>2017-02-26T12:39:05Z</time>
      </trkpt>
      <trkpt lat="42.77621" lon="1.75036">
        <ele>888.4</ele>
        <time>2017-02-26T12:39:40Z</time>
      </trkpt>
      <trkpt lat="42.77623" lon="1.75037">
        <ele>886.95</ele>
        <time>2017-02-26T12:40:11Z</time>
      </trkpt>
      <trkpt lat="42.77623" lon="1.75036">
        <ele>885.99</ele>
        <time>2017-02-26T12:40:48Z</time>
      </trkpt>
      <trkpt lat="42.77623" lon="1.75036">
        <ele>885.51</ele>
        <time>2017-02-26T12:41:16Z</time>
      </trkpt>
      <trkpt lat="42.77622" lon="1.75036">
        <ele>886.47</ele>
        <time>2017-02-26T12:41:49Z</time>
      </trkpt>
      <trkpt lat="42.77621" lon="1.75035">
        <ele>887.43</ele>
        <time>2017-02-26T12:42:27Z</time>
      </trkpt>
      <trkpt lat="42.77621" lon="1.75037">
        <ele>886.47</ele>
        <time>2017-02-26T12:42:59Z</time>
      </trkpt>
      <trkpt lat="42.77621" lon="1.75038">
        <ele>886.47</ele>
        <time>2017-02-26T12:43:24Z</time>
      </trkpt>
      <trkpt lat="42.77624" lon="1.75037">
        <ele>886.95</ele>
        <time>2017-02-26T12:43:55Z</time>
      </trkpt>
      <trkpt lat="42.77623" lon="1.75038">
        <ele>885.99</ele>
        <time>2017-02-26T12:44:28Z</time>
      </trkpt>
      <trkpt lat="42.77624" lon="1.75037">
        <ele>885.03</ele>
        <time>2017-02-26T12:45:01Z</time>
      </trkpt>
      <trkpt lat="42.77624" lon="1.75034">
        <ele>885.99</ele>
        <time>2017-02-26T12:45:38Z</time>
      </trkpt>
      <trkpt lat="42.77624" lon="1.75034">
        <ele>886.47</ele>
        <time>2017-02-26T12:46:10Z</time>
      </trkpt>
      <trkpt lat="42.77624" lon="1.75035">
        <ele>886.47</ele>
        <time>2017-02-26T12:46:36Z</time>
      </trkpt>
      <trkpt lat="42.77623" lon="1.75035">
        <ele>885.99</ele>
        <time>2017-02-26T12:47:07Z</time>
      </trkpt>
      <trkpt lat="42.77623" lon="1.75036">
        <ele>884.55</ele>
        <time>2017-02-26T12:47:46Z</time>
      </trkpt>
      <trkpt lat="42.77624" lon="1.75035">
        <ele>884.07</ele>
        <time>2017-02-26T12:48:15Z</time>
      </trkpt>
      <trkpt lat="42.77623" lon="1.75036">
        <ele>884.07</ele>
        <time>2017-02-26T12:48:43Z</time>
      </trkpt>
      <trkpt lat="42.77624" lon="1.75036">
        <ele>885.03</ele>
        <time>2017-02-26T12:49:17Z</time>
      </trkpt>
      <trkpt lat="42.77624" lon="1.75036">
        <ele>886.95</ele>
        <time>2017-02-26T12:49:52Z</time>
      </trkpt>
      <trkpt lat="42.77623" lon="1.75036">
        <ele>885.99</ele>
        <time>2017-02-26T12:50:20Z</time>
      </trkpt>
      <trkpt lat="42.77622" lon="1.75034">
        <ele>886.47</ele>
        <time>2017-02-26T12:50:52Z</time>
      </trkpt>
      <trkpt lat="42.77622" lon="1.75035">
        <ele>885.51</ele>
        <time>2017-02-26T12:51:21Z</time>
      </trkpt>
      <trkpt lat="42.77623" lon="1.75035">
        <ele>885.51</ele>
        <time>2017-02-26T12:51:48Z</time>
      </trkpt>
      <trkpt lat="42.77622" lon="1.75034">
        <ele>886.47</ele>
        <time>2017-02-26T12:52:14Z</time>
      </trkpt>
      <trkpt lat="42.77622" lon="1.75034">
        <ele>885.99</ele>
        <time>2017-02-26T12:52:41Z</time>
      </trkpt>
      <trkpt lat="42.77624" lon="1.75035">
        <ele>885.51</ele>
        <time>2017-02-26T12:53:22Z</time>
      </trkpt>
      <trkpt lat="42.77624" lon="1.75034">
        <ele>884.55</ele>
        <time>2017-02-26T12:53:52Z</time>
      </trkpt>
      <trkpt lat="42.77623" lon="1.75034">
        <ele>886.95</ele>
        <time>2017-02-26T12:54:20Z</time>
      </trkpt>
      <trkpt lat="42.77621" lon="1.75032">
        <ele>887.43</ele>
        <time>2017-02-26T12:54:49Z</time>
      </trkpt>
      <trkpt lat="42.7762" lon="1.75033">
        <ele>886.95</ele>
        <time>2017-02-26T12:55:23Z</time>
      </trkpt>
      <trkpt lat="42.7762" lon="1.75035">
        <ele>886.95</ele>
        <time>2017-02-26T12:55:50Z</time>
      </trkpt>
      <trkpt lat="42.7762" lon="1.75036">
        <ele>887.91</ele>
        <time>2017-02-26T12:56:23Z</time>
      </trkpt>
      <trkpt lat="42.77621" lon="1.75035">
        <ele>887.91</ele>
        <time>2017-02-26T12:56:55Z</time>
      </trkpt>
      <trkpt lat="42.77621" lon="1.75035">
        <ele>887.91</ele>
        <time>2017-02-26T12:57:31Z</time>
      </trkpt>
      <trkpt lat="42.77621" lon="1.75034">
        <ele>888.88</ele>
        <time>2017-02-26T12:57:58Z</time>
      </trkpt>
      <trkpt lat="42.77621" lon="1.75036">
        <ele>888.88</ele>
        <time>2017-02-26T12:58:32Z</time>
      </trkpt>
      <trkpt lat="42.77621" lon="1.75035">
        <ele>888.88</ele>
        <time>2017-02-26T12:58:55Z</time>
      </trkpt>
      <trkpt lat="42.77622" lon="1.75033">
        <ele>890.32</ele>
        <time>2017-02-26T12:59:18Z</time>
      </trkpt>
      <trkpt lat="42.77621" lon="1.75032">
        <ele>891.28</ele>
        <time>2017-02-26T12:59:53Z</time>
      </trkpt>
      <trkpt lat="42.77622" lon="1.75027">
        <ele>896.57</ele>
        <time>2017-02-26T13:00:23Z</time>
      </trkpt>
      <trkpt lat="42.7762" lon="1.75022">
        <ele>904.26</ele>
        <time>2017-02-26T13:01:02Z</time>
      </trkpt>
      <trkpt lat="42.77617" lon="1.75019">
        <ele>908.58</ele>
        <time>2017-02-26T13:01:31Z</time>
      </trkpt>
      <trkpt lat="42.77616" lon="1.75019">
        <ele>912.43</ele>
        <time>2017-02-26T13:02:04Z</time>
      </trkpt>
      <trkpt lat="42.77615" lon="1.75023">
        <ele>913.39</ele>
        <time>2017-02-26T13:02:33Z</time>
      </trkpt>
      <trkpt lat="42.77615" lon="1.75029">
        <ele>912.91</ele>
        <time>2017-02-26T13:03:10Z</time>
      </trkpt>
      <trkpt lat="42.77615" lon="1.7503">
        <ele>911.95</ele>
        <time>2017-02-26T13:03:32Z</time>
      </trkpt>
      <trkpt lat="42.77616" lon="1.75032">
        <ele>908.58</ele>
        <time>2017-02-26T13:04:11Z</time>
      </trkpt>
      <trkpt lat="42.77616" lon="1.75032">
        <ele>907.14</ele>
        <time>2017-02-26T13:04:43Z</time>
      </trkpt>
      <trkpt lat="42.77617" lon="1.75031">
        <ele>904.26</ele>
        <time>2017-02-26T13:05:16Z</time>
      </trkpt>
      <trkpt lat="42.77617" lon="1.7503">
        <ele>904.26</ele>
        <time>2017-02-26T13:05:54Z</time>
      </trkpt>
      <trkpt lat="42.77617" lon="1.75032">
        <ele>902.33</ele>
        <time>2017-02-26T13:06:26Z</time>
      </trkpt>
      <trkpt lat="42.77618" lon="1.75032">
        <ele>900.89</ele>
        <time>2017-02-26T13:06:59Z</time>
      </trkpt>
      <trkpt lat="42.77619" lon="1.75033">
        <ele>899.45</ele>
        <time>2017-02-26T13:07:27Z</time>
      </trkpt>
      <trkpt lat="42.77618" lon="1.75034">
        <ele>898.49</ele>
        <time>2017-02-26T13:08:02Z</time>
      </trkpt>
      <trkpt lat="42.77618" lon="1.75035">
        <ele>897.53</ele>
        <time>2017-02-26T13:08:40Z</time>
      </trkpt>
      <trkpt lat="42.7762" lon="1.75033">
        <ele>898.49</ele>
        <time>2017-02-26T13:09:10Z</time>
      </trkpt>
      <trkpt lat="42.77619" lon="1.75033">
        <ele>897.05</ele>
        <time>2017-02-26T13:09:46Z</time>
      </trkpt>
      <trkpt lat="42.7762" lon="1.75034">
        <ele>897.05</ele>
        <time>2017-02-26T13:10:18Z</time>
      </trkpt>
      <trkpt lat="42.7762" lon="1.75033">
        <ele>897.05</ele>
        <time>2017-02-26T13:10:49Z</time>
      </trkpt>
      <trkpt lat="42.7762" lon="1.75033">
        <ele>896.57</ele>
        <time>2017-02-26T13:11:21Z</time>
      </trkpt>
      <trkpt lat="42.7762" lon="1.75033">
        <ele>897.05</ele>
        <time>2017-02-26T13:11:45Z</time>
      </trkpt>
      <trkpt lat="42.77621" lon="1.75033">
        <ele>897.53</ele>
        <time>2017-02-26T13:12:12Z</time>
      </trkpt>
      <trkpt lat="42.77619" lon="1.75032">
        <ele>898.97</ele>
        <time>2017-02-26T13:12:45Z</time>
      </trkpt>
      <trkpt lat="42.7762" lon="1.75033">
        <ele>899.45</ele>
        <time>2017-02-26T13:13:14Z</time>
      </trkpt>
      <trkpt lat="42.7762" lon="1.75033">
        <ele>898.97</ele>
        <time>2017-02-26T13:13:41Z</time>
      </trkpt>
      <trkpt lat="42.7762" lon="1.75033">
        <ele>898.97</ele>
        <time>2017-02-26T13:14:12Z</time>
      </trkpt>
      <trkpt lat="42.7762" lon="1.75031">
        <ele>900.41</ele>
        <time>2017-02-26T13:14:42Z</time>
      </trkpt>
      <trkpt lat="42.77621" lon="1.75031">
        <ele>900.41</ele>
        <time>2017-02-26T13:15:12Z</time>
      </trkpt>
      <trkpt lat="42.77621" lon="1.75032">
        <ele>900.41</ele>
        <time>2017-02-26T13:15:38Z</time>
      </trkpt>
      <trkpt lat="42.77621" lon="1.75034">
        <ele>900.41</ele>
        <time>2017-02-26T13:16:06Z</time>
      </trkpt>
      <trkpt lat="42.7762" lon="1.75035">
        <ele>897.53</ele>
        <time>2017-02-26T13:16:43Z</time>
      </trkpt>
      <trkpt lat="42.77621" lon="1.75032">
        <ele>898.97</ele>
        <time>2017-02-26T13:17:21Z</time>
      </trkpt>
      <trkpt lat="42.7762" lon="1.75029">
        <ele>900.89</ele>
        <time>2017-02-26T13:17:54Z</time>
      </trkpt>
      <trkpt lat="42.77619" lon="1.75031">
        <ele>900.41</ele>
        <time>2017-02-26T13:18:23Z</time>
      </trkpt>
      <trkpt lat="42.7762" lon="1.75031">
        <ele>899.93</ele>
        <time>2017-02-26T13:18:45Z</time>
      </trkpt>
      <trkpt lat="42.77622" lon="1.75031">
        <ele>898.97</ele>
        <time>2017-02-26T13:19:14Z</time>
      </trkpt>
      <trkpt lat="42.77622" lon="1.75032">
        <ele>898.49</ele>
        <time>2017-02-26T13:19:38Z</time>
      </trkpt>
      <trkpt lat="42.77622" lon="1.75026">
        <ele>899.93</ele>
        <time>2017-02-26T13:20:10Z</time>
      </trkpt>
      <trkpt lat="42.77622" lon="1.75024">
        <ele>900.41</ele>
        <time>2017-02-26T13:20:42Z</time>
      </trkpt>
      <trkpt lat="42.77622" lon="1.75025">
        <ele>900.41</ele>
        <time>2017-02-26T13:21:17Z</time>
      </trkpt>
      <trkpt lat="42.77621" lon="1.75029">
        <ele>899.93</ele>
        <time>2017-02-26T13:21:50Z</time>
      </trkpt>
      <trkpt lat="42.77623" lon="1.75023">
        <ele>900.89</ele>
        <time>2017-02-26T13:22:21Z</time>
      </trkpt>
      <trkpt lat="42.77622" lon="1.75021">
        <ele>902.82</ele>
        <time>2017-02-26T13:23:00Z</time>
      </trkpt>
      <trkpt lat="42.77623" lon="1.75024">
        <ele>902.82</ele>
        <time>2017-02-26T13:23:31Z</time>
      </trkpt>
      <trkpt lat="42.77623" lon="1.75028">
        <ele>899.93</ele>
        <time>2017-02-26T13:24:08Z</time>
      </trkpt>
      <trkpt lat="42.77623" lon="1.75025">
        <ele>901.37</ele>
        <time>2017-02-26T13:24:40Z</time>
      </trkpt>
      <trkpt lat="42.77623" lon="1.75029">
        <ele>899.45</ele>
        <time>2017-02-26T13:25:15Z</time>
      </trkpt>
      <trkpt lat="42.77624" lon="1.7503">
        <ele>899.45</ele>
        <time>2017-02-26T13:25:39Z</time>
      </trkpt>
      <trkpt lat="42.77624" lon="1.75031">
        <ele>898.01</ele>
        <time>2017-02-26T13:26:08Z</time>
      </trkpt>
      <trkpt lat="42.77623" lon="1.75033">
        <ele>897.53</ele>
        <time>2017-02-26T13:26:37Z</time>
      </trkpt>
      <trkpt lat="42.77623" lon="1.75032">
        <ele>896.57</ele>
        <time>2017-02-26T13:27:04Z</time>
      </trkpt>
      <trkpt lat="42.77624" lon="1.7503">
        <ele>899.45</ele>
        <time>2017-02-26T13:27:42Z</time>
      </trkpt>
      <trkpt lat="42.77625" lon="1.75029">
        <ele>899.45</ele>
        <time>2017-02-26T13:28:09Z</time>
      </trkpt>
      <trkpt lat="42.77625" lon="1.7503">
        <ele>901.37</ele>
        <time>2017-02-26T13:28:41Z</time>
      </trkpt>
      <trkpt lat="42.77625" lon="1.7503">
        <ele>901.37</ele>
        <time>2017-02-26T13:29:12Z</time>
      </trkpt>
      <trkpt lat="42.77625" lon="1.75028">
        <ele>901.37</ele>
        <time>2017-02-26T13:29:38Z</time>
      </trkpt>
      <trkpt lat="42.77625" lon="1.7503">
        <ele>899.93</ele>
        <time>2017-02-26T13:30:10Z</time>
      </trkpt>
      <trkpt lat="42.77624" lon="1.7503">
        <ele>898.97</ele>
        <time>2017-02-26T13:30:46Z</time>
      </trkpt>
      <trkpt lat="42.77625" lon="1.7503">
        <ele>897.53</ele>
        <time>2017-02-26T13:31:17Z</time>
      </trkpt>
      <trkpt lat="42.77625" lon="1.7503">
        <ele>897.53</ele>
        <time>2017-02-26T13:31:50Z</time>
      </trkpt>
      <trkpt lat="42.77625" lon="1.75031">
        <ele>897.05</ele>
        <time>2017-02-26T13:32:17Z</time>
      </trkpt>
      <trkpt lat="42.77625" lon="1.75031">
        <ele>896.57</ele>
        <time>2017-02-26T13:32:57Z</time>
      </trkpt>
      <trkpt lat="42.77625" lon="1.75031">
        <ele>897.05</ele>
        <time>2017-02-26T13:33:29Z</time>
      </trkpt>
      <trkpt lat="42.77625" lon="1.75031">
        <ele>897.53</ele>
        <time>2017-02-26T13:34:04Z</time>
      </trkpt>
      <trkpt lat="42.77624" lon="1.75033">
        <ele>896.57</ele>
        <time>2017-02-26T13:34:39Z</time>
      </trkpt>
      <trkpt lat="42.77626" lon="1.75033">
        <ele>897.53</ele>
        <time>2017-02-26T13:35:20Z</time>
      </trkpt>
      <trkpt lat="42.77626" lon="1.75031">
        <ele>897.53</ele>
        <time>2017-02-26T13:35:53Z</time>
      </trkpt>
      <trkpt lat="42.77625" lon="1.75031">
        <ele>897.05</ele>
        <time>2017-02-26T13:36:29Z</time>
      </trkpt>
      <trkpt lat="42.77624" lon="1.7503">
        <ele>897.53</ele>
        <time>2017-02-26T13:37:00Z</time>
      </trkpt>
      <trkpt lat="42.77624" lon="1.75031">
        <ele>897.53</ele>
        <time>2017-02-26T13:37:33Z</time>
      </trkpt>
      <trkpt lat="42.77624" lon="1.75029">
        <ele>896.57</ele>
        <time>2017-02-26T13:38:07Z</time>
      </trkpt>
      <trkpt lat="42.77624" lon="1.75031">
        <ele>896.09</ele>
        <time>2017-02-26T13:38:41Z</time>
      </trkpt>
      <trkpt lat="42.77624" lon="1.75033">
        <ele>895.61</ele>
        <time>2017-02-26T13:39:05Z</time>
      </trkpt>
      <trkpt lat="42.77625" lon="1.75035">
        <ele>896.09</ele>
        <time>2017-02-26T13:39:30Z</time>
      </trkpt>
      <trkpt lat="42.77625" lon="1.75036">
        <ele>895.12</ele>
        <time>2017-02-26T13:40:17Z</time>
      </trkpt>
      <trkpt lat="42.77626" lon="1.75037">
        <ele>893.68</ele>
        <time>2017-02-26T13:40:52Z</time>
      </trkpt>
      <trkpt lat="42.77625" lon="1.75036">
        <ele>892.24</ele>
        <time>2017-02-26T13:41:31Z</time>
      </trkpt>
      <trkpt lat="42.77625" lon="1.75036">
        <ele>892.72</ele>
        <time>2017-02-26T13:42:07Z</time>
      </trkpt>
      <trkpt lat="42.77625" lon="1.75036">
        <ele>893.2</ele>
        <time>2017-02-26T13:42:40Z</time>
      </trkpt>
      <trkpt lat="42.77625" lon="1.75036">
        <ele>893.68</ele>
        <time>2017-02-26T13:43:14Z</time>
      </trkpt>
      <trkpt lat="42.77625" lon="1.75036">
        <ele>892.24</ele>
        <time>2017-02-26T13:43:46Z</time>
      </trkpt>
      <trkpt lat="42.77625" lon="1.75036">
        <ele>892.24</ele>
        <time>2017-02-26T13:44:09Z</time>
      </trkpt>
      <trkpt lat="42.77625" lon="1.75036">
        <ele>893.2</ele>
        <time>2017-02-26T13:44:43Z</time>
      </trkpt>
      <trkpt lat="42.77624" lon="1.75036">
        <ele>893.68</ele>
        <time>2017-02-26T13:45:04Z</time>
      </trkpt>
      <trkpt lat="42.77625" lon="1.75035">
        <ele>895.12</ele>
        <time>2017-02-26T13:45:39Z</time>
      </trkpt>
      <trkpt lat="42.77624" lon="1.75036">
        <ele>896.09</ele>
        <time>2017-02-26T13:46:12Z</time>
      </trkpt>
      <trkpt lat="42.77624" lon="1.75037">
        <ele>894.64</ele>
        <time>2017-02-26T13:46:45Z</time>
      </trkpt>
      <trkpt lat="42.77624" lon="1.75038">
        <ele>894.16</ele>
        <time>2017-02-26T13:47:22Z</time>
      </trkpt>
      <trkpt lat="42.77625" lon="1.75036">
        <ele>892.24</ele>
        <time>2017-02-26T13:47:59Z</time>
      </trkpt>
      <trkpt lat="42.77625" lon="1.75036">
        <ele>893.68</ele>
        <time>2017-02-26T13:48:29Z</time>
      </trkpt>
      <trkpt lat="42.77625" lon="1.75036">
        <ele>894.16</ele>
        <time>2017-02-26T13:48:59Z</time>
      </trkpt>
      <trkpt lat="42.77623" lon="1.75037">
        <ele>895.61</ele>
        <time>2017-02-26T13:49:24Z</time>
      </trkpt>
      <trkpt lat="42.77624" lon="1.75039">
        <ele>895.61</ele>
        <time>2017-02-26T13:49:57Z</time>
      </trkpt>
      <trkpt lat="42.77624" lon="1.75039">
        <ele>895.61</ele>
        <time>2017-02-26T13:50:16Z</time>
      </trkpt>
      <trkpt lat="42.77621" lon="1.75041">
        <ele>895.12</ele>
        <time>2017-02-26T13:50:30Z</time>
      </trkpt>
      <trkpt lat="42.77621" lon="1.75042">
        <ele>893.68</ele>
        <time>2017-02-26T13:50:55Z</time>
      </trkpt>
      <trkpt lat="42.77622" lon="1.75041">
        <ele>893.2</ele>
        <time>2017-02-26T13:51:33Z</time>
      </trkpt>
      <trkpt lat="42.77622" lon="1.75042">
        <ele>893.2</ele>
        <time>2017-02-26T13:52:04Z</time>
      </trkpt>
      <trkpt lat="42.77625" lon="1.75039">
        <ele>892.72</ele>
        <time>2017-02-26T13:52:21Z</time>
      </trkpt>
      <trkpt lat="42.77634" lon="1.75033">
        <ele>890.8</ele>
        <time>2017-02-26T13:52:38Z</time>
      </trkpt>
      <trkpt lat="42.7764" lon="1.75029">
        <ele>889.36</ele>
        <time>2017-02-26T13:52:53Z</time>
      </trkpt>
      <trkpt lat="42.77644" lon="1.75028">
        <ele>885.99</ele>
        <time>2017-02-26T13:53:09Z</time>
      </trkpt>
      <trkpt lat="42.77658" lon="1.7503">
        <ele>880.22</ele>
        <time>2017-02-26T13:53:25Z</time>
      </trkpt>
      <trkpt lat="42.7767" lon="1.7503">
        <ele>879.26</ele>
        <time>2017-02-26T13:53:42Z</time>
      </trkpt>
      <trkpt lat="42.77681" lon="1.75031">
        <ele>877.34</ele>
        <time>2017-02-26T13:53:59Z</time>
      </trkpt>
      <trkpt lat="42.77683" lon="1.75031">
        <ele>877.82</ele>
        <time>2017-02-26T13:54:17Z</time>
      </trkpt>
      <trkpt lat="42.77684" lon="1.7503">
        <ele>878.78</ele>
        <time>2017-02-26T13:54:37Z</time>
      </trkpt>
      <trkpt lat="42.77687" lon="1.75033">
        <ele>876.38</ele>
        <time>2017-02-26T13:54:53Z</time>
      </trkpt>
      <trkpt lat="42.77689" lon="1.75033">
        <ele>875.42</ele>
        <time>2017-02-26T13:55:11Z</time>
      </trkpt>
      <trkpt lat="42.77695" lon="1.75037">
        <ele>871.57</ele>
        <time>2017-02-26T13:55:28Z</time>
      </trkpt>
      <trkpt lat="42.77712" lon="1.7504">
        <ele>866.29</ele>
        <time>2017-02-26T13:55:42Z</time>
      </trkpt>
      <trkpt lat="42.77724" lon="1.75045">
        <ele>865.32</ele>
        <time>2017-02-26T13:55:57Z</time>
      </trkpt>
      <trkpt lat="42.77725" lon="1.75045">
        <ele>866.77</ele>
        <time>2017-02-26T13:56:12Z</time>
      </trkpt>
      <trkpt lat="42.77726" lon="1.75044">
        <ele>868.21</ele>
        <time>2017-02-26T13:56:45Z</time>
      </trkpt>
      <trkpt lat="42.77726" lon="1.75042">
        <ele>870.61</ele>
        <time>2017-02-26T13:57:10Z</time>
      </trkpt>
      <trkpt lat="42.7773" lon="1.75046">
        <ele>871.09</ele>
        <time>2017-02-26T13:57:29Z</time>
      </trkpt>
      <trkpt lat="42.77739" lon="1.75061">
        <ele>868.21</ele>
        <time>2017-02-26T13:57:45Z</time>
      </trkpt>
      <trkpt lat="42.77743" lon="1.75071">
        <ele>867.25</ele>
        <time>2017-02-26T13:57:57Z</time>
      </trkpt>
      <trkpt lat="42.7775" lon="1.75087">
        <ele>861.96</ele>
        <time>2017-02-26T13:58:12Z</time>
      </trkpt>
      <trkpt lat="42.77759" lon="1.75097">
        <ele>858.59</ele>
        <time>2017-02-26T13:58:27Z</time>
      </trkpt>
      <trkpt lat="42.77768" lon="1.75106">
        <ele>856.67</ele>
        <time>2017-02-26T13:58:42Z</time>
      </trkpt>
      <trkpt lat="42.77779" lon="1.75116">
        <ele>856.67</ele>
        <time>2017-02-26T13:58:58Z</time>
      </trkpt>
      <trkpt lat="42.77791" lon="1.75125">
        <ele>856.19</ele>
        <time>2017-02-26T13:59:14Z</time>
      </trkpt>
      <trkpt lat="42.77801" lon="1.75134">
        <ele>855.23</ele>
        <time>2017-02-26T13:59:31Z</time>
      </trkpt>
      <trkpt lat="42.77809" lon="1.75144">
        <ele>854.27</ele>
        <time>2017-02-26T13:59:44Z</time>
      </trkpt>
      <trkpt lat="42.77811" lon="1.75146">
        <ele>855.23</ele>
        <time>2017-02-26T14:00:01Z</time>
      </trkpt>
      <trkpt lat="42.77818" lon="1.75155">
        <ele>853.31</ele>
        <time>2017-02-26T14:00:16Z</time>
      </trkpt>
      <trkpt lat="42.77827" lon="1.75167">
        <ele>851.38</ele>
        <time>2017-02-26T14:00:31Z</time>
      </trkpt>
      <trkpt lat="42.77842" lon="1.75178">
        <ele>849.46</ele>
        <time>2017-02-26T14:00:49Z</time>
      </trkpt>
      <trkpt lat="42.77857" lon="1.75187">
        <ele>849.94</ele>
        <time>2017-02-26T14:01:07Z</time>
      </trkpt>
      <trkpt lat="42.77874" lon="1.75192">
        <ele>848.98</ele>
        <time>2017-02-26T14:01:24Z</time>
      </trkpt>
      <trkpt lat="42.77887" lon="1.75199">
        <ele>847.06</ele>
        <time>2017-02-26T14:01:38Z</time>
      </trkpt>
      <trkpt lat="42.77899" lon="1.75205">
        <ele>847.54</ele>
        <time>2017-02-26T14:01:53Z</time>
      </trkpt>
      <trkpt lat="42.77905" lon="1.7521">
        <ele>848.02</ele>
        <time>2017-02-26T14:02:06Z</time>
      </trkpt>
      <trkpt lat="42.77912" lon="1.75222">
        <ele>846.58</ele>
        <time>2017-02-26T14:02:19Z</time>
      </trkpt>
      <trkpt lat="42.77915" lon="1.75236">
        <ele>845.14</ele>
        <time>2017-02-26T14:02:33Z</time>
      </trkpt>
      <trkpt lat="42.77917" lon="1.75248">
        <ele>844.66</ele>
        <time>2017-02-26T14:02:46Z</time>
      </trkpt>
      <trkpt lat="42.77918" lon="1.75254">
        <ele>843.69</ele>
        <time>2017-02-26T14:02:51Z</time>
      </trkpt>
      <trkpt lat="42.77923" lon="1.75274">
        <ele>840.33</ele>
        <time>2017-02-26T14:03:06Z</time>
      </trkpt>
      <trkpt lat="42.77927" lon="1.75294">
        <ele>838.89</ele>
        <time>2017-02-26T14:03:22Z</time>
      </trkpt>
      <trkpt lat="42.77928" lon="1.753">
        <ele>838.41</ele>
        <time>2017-02-26T14:03:27Z</time>
      </trkpt>
      <trkpt lat="42.77935" lon="1.75327">
        <ele>837.93</ele>
        <time>2017-02-26T14:03:47Z</time>
      </trkpt>
      <trkpt lat="42.77939" lon="1.75341">
        <ele>840.81</ele>
        <time>2017-02-26T14:04:02Z</time>
      </trkpt>
      <trkpt lat="42.77943" lon="1.75356">
        <ele>841.77</ele>
        <time>2017-02-26T14:04:15Z</time>
      </trkpt>
      <trkpt lat="42.77947" lon="1.75369">
        <ele>844.18</ele>
        <time>2017-02-26T14:04:28Z</time>
      </trkpt>
      <trkpt lat="42.77949" lon="1.75381">
        <ele>847.54</ele>
        <time>2017-02-26T14:04:40Z</time>
      </trkpt>
      <trkpt lat="42.77949" lon="1.75395">
        <ele>851.38</ele>
        <time>2017-02-26T14:04:53Z</time>
      </trkpt>
      <trkpt lat="42.77949" lon="1.75411">
        <ele>853.79</ele>
        <time>2017-02-26T14:05:06Z</time>
      </trkpt>
      <trkpt lat="42.77948" lon="1.75426">
        <ele>855.71</ele>
        <time>2017-02-26T14:05:20Z</time>
      </trkpt>
      <trkpt lat="42.77946" lon="1.75442">
        <ele>857.15</ele>
        <time>2017-02-26T14:05:33Z</time>
      </trkpt>
      <trkpt lat="42.77945" lon="1.75457">
        <ele>859.08</ele>
        <time>2017-02-26T14:05:48Z</time>
      </trkpt>
      <trkpt lat="42.77945" lon="1.75471">
        <ele>860.52</ele>
        <time>2017-02-26T14:06:02Z</time>
      </trkpt>
      <trkpt lat="42.77944" lon="1.75486">
        <ele>863.88</ele>
        <time>2017-02-26T14:06:16Z</time>
      </trkpt>
      <trkpt lat="42.77946" lon="1.75497">
        <ele>865.32</ele>
        <time>2017-02-26T14:06:30Z</time>
      </trkpt>
      <trkpt lat="42.77946" lon="1.75512">
        <ele>865.8</ele>
        <time>2017-02-26T14:06:41Z</time>
      </trkpt>
      <trkpt lat="42.77947" lon="1.75528">
        <ele>868.69</ele>
        <time>2017-02-26T14:06:55Z</time>
      </trkpt>
      <trkpt lat="42.77948" lon="1.75545">
        <ele>872.05</ele>
        <time>2017-02-26T14:07:09Z</time>
      </trkpt>
      <trkpt lat="42.77947" lon="1.75555">
        <ele>873.5</ele>
        <time>2017-02-26T14:07:22Z</time>
      </trkpt>
      <trkpt lat="42.77947" lon="1.75563">
        <ele>874.46</ele>
        <time>2017-02-26T14:07:36Z</time>
      </trkpt>
      <trkpt lat="42.77947" lon="1.75576">
        <ele>875.9</ele>
        <time>2017-02-26T14:07:49Z</time>
      </trkpt>
      <trkpt lat="42.77946" lon="1.75592">
        <ele>876.86</ele>
        <time>2017-02-26T14:08:03Z</time>
      </trkpt>
      <trkpt lat="42.77947" lon="1.75609">
        <ele>878.78</ele>
        <time>2017-02-26T14:08:17Z</time>
      </trkpt>
      <trkpt lat="42.77947" lon="1.75627">
        <ele>880.71</ele>
        <time>2017-02-26T14:08:33Z</time>
      </trkpt>
      <trkpt lat="42.77946" lon="1.75631">
        <ele>881.67</ele>
        <time>2017-02-26T14:08:44Z</time>
      </trkpt>
      <trkpt lat="42.77948" lon="1.75651">
        <ele>881.67</ele>
        <time>2017-02-26T14:09:00Z</time>
      </trkpt>
      <trkpt lat="42.77948" lon="1.75652">
        <ele>881.67</ele>
        <time>2017-02-26T14:09:01Z</time>
      </trkpt>
      <trkpt lat="42.77948" lon="1.75655">
        <ele>881.67</ele>
        <time>2017-02-26T14:09:03Z</time>
      </trkpt>
      <trkpt lat="42.77946" lon="1.75671">
        <ele>882.15</ele>
        <time>2017-02-26T14:09:16Z</time>
      </trkpt>
      <trkpt lat="42.77946" lon="1.75673">
        <ele>882.15</ele>
        <time>2017-02-26T14:09:18Z</time>
      </trkpt>
      <trkpt lat="42.7795" lon="1.7569">
        <ele>883.11</ele>
        <time>2017-02-26T14:09:31Z</time>
      </trkpt>
      <trkpt lat="42.77949" lon="1.75695">
        <ele>883.59</ele>
        <time>2017-02-26T14:09:35Z</time>
      </trkpt>
      <trkpt lat="42.7795" lon="1.75713">
        <ele>884.55</ele>
        <time>2017-02-26T14:09:50Z</time>
      </trkpt>
      <trkpt lat="42.77951" lon="1.75733">
        <ele>885.51</ele>
        <time>2017-02-26T14:10:05Z</time>
      </trkpt>
      <trkpt lat="42.77951" lon="1.75755">
        <ele>884.55</ele>
        <time>2017-02-26T14:10:21Z</time>
      </trkpt>
      <trkpt lat="42.77951" lon="1.75757">
        <ele>884.55</ele>
        <time>2017-02-26T14:10:22Z</time>
      </trkpt>
      <trkpt lat="42.77953" lon="1.75778">
        <ele>883.59</ele>
        <time>2017-02-26T14:10:38Z</time>
      </trkpt>
      <trkpt lat="42.77951" lon="1.7579">
        <ele>884.55</ele>
        <time>2017-02-26T14:10:51Z</time>
      </trkpt>
      <trkpt lat="42.77948" lon="1.75804">
        <ele>885.99</ele>
        <time>2017-02-26T14:11:04Z</time>
      </trkpt>
      <trkpt lat="42.77949" lon="1.75815">
        <ele>885.99</ele>
        <time>2017-02-26T14:11:19Z</time>
      </trkpt>
      <trkpt lat="42.7795" lon="1.7582">
        <ele>886.47</ele>
        <time>2017-02-26T14:11:31Z</time>
      </trkpt>
      <trkpt lat="42.7795" lon="1.75826">
        <ele>885.99</ele>
        <time>2017-02-26T14:11:45Z</time>
      </trkpt>
      <trkpt lat="42.7795" lon="1.75849">
        <ele>884.55</ele>
        <time>2017-02-26T14:12:01Z</time>
      </trkpt>
      <trkpt lat="42.77952" lon="1.75869">
        <ele>883.59</ele>
        <time>2017-02-26T14:12:17Z</time>
      </trkpt>
      <trkpt lat="42.77954" lon="1.75889">
        <ele>882.63</ele>
        <time>2017-02-26T14:12:31Z</time>
      </trkpt>
      <trkpt lat="42.77955" lon="1.75914">
        <ele>882.63</ele>
        <time>2017-02-26T14:12:47Z</time>
      </trkpt>
      <trkpt lat="42.77954" lon="1.75917">
        <ele>882.63</ele>
        <time>2017-02-26T14:12:49Z</time>
      </trkpt>
      <trkpt lat="42.77954" lon="1.75934">
        <ele>881.67</ele>
        <time>2017-02-26T14:13:01Z</time>
      </trkpt>
      <trkpt lat="42.77953" lon="1.75938">
        <ele>881.67</ele>
        <time>2017-02-26T14:13:15Z</time>
      </trkpt>
      <trkpt lat="42.77954" lon="1.75943">
        <ele>881.67</ele>
        <time>2017-02-26T14:13:28Z</time>
      </trkpt>
      <trkpt lat="42.77954" lon="1.75944">
        <ele>880.71</ele>
        <time>2017-02-26T14:13:44Z</time>
      </trkpt>
      <trkpt lat="42.77954" lon="1.75956">
        <ele>878.3</ele>
        <time>2017-02-26T14:13:55Z</time>
      </trkpt>
      <trkpt lat="42.77956" lon="1.75962">
        <ele>877.82</ele>
        <time>2017-02-26T14:14:07Z</time>
      </trkpt>
      <trkpt lat="42.77959" lon="1.75971">
        <ele>878.3</ele>
        <time>2017-02-26T14:14:21Z</time>
      </trkpt>
      <trkpt lat="42.77963" lon="1.75987">
        <ele>875.9</ele>
        <time>2017-02-26T14:14:34Z</time>
      </trkpt>
      <trkpt lat="42.77966" lon="1.76003">
        <ele>873.01</ele>
        <time>2017-02-26T14:14:45Z</time>
      </trkpt>
      <trkpt lat="42.77965" lon="1.76007">
        <ele>873.01</ele>
        <time>2017-02-26T14:14:48Z</time>
      </trkpt>
      <trkpt lat="42.77966" lon="1.76017">
        <ele>872.53</ele>
        <time>2017-02-26T14:14:54Z</time>
      </trkpt>
      <trkpt lat="42.77965" lon="1.76036">
        <ele>869.65</ele>
        <time>2017-02-26T14:15:05Z</time>
      </trkpt>
      <trkpt lat="42.77964" lon="1.76046">
        <ele>869.17</ele>
        <time>2017-02-26T14:15:11Z</time>
      </trkpt>
      <trkpt lat="42.77964" lon="1.76072">
        <ele>867.25</ele>
        <time>2017-02-26T14:15:27Z</time>
      </trkpt>
      <trkpt lat="42.77963" lon="1.76077">
        <ele>866.29</ele>
        <time>2017-02-26T14:15:31Z</time>
      </trkpt>
      <trkpt lat="42.77963" lon="1.76082">
        <ele>865.32</ele>
        <time>2017-02-26T14:15:34Z</time>
      </trkpt>
      <trkpt lat="42.7796" lon="1.76093">
        <ele>865.8</ele>
        <time>2017-02-26T14:15:47Z</time>
      </trkpt>
      <trkpt lat="42.77961" lon="1.76095">
        <ele>866.77</ele>
        <time>2017-02-26T14:15:58Z</time>
      </trkpt>
      <trkpt lat="42.77962" lon="1.76094">
        <ele>867.25</ele>
        <time>2017-02-26T14:16:00Z</time>
      </trkpt>
      <trkpt lat="42.77965" lon="1.76095">
        <ele>868.69</ele>
        <time>2017-02-26T14:16:13Z</time>
      </trkpt>
      <trkpt lat="42.77966" lon="1.76097">
        <ele>871.09</ele>
        <time>2017-02-26T14:16:31Z</time>
      </trkpt>
      <trkpt lat="42.77965" lon="1.76099">
        <ele>873.98</ele>
        <time>2017-02-26T14:16:52Z</time>
      </trkpt>
      <trkpt lat="42.77966" lon="1.76098">
        <ele>874.46</ele>
        <time>2017-02-26T14:17:03Z</time>
      </trkpt>
      <trkpt lat="42.7797" lon="1.76101">
        <ele>875.42</ele>
        <time>2017-02-26T14:17:19Z</time>
      </trkpt>
      <trkpt lat="42.77972" lon="1.76099">
        <ele>875.9</ele>
        <time>2017-02-26T14:17:33Z</time>
      </trkpt>
      <trkpt lat="42.77981" lon="1.76096">
        <ele>874.46</ele>
        <time>2017-02-26T14:17:46Z</time>
      </trkpt>
      <trkpt lat="42.77976" lon="1.76101">
        <ele>874.46</ele>
        <time>2017-02-26T14:18:01Z</time>
      </trkpt>
      <trkpt lat="42.77975" lon="1.76099">
        <ele>878.3</ele>
        <time>2017-02-26T14:18:19Z</time>
      </trkpt>
      <trkpt lat="42.77977" lon="1.76097">
        <ele>880.22</ele>
        <time>2017-02-26T14:18:44Z</time>
      </trkpt>
      <trkpt lat="42.77977" lon="1.76098">
        <ele>881.67</ele>
        <time>2017-02-26T14:19:13Z</time>
      </trkpt>
      <trkpt lat="42.77977" lon="1.76097">
        <ele>881.67</ele>
        <time>2017-02-26T14:19:30Z</time>
      </trkpt>
      <trkpt lat="42.77977" lon="1.76098">
        <ele>881.19</ele>
        <time>2017-02-26T14:19:35Z</time>
      </trkpt>
      <trkpt lat="42.77988" lon="1.76091">
        <ele>878.78</ele>
        <time>2017-02-26T14:19:48Z</time>
      </trkpt>
      <trkpt lat="42.77989" lon="1.7609">
        <ele>878.78</ele>
        <time>2017-02-26T14:19:49Z</time>
      </trkpt>
      <trkpt lat="42.77995" lon="1.76081">
        <ele>876.86</ele>
        <time>2017-02-26T14:19:57Z</time>
      </trkpt>
      <trkpt lat="42.77997" lon="1.76079">
        <ele>876.86</ele>
        <time>2017-02-26T14:19:59Z</time>
      </trkpt>
      <trkpt lat="42.78007" lon="1.76066">
        <ele>875.9</ele>
        <time>2017-02-26T14:20:11Z</time>
      </trkpt>
      <trkpt lat="42.78017" lon="1.76048">
        <ele>874.46</ele>
        <time>2017-02-26T14:20:26Z</time>
      </trkpt>
      <trkpt lat="42.78028" lon="1.76027">
        <ele>872.53</ele>
        <time>2017-02-26T14:20:44Z</time>
      </trkpt>
      <trkpt lat="42.78029" lon="1.76025">
        <ele>872.53</ele>
        <time>2017-02-26T14:20:45Z</time>
      </trkpt>
      <trkpt lat="42.78038" lon="1.76003">
        <ele>872.05</ele>
        <time>2017-02-26T14:21:04Z</time>
      </trkpt>
      <trkpt lat="42.78048" lon="1.75984">
        <ele>873.5</ele>
        <time>2017-02-26T14:21:21Z</time>
      </trkpt>
      <trkpt lat="42.78056" lon="1.75966">
        <ele>873.01</ele>
        <time>2017-02-26T14:21:39Z</time>
      </trkpt>
      <trkpt lat="42.78062" lon="1.75953">
        <ele>873.5</ele>
        <time>2017-02-26T14:21:52Z</time>
      </trkpt>
      <trkpt lat="42.78071" lon="1.75937">
        <ele>875.42</ele>
        <time>2017-02-26T14:22:07Z</time>
      </trkpt>
      <trkpt lat="42.78074" lon="1.7593">
        <ele>875.42</ele>
        <time>2017-02-26T14:22:13Z</time>
      </trkpt>
      <trkpt lat="42.78081" lon="1.75915">
        <ele>874.94</ele>
        <time>2017-02-26T14:22:27Z</time>
      </trkpt>
      <trkpt lat="42.7809" lon="1.75898">
        <ele>874.46</ele>
        <time>2017-02-26T14:22:42Z</time>
      </trkpt>
      <trkpt lat="42.78097" lon="1.75881">
        <ele>876.38</ele>
        <time>2017-02-26T14:22:56Z</time>
      </trkpt>
      <trkpt lat="42.78103" lon="1.75869">
        <ele>876.86</ele>
        <time>2017-02-26T14:23:09Z</time>
      </trkpt>
      <trkpt lat="42.7811" lon="1.75853">
        <ele>876.38</ele>
        <time>2017-02-26T14:23:22Z</time>
      </trkpt>
      <trkpt lat="42.78118" lon="1.75835">
        <ele>876.38</ele>
        <time>2017-02-26T14:23:39Z</time>
      </trkpt>
      <trkpt lat="42.78119" lon="1.75834">
        <ele>876.38</ele>
        <time>2017-02-26T14:23:40Z</time>
      </trkpt>
      <trkpt lat="42.78131" lon="1.75819">
        <ele>878.78</ele>
        <time>2017-02-26T14:23:55Z</time>
      </trkpt>
      <trkpt lat="42.78145" lon="1.75813">
        <ele>879.74</ele>
        <time>2017-02-26T14:24:09Z</time>
      </trkpt>
      <trkpt lat="42.7815" lon="1.75815">
        <ele>881.19</ele>
        <time>2017-02-26T14:24:25Z</time>
      </trkpt>
      <trkpt lat="42.78152" lon="1.75814">
        <ele>881.19</ele>
        <time>2017-02-26T14:24:41Z</time>
      </trkpt>
      <trkpt lat="42.78161" lon="1.75807">
        <ele>881.19</ele>
        <time>2017-02-26T14:24:51Z</time>
      </trkpt>
      <trkpt lat="42.78176" lon="1.75789">
        <ele>881.19</ele>
        <time>2017-02-26T14:25:08Z</time>
      </trkpt>
      <trkpt lat="42.78177" lon="1.75787">
        <ele>881.19</ele>
        <time>2017-02-26T14:25:10Z</time>
      </trkpt>
      <trkpt lat="42.78189" lon="1.7577">
        <ele>881.67</ele>
        <time>2017-02-26T14:25:25Z</time>
      </trkpt>
      <trkpt lat="42.78203" lon="1.75755">
        <ele>883.11</ele>
        <time>2017-02-26T14:25:41Z</time>
      </trkpt>
      <trkpt lat="42.78216" lon="1.75744">
        <ele>883.11</ele>
        <time>2017-02-26T14:25:55Z</time>
      </trkpt>
      <trkpt lat="42.78235" lon="1.75731">
        <ele>884.55</ele>
        <time>2017-02-26T14:26:14Z</time>
      </trkpt>
      <trkpt lat="42.78248" lon="1.75733">
        <ele>883.59</ele>
        <time>2017-02-26T14:26:27Z</time>
      </trkpt>
      <trkpt lat="42.78266" lon="1.7574">
        <ele>884.07</ele>
        <time>2017-02-26T14:26:45Z</time>
      </trkpt>
      <trkpt lat="42.78277" lon="1.7574">
        <ele>884.07</ele>
        <time>2017-02-26T14:26:55Z</time>
      </trkpt>
      <trkpt lat="42.7829" lon="1.75727">
        <ele>884.55</ele>
        <time>2017-02-26T14:27:10Z</time>
      </trkpt>
      <trkpt lat="42.78299" lon="1.75717">
        <ele>882.63</ele>
        <time>2017-02-26T14:27:24Z</time>
      </trkpt>
      <trkpt lat="42.78304" lon="1.75712">
        <ele>882.63</ele>
        <time>2017-02-26T14:27:38Z</time>
      </trkpt>
      <trkpt lat="42.78319" lon="1.75697">
        <ele>884.07</ele>
        <time>2017-02-26T14:27:54Z</time>
      </trkpt>
      <trkpt lat="42.78327" lon="1.75686">
        <ele>885.03</ele>
        <time>2017-02-26T14:28:05Z</time>
      </trkpt>
      <trkpt lat="42.78334" lon="1.75675">
        <ele>885.03</ele>
        <time>2017-02-26T14:28:16Z</time>
      </trkpt>
      <trkpt lat="42.78338" lon="1.75668">
        <ele>884.07</ele>
        <time>2017-02-26T14:28:23Z</time>
      </trkpt>
      <trkpt lat="42.7835" lon="1.75647">
        <ele>883.11</ele>
        <time>2017-02-26T14:28:40Z</time>
      </trkpt>
      <trkpt lat="42.78356" lon="1.75633">
        <ele>881.67</ele>
        <time>2017-02-26T14:28:51Z</time>
      </trkpt>
      <trkpt lat="42.7836" lon="1.75622">
        <ele>882.15</ele>
        <time>2017-02-26T14:29:01Z</time>
      </trkpt>
      <trkpt lat="42.78363" lon="1.75611">
        <ele>882.15</ele>
        <time>2017-02-26T14:29:09Z</time>
      </trkpt>
      <trkpt lat="42.78364" lon="1.75608">
        <ele>882.15</ele>
        <time>2017-02-26T14:29:11Z</time>
      </trkpt>
      <trkpt lat="42.78366" lon="1.75604">
        <ele>882.15</ele>
        <time>2017-02-26T14:29:14Z</time>
      </trkpt>
      <trkpt lat="42.78373" lon="1.7558">
        <ele>880.22</ele>
        <time>2017-02-26T14:29:32Z</time>
      </trkpt>
      <trkpt lat="42.78375" lon="1.75572">
        <ele>879.74</ele>
        <time>2017-02-26T14:29:38Z</time>
      </trkpt>
      <trkpt lat="42.78376" lon="1.75569">
        <ele>879.26</ele>
        <time>2017-02-26T14:29:41Z</time>
      </trkpt>
      <trkpt lat="42.78381" lon="1.75547">
        <ele>877.82</ele>
        <time>2017-02-26T14:29:57Z</time>
      </trkpt>
      <trkpt lat="42.78385" lon="1.75533">
        <ele>878.3</ele>
        <time>2017-02-26T14:30:12Z</time>
      </trkpt>
      <trkpt lat="42.7839" lon="1.7551">
        <ele>877.34</ele>
        <time>2017-02-26T14:30:27Z</time>
      </trkpt>
      <trkpt lat="42.78391" lon="1.75509">
        <ele>876.86</ele>
        <time>2017-02-26T14:30:28Z</time>
      </trkpt>
      <trkpt lat="42.78398" lon="1.75486">
        <ele>875.9</ele>
        <time>2017-02-26T14:30:45Z</time>
      </trkpt>
      <trkpt lat="42.78405" lon="1.75468">
        <ele>873.98</ele>
        <time>2017-02-26T14:31:01Z</time>
      </trkpt>
      <trkpt lat="42.78406" lon="1.75465">
        <ele>873.98</ele>
        <time>2017-02-26T14:31:16Z</time>
      </trkpt>
      <trkpt lat="42.78405" lon="1.75464">
        <ele>874.46</ele>
        <time>2017-02-26T14:31:31Z</time>
      </trkpt>
      <trkpt lat="42.78405" lon="1.75464">
        <ele>873.98</ele>
        <time>2017-02-26T14:31:52Z</time>
      </trkpt>
      <trkpt lat="42.78406" lon="1.75463">
        <ele>873.98</ele>
        <time>2017-02-26T14:32:13Z</time>
      </trkpt>
      <trkpt lat="42.78406" lon="1.75462">
        <ele>874.46</ele>
        <time>2017-02-26T14:32:31Z</time>
      </trkpt>
      <trkpt lat="42.78407" lon="1.75462">
        <ele>875.42</ele>
        <time>2017-02-26T14:32:59Z</time>
      </trkpt>
      <trkpt lat="42.78407" lon="1.75461">
        <ele>875.42</ele>
        <time>2017-02-26T14:33:19Z</time>
      </trkpt>
      <trkpt lat="42.78407" lon="1.75461">
        <ele>875.9</ele>
        <time>2017-02-26T14:33:42Z</time>
      </trkpt>
      <trkpt lat="42.78409" lon="1.75459">
        <ele>875.9</ele>
        <time>2017-02-26T14:34:00Z</time>
      </trkpt>
      <trkpt lat="42.78411" lon="1.75456">
        <ele>876.38</ele>
        <time>2017-02-26T14:34:22Z</time>
      </trkpt>
      <trkpt lat="42.78416" lon="1.7545">
        <ele>876.86</ele>
        <time>2017-02-26T14:34:39Z</time>
      </trkpt>
      <trkpt lat="42.78423" lon="1.75443">
        <ele>875.42</ele>
        <time>2017-02-26T14:34:51Z</time>
      </trkpt>
      <trkpt lat="42.78424" lon="1.75437">
        <ele>875.42</ele>
        <time>2017-02-26T14:35:07Z</time>
      </trkpt>
      <trkpt lat="42.78425" lon="1.7542">
        <ele>874.46</ele>
        <time>2017-02-26T14:35:25Z</time>
      </trkpt>
      <trkpt lat="42.78419" lon="1.7541">
        <ele>873.98</ele>
        <time>2017-02-26T14:35:41Z</time>
      </trkpt>
      <trkpt lat="42.78416" lon="1.75404">
        <ele>873.98</ele>
        <time>2017-02-26T14:35:48Z</time>
      </trkpt>
      <trkpt lat="42.78414" lon="1.754">
        <ele>873.98</ele>
        <time>2017-02-26T14:35:51Z</time>
      </trkpt>
      <trkpt lat="42.78413" lon="1.75392">
        <ele>873.5</ele>
        <time>2017-02-26T14:35:56Z</time>
      </trkpt>
      <trkpt lat="42.7841" lon="1.75371">
        <ele>873.5</ele>
        <time>2017-02-26T14:36:12Z</time>
      </trkpt>
      <trkpt lat="42.78405" lon="1.75344">
        <ele>872.53</ele>
        <time>2017-02-26T14:36:29Z</time>
      </trkpt>
      <trkpt lat="42.78394" lon="1.75339">
        <ele>869.17</ele>
        <time>2017-02-26T14:36:46Z</time>
      </trkpt>
      <trkpt lat="42.78381" lon="1.75343">
        <ele>865.8</ele>
        <time>2017-02-26T14:37:03Z</time>
      </trkpt>
      <trkpt lat="42.78371" lon="1.75342">
        <ele>861.96</ele>
        <time>2017-02-26T14:37:17Z</time>
      </trkpt>
      <trkpt lat="42.78369" lon="1.75341">
        <ele>861.48</ele>
        <time>2017-02-26T14:37:19Z</time>
      </trkpt>
      <trkpt lat="42.78358" lon="1.75323">
        <ele>860.04</ele>
        <time>2017-02-26T14:37:35Z</time>
      </trkpt>
      <trkpt lat="42.78355" lon="1.75318">
        <ele>860.04</ele>
        <time>2017-02-26T14:37:39Z</time>
      </trkpt>
      <trkpt lat="42.7835" lon="1.75297">
        <ele>860.04</ele>
        <time>2017-02-26T14:37:54Z</time>
      </trkpt>
      <trkpt lat="42.78352" lon="1.75274">
        <ele>859.56</ele>
        <time>2017-02-26T14:38:11Z</time>
      </trkpt>
      <trkpt lat="42.78353" lon="1.7526">
        <ele>860.04</ele>
        <time>2017-02-26T14:38:26Z</time>
      </trkpt>
      <trkpt lat="42.78353" lon="1.75258">
        <ele>860.52</ele>
        <time>2017-02-26T14:38:28Z</time>
      </trkpt>
      <trkpt lat="42.78354" lon="1.7525">
        <ele>861.96</ele>
        <time>2017-02-26T14:38:40Z</time>
      </trkpt>
      <trkpt lat="42.78353" lon="1.75249">
        <ele>862.44</ele>
        <time>2017-02-26T14:39:00Z</time>
      </trkpt>
      <trkpt lat="42.78355" lon="1.75243">
        <ele>862.92</ele>
        <time>2017-02-26T14:39:14Z</time>
      </trkpt>
      <trkpt lat="42.78358" lon="1.75225">
        <ele>861.48</ele>
        <time>2017-02-26T14:39:28Z</time>
      </trkpt>
      <trkpt lat="42.7836" lon="1.752">
        <ele>860.04</ele>
        <time>2017-02-26T14:39:44Z</time>
      </trkpt>
      <trkpt lat="42.78359" lon="1.75196">
        <ele>862.44</ele>
        <time>2017-02-26T14:39:59Z</time>
      </trkpt>
      <trkpt lat="42.78354" lon="1.75193">
        <ele>862.92</ele>
        <time>2017-02-26T14:40:31Z</time>
      </trkpt>
      <trkpt lat="42.78354" lon="1.75191">
        <ele>865.8</ele>
        <time>2017-02-26T14:41:06Z</time>
      </trkpt>
      <trkpt lat="42.78354" lon="1.7519">
        <ele>865.32</ele>
        <time>2017-02-26T14:41:29Z</time>
      </trkpt>
      <trkpt lat="42.78357" lon="1.75185">
        <ele>864.36</ele>
        <time>2017-02-26T14:41:48Z</time>
      </trkpt>
      <trkpt lat="42.78358" lon="1.75184">
        <ele>865.32</ele>
        <time>2017-02-26T14:42:03Z</time>
      </trkpt>
      <trkpt lat="42.78358" lon="1.75184">
        <ele>866.29</ele>
        <time>2017-02-26T14:42:27Z</time>
      </trkpt>
      <trkpt lat="42.78359" lon="1.75174">
        <ele>865.32</ele>
        <time>2017-02-26T14:42:47Z</time>
      </trkpt>
      <trkpt lat="42.78361" lon="1.75152">
        <ele>862.44</ele>
        <time>2017-02-26T14:43:01Z</time>
      </trkpt>
      <trkpt lat="42.78362" lon="1.75127">
        <ele>861.96</ele>
        <time>2017-02-26T14:43:14Z</time>
      </trkpt>
      <trkpt lat="42.78362" lon="1.75102">
        <ele>862.44</ele>
        <time>2017-02-26T14:43:29Z</time>
      </trkpt>
      <trkpt lat="42.78361" lon="1.75075">
        <ele>862.92</ele>
        <time>2017-02-26T14:43:44Z</time>
      </trkpt>
      <trkpt lat="42.78357" lon="1.75058">
        <ele>861.96</ele>
        <time>2017-02-26T14:43:59Z</time>
      </trkpt>
      <trkpt lat="42.78353" lon="1.75044">
        <ele>861.48</ele>
        <time>2017-02-26T14:44:13Z</time>
      </trkpt>
      <trkpt lat="42.78353" lon="1.75043">
        <ele>861.96</ele>
        <time>2017-02-26T14:44:24Z</time>
      </trkpt>
      <trkpt lat="42.78349" lon="1.75038">
        <ele>862.92</ele>
        <time>2017-02-26T14:44:39Z</time>
      </trkpt>
      <trkpt lat="42.78338" lon="1.75034">
        <ele>860.04</ele>
        <time>2017-02-26T14:44:56Z</time>
      </trkpt>
      <trkpt lat="42.78332" lon="1.75033">
        <ele>860.04</ele>
        <time>2017-02-26T14:45:12Z</time>
      </trkpt>
      <trkpt lat="42.78331" lon="1.75031">
        <ele>861</ele>
        <time>2017-02-26T14:45:33Z</time>
      </trkpt>
      <trkpt lat="42.78331" lon="1.75031">
        <ele>861</ele>
        <time>2017-02-26T14:45:49Z</time>
      </trkpt>
      <trkpt lat="42.78331" lon="1.7503">
        <ele>861</ele>
        <time>2017-02-26T14:46:07Z</time>
      </trkpt>
      <trkpt lat="42.78332" lon="1.7503">
        <ele>861.48</ele>
        <time>2017-02-26T14:46:37Z</time>
      </trkpt>
      <trkpt lat="42.78333" lon="1.7503">
        <ele>861.48</ele>
        <time>2017-02-26T14:46:55Z</time>
      </trkpt>
      <trkpt lat="42.78333" lon="1.7503">
        <ele>861.96</ele>
        <time>2017-02-26T14:47:17Z</time>
      </trkpt>
      <trkpt lat="42.78334" lon="1.75029">
        <ele>861.96</ele>
        <time>2017-02-26T14:47:45Z</time>
      </trkpt>
      <trkpt lat="42.78333" lon="1.75028">
        <ele>861.48</ele>
        <time>2017-02-26T14:48:14Z</time>
      </trkpt>
      <trkpt lat="42.78333" lon="1.75029">
        <ele>861.48</ele>
        <time>2017-02-26T14:48:38Z</time>
      </trkpt>
      <trkpt lat="42.78333" lon="1.75028">
        <ele>861.96</ele>
        <time>2017-02-26T14:49:09Z</time>
      </trkpt>
      <trkpt lat="42.78333" lon="1.7503">
        <ele>861.96</ele>
        <time>2017-02-26T14:49:36Z</time>
      </trkpt>
      <trkpt lat="42.78333" lon="1.7503">
        <ele>861.96</ele>
        <time>2017-02-26T14:50:02Z</time>
      </trkpt>
      <trkpt lat="42.78333" lon="1.7503">
        <ele>861.96</ele>
        <time>2017-02-26T14:50:27Z</time>
      </trkpt>
      <trkpt lat="42.78332" lon="1.7503">
        <ele>861.96</ele>
        <time>2017-02-26T14:50:49Z</time>
      </trkpt>
      <trkpt lat="42.78328" lon="1.75027">
        <ele>861.48</ele>
        <time>2017-02-26T14:51:05Z</time>
      </trkpt>
      <trkpt lat="42.78323" lon="1.75022">
        <ele>860.52</ele>
        <time>2017-02-26T14:51:20Z</time>
      </trkpt>
      <trkpt lat="42.78318" lon="1.75015">
        <ele>858.59</ele>
        <time>2017-02-26T14:51:37Z</time>
      </trkpt>
      <trkpt lat="42.78305" lon="1.7501">
        <ele>855.23</ele>
        <time>2017-02-26T14:51:52Z</time>
      </trkpt>
      <trkpt lat="42.78291" lon="1.75011">
        <ele>853.79</ele>
        <time>2017-02-26T14:52:10Z</time>
      </trkpt>
      <trkpt lat="42.78275" lon="1.75015">
        <ele>853.31</ele>
        <time>2017-02-26T14:52:26Z</time>
      </trkpt>
      <trkpt lat="42.78263" lon="1.75009">
        <ele>852.83</ele>
        <time>2017-02-26T14:52:41Z</time>
      </trkpt>
      <trkpt lat="42.78257" lon="1.74995">
        <ele>853.79</ele>
        <time>2017-02-26T14:52:59Z</time>
      </trkpt>
      <trkpt lat="42.78255" lon="1.74988">
        <ele>853.79</ele>
        <time>2017-02-26T14:53:14Z</time>
      </trkpt>
      <trkpt lat="42.78254" lon="1.7498">
        <ele>853.79</ele>
        <time>2017-02-26T14:53:26Z</time>
      </trkpt>
      <trkpt lat="42.78251" lon="1.74963">
        <ele>852.83</ele>
        <time>2017-02-26T14:53:41Z</time>
      </trkpt>
      <trkpt lat="42.78247" lon="1.74941">
        <ele>851.38</ele>
        <time>2017-02-26T14:53:57Z</time>
      </trkpt>
      <trkpt lat="42.78243" lon="1.74925">
        <ele>848.98</ele>
        <time>2017-02-26T14:54:12Z</time>
      </trkpt>
      <trkpt lat="42.78239" lon="1.74908">
        <ele>848.5</ele>
        <time>2017-02-26T14:54:27Z</time>
      </trkpt>
      <trkpt lat="42.78234" lon="1.74895">
        <ele>845.62</ele>
        <time>2017-02-26T14:54:40Z</time>
      </trkpt>
      <trkpt lat="42.78226" lon="1.74882">
        <ele>844.18</ele>
        <time>2017-02-26T14:54:55Z</time>
      </trkpt>
      <trkpt lat="42.78218" lon="1.74871">
        <ele>842.73</ele>
        <time>2017-02-26T14:55:08Z</time>
      </trkpt>
      <trkpt lat="42.7821" lon="1.74862">
        <ele>842.73</ele>
        <time>2017-02-26T14:55:21Z</time>
      </trkpt>
      <trkpt lat="42.78198" lon="1.74852">
        <ele>841.29</ele>
        <time>2017-02-26T14:55:37Z</time>
      </trkpt>
      <trkpt lat="42.78184" lon="1.74846">
        <ele>843.21</ele>
        <time>2017-02-26T14:55:53Z</time>
      </trkpt>
      <trkpt lat="42.7817" lon="1.7484">
        <ele>845.62</ele>
        <time>2017-02-26T14:56:08Z</time>
      </trkpt>
      <trkpt lat="42.78167" lon="1.74838">
        <ele>846.1</ele>
        <time>2017-02-26T14:56:18Z</time>
      </trkpt>
      <trkpt lat="42.78154" lon="1.74837">
        <ele>847.54</ele>
        <time>2017-02-26T14:56:32Z</time>
      </trkpt>
      <trkpt lat="42.78152" lon="1.74836">
        <ele>847.54</ele>
        <time>2017-02-26T14:56:46Z</time>
      </trkpt>
      <trkpt lat="42.78149" lon="1.74836">
        <ele>848.5</ele>
        <time>2017-02-26T14:56:59Z</time>
      </trkpt>
      <trkpt lat="42.78146" lon="1.74837">
        <ele>848.98</ele>
        <time>2017-02-26T14:57:11Z</time>
      </trkpt>
      <trkpt lat="42.78144" lon="1.74836">
        <ele>850.42</ele>
        <time>2017-02-26T14:57:29Z</time>
      </trkpt>
      <trkpt lat="42.78143" lon="1.74836">
        <ele>850.42</ele>
        <time>2017-02-26T14:57:48Z</time>
      </trkpt>
      <trkpt lat="42.78142" lon="1.74836">
        <ele>850.42</ele>
        <time>2017-02-26T14:58:07Z</time>
      </trkpt>
      <trkpt lat="42.78137" lon="1.74832">
        <ele>850.42</ele>
        <time>2017-02-26T14:58:24Z</time>
      </trkpt>
      <trkpt lat="42.78131" lon="1.74829">
        <ele>850.42</ele>
        <time>2017-02-26T14:58:30Z</time>
      </trkpt>
      <trkpt lat="42.78122" lon="1.74812">
        <ele>849.94</ele>
        <time>2017-02-26T14:58:45Z</time>
      </trkpt>
      <trkpt lat="42.7812" lon="1.74799">
        <ele>849.94</ele>
        <time>2017-02-26T14:58:55Z</time>
      </trkpt>
      <trkpt lat="42.78118" lon="1.74792">
        <ele>849.94</ele>
        <time>2017-02-26T14:59:00Z</time>
      </trkpt>
      <trkpt lat="42.78114" lon="1.7478">
        <ele>848.98</ele>
        <time>2017-02-26T14:59:13Z</time>
      </trkpt>
      <trkpt lat="42.78111" lon="1.74765">
        <ele>847.54</ele>
        <time>2017-02-26T14:59:27Z</time>
      </trkpt>
      <trkpt lat="42.7811" lon="1.74744">
        <ele>846.58</ele>
        <time>2017-02-26T14:59:43Z</time>
      </trkpt>
      <trkpt lat="42.78108" lon="1.74723">
        <ele>845.14</ele>
        <time>2017-02-26T14:59:59Z</time>
      </trkpt>
      <trkpt lat="42.78105" lon="1.74705">
        <ele>844.66</ele>
        <time>2017-02-26T15:00:12Z</time>
      </trkpt>
      <trkpt lat="42.78105" lon="1.74685">
        <ele>842.25</ele>
        <time>2017-02-26T15:00:27Z</time>
      </trkpt>
      <trkpt lat="42.78105" lon="1.74683">
        <ele>842.25</ele>
        <time>2017-02-26T15:00:28Z</time>
      </trkpt>
      <trkpt lat="42.7811" lon="1.74666">
        <ele>838.89</ele>
        <time>2017-02-26T15:00:42Z</time>
      </trkpt>
      <trkpt lat="42.78107" lon="1.74648">
        <ele>836.48</ele>
        <time>2017-02-26T15:00:56Z</time>
      </trkpt>
      <trkpt lat="42.78107" lon="1.74647">
        <ele>836.48</ele>
        <time>2017-02-26T15:00:57Z</time>
      </trkpt>
      <trkpt lat="42.78102" lon="1.74632">
        <ele>836</ele>
        <time>2017-02-26T15:01:10Z</time>
      </trkpt>
      <trkpt lat="42.78102" lon="1.74626">
        <ele>836</ele>
        <time>2017-02-26T15:01:14Z</time>
      </trkpt>
      <trkpt lat="42.78094" lon="1.74598">
        <ele>834.08</ele>
        <time>2017-02-26T15:01:33Z</time>
      </trkpt>
      <trkpt lat="42.7809" lon="1.7458">
        <ele>834.08</ele>
        <time>2017-02-26T15:01:47Z</time>
      </trkpt>
      <trkpt lat="42.78082" lon="1.74563">
        <ele>833.6</ele>
        <time>2017-02-26T15:02:04Z</time>
      </trkpt>
      <trkpt lat="42.78077" lon="1.74545">
        <ele>833.12</ele>
        <time>2017-02-26T15:02:22Z</time>
      </trkpt>
      <trkpt lat="42.78073" lon="1.74532">
        <ele>832.64</ele>
        <time>2017-02-26T15:02:36Z</time>
      </trkpt>
      <trkpt lat="42.78069" lon="1.74516">
        <ele>831.68</ele>
        <time>2017-02-26T15:02:52Z</time>
      </trkpt>
      <trkpt lat="42.78063" lon="1.745">
        <ele>829.76</ele>
        <time>2017-02-26T15:03:08Z</time>
      </trkpt>
      <trkpt lat="42.78062" lon="1.74499">
        <ele>829.76</ele>
        <time>2017-02-26T15:03:11Z</time>
      </trkpt>
      <trkpt lat="42.78059" lon="1.7449">
        <ele>828.31</ele>
        <time>2017-02-26T15:03:25Z</time>
      </trkpt>
      <trkpt lat="42.78052" lon="1.74479">
        <ele>828.31</ele>
        <time>2017-02-26T15:03:38Z</time>
      </trkpt>
      <trkpt lat="42.78051" lon="1.74468">
        <ele>827.83</ele>
        <time>2017-02-26T15:03:54Z</time>
      </trkpt>
      <trkpt lat="42.78048" lon="1.74451">
        <ele>825.91</ele>
        <time>2017-02-26T15:04:08Z</time>
      </trkpt>
      <trkpt lat="42.78049" lon="1.74432">
        <ele>823.51</ele>
        <time>2017-02-26T15:04:25Z</time>
      </trkpt>
      <trkpt lat="42.78052" lon="1.7441">
        <ele>821.1</ele>
        <time>2017-02-26T15:04:42Z</time>
      </trkpt>
      <trkpt lat="42.78054" lon="1.74393">
        <ele>819.66</ele>
        <time>2017-02-26T15:04:56Z</time>
      </trkpt>
      <trkpt lat="42.78055" lon="1.74389">
        <ele>819.66</ele>
        <time>2017-02-26T15:05:00Z</time>
      </trkpt>
      <trkpt lat="42.7806" lon="1.74369">
        <ele>818.22</ele>
        <time>2017-02-26T15:05:16Z</time>
      </trkpt>
      <trkpt lat="42.78066" lon="1.74354">
        <ele>816.3</ele>
        <time>2017-02-26T15:05:31Z</time>
      </trkpt>
      <trkpt lat="42.78073" lon="1.74345">
        <ele>814.85</ele>
        <time>2017-02-26T15:05:43Z</time>
      </trkpt>
      <trkpt lat="42.78076" lon="1.74336">
        <ele>814.85</ele>
        <time>2017-02-26T15:05:53Z</time>
      </trkpt>
      <trkpt lat="42.78085" lon="1.74323">
        <ele>813.89</ele>
        <time>2017-02-26T15:06:07Z</time>
      </trkpt>
      <trkpt lat="42.7809" lon="1.74314">
        <ele>812.45</ele>
        <time>2017-02-26T15:06:19Z</time>
      </trkpt>
      <trkpt lat="42.78095" lon="1.743">
        <ele>811.97</ele>
        <time>2017-02-26T15:06:33Z</time>
      </trkpt>
      <trkpt lat="42.78088" lon="1.74296">
        <ele>811.01</ele>
        <time>2017-02-26T15:06:45Z</time>
      </trkpt>
      <trkpt lat="42.78082" lon="1.74303">
        <ele>809.57</ele>
        <time>2017-02-26T15:06:59Z</time>
      </trkpt>
      <trkpt lat="42.78082" lon="1.74302">
        <ele>809.57</ele>
        <time>2017-02-26T15:07:21Z</time>
      </trkpt>
      <trkpt lat="42.78082" lon="1.74302">
        <ele>810.05</ele>
        <time>2017-02-26T15:07:26Z</time>
      </trkpt>
      <trkpt lat="42.78072" lon="1.74325">
        <ele>807.64</ele>
        <time>2017-02-26T15:07:42Z</time>
      </trkpt>
      <trkpt lat="42.7807" lon="1.74329">
        <ele>807.64</ele>
        <time>2017-02-26T15:07:46Z</time>
      </trkpt>
      <trkpt lat="42.78055" lon="1.74343">
        <ele>806.68</ele>
        <time>2017-02-26T15:08:03Z</time>
      </trkpt>
      <trkpt lat="42.78043" lon="1.74356">
        <ele>806.2</ele>
        <time>2017-02-26T15:08:21Z</time>
      </trkpt>
      <trkpt lat="42.78037" lon="1.74367">
        <ele>805.72</ele>
        <time>2017-02-26T15:08:37Z</time>
      </trkpt>
      <trkpt lat="42.7803" lon="1.74381">
        <ele>804.76</ele>
        <time>2017-02-26T15:08:53Z</time>
      </trkpt>
      <trkpt lat="42.78028" lon="1.74394">
        <ele>804.28</ele>
        <time>2017-02-26T15:09:06Z</time>
      </trkpt>
      <trkpt lat="42.78028" lon="1.74393">
        <ele>803.8</ele>
        <time>2017-02-26T15:09:24Z</time>
      </trkpt>
      <trkpt lat="42.78028" lon="1.74396">
        <ele>803.8</ele>
        <time>2017-02-26T15:09:37Z</time>
      </trkpt>
      <trkpt lat="42.78028" lon="1.74398">
        <ele>803.8</ele>
        <time>2017-02-26T15:10:06Z</time>
      </trkpt>
      <trkpt lat="42.78028" lon="1.74398">
        <ele>804.28</ele>
        <time>2017-02-26T15:10:34Z</time>
      </trkpt>
      <trkpt lat="42.78027" lon="1.74402">
        <ele>803.32</ele>
        <time>2017-02-26T15:10:53Z</time>
      </trkpt>
      <trkpt lat="42.78023" lon="1.74412">
        <ele>800.92</ele>
        <time>2017-02-26T15:11:03Z</time>
      </trkpt>
      <trkpt lat="42.7802" lon="1.74413">
        <ele>800.92</ele>
        <time>2017-02-26T15:11:06Z</time>
      </trkpt>
      <trkpt lat="42.78018" lon="1.74405">
        <ele>800.44</ele>
        <time>2017-02-26T15:11:13Z</time>
      </trkpt>
      <trkpt lat="42.7802" lon="1.74388">
        <ele>800.92</ele>
        <time>2017-02-26T15:11:27Z</time>
      </trkpt>
      <trkpt lat="42.78024" lon="1.74365">
        <ele>799.95</ele>
        <time>2017-02-26T15:11:43Z</time>
      </trkpt>
      <trkpt lat="42.78031" lon="1.74346">
        <ele>798.51</ele>
        <time>2017-02-26T15:11:57Z</time>
      </trkpt>
      <trkpt lat="42.78042" lon="1.7433">
        <ele>796.11</ele>
        <time>2017-02-26T15:12:13Z</time>
      </trkpt>
      <trkpt lat="42.78048" lon="1.7432">
        <ele>795.15</ele>
        <time>2017-02-26T15:12:23Z</time>
      </trkpt>
      <trkpt lat="42.78053" lon="1.74309">
        <ele>794.67</ele>
        <time>2017-02-26T15:12:38Z</time>
      </trkpt>
      <trkpt lat="42.78056" lon="1.74304">
        <ele>794.19</ele>
        <time>2017-02-26T15:12:49Z</time>
      </trkpt>
      <trkpt lat="42.78067" lon="1.74292">
        <ele>792.26</ele>
        <time>2017-02-26T15:13:05Z</time>
      </trkpt>
      <trkpt lat="42.78074" lon="1.74277">
        <ele>791.3</ele>
        <time>2017-02-26T15:13:18Z</time>
      </trkpt>
      <trkpt lat="42.78078" lon="1.74267">
        <ele>791.3</ele>
        <time>2017-02-26T15:13:32Z</time>
      </trkpt>
      <trkpt lat="42.78082" lon="1.7426">
        <ele>791.3</ele>
        <time>2017-02-26T15:13:40Z</time>
      </trkpt>
      <trkpt lat="42.78096" lon="1.74246">
        <ele>788.9</ele>
        <time>2017-02-26T15:13:59Z</time>
      </trkpt>
      <trkpt lat="42.78106" lon="1.74239">
        <ele>789.38</ele>
        <time>2017-02-26T15:14:12Z</time>
      </trkpt>
      <trkpt lat="42.78109" lon="1.74237">
        <ele>789.38</ele>
        <time>2017-02-26T15:14:15Z</time>
      </trkpt>
      <trkpt lat="42.78109" lon="1.74229">
        <ele>786.02</ele>
        <time>2017-02-26T15:14:29Z</time>
      </trkpt>
      <trkpt lat="42.78103" lon="1.74232">
        <ele>785.53</ele>
        <time>2017-02-26T15:14:35Z</time>
      </trkpt>
      <trkpt lat="42.78097" lon="1.74235">
        <ele>784.09</ele>
        <time>2017-02-26T15:14:41Z</time>
      </trkpt>
      <trkpt lat="42.78085" lon="1.74246">
        <ele>780.73</ele>
        <time>2017-02-26T15:14:55Z</time>
      </trkpt>
      <trkpt lat="42.7807" lon="1.74258">
        <ele>779.77</ele>
        <time>2017-02-26T15:15:12Z</time>
      </trkpt>
      <trkpt lat="42.78057" lon="1.74272">
        <ele>777.36</ele>
        <time>2017-02-26T15:15:28Z</time>
      </trkpt>
      <trkpt lat="42.78045" lon="1.74283">
        <ele>776.4</ele>
        <time>2017-02-26T15:15:42Z</time>
      </trkpt>
      <trkpt lat="42.7804" lon="1.74287">
        <ele>777.84</ele>
        <time>2017-02-26T15:15:56Z</time>
      </trkpt>
      <trkpt lat="42.78039" lon="1.74287">
        <ele>778.32</ele>
        <time>2017-02-26T15:16:06Z</time>
      </trkpt>
      <trkpt lat="42.78036" lon="1.74289">
        <ele>778.32</ele>
        <time>2017-02-26T15:16:10Z</time>
      </trkpt>
      <trkpt lat="42.78033" lon="1.74292">
        <ele>777.84</ele>
        <time>2017-02-26T15:16:13Z</time>
      </trkpt>
      <trkpt lat="42.78021" lon="1.743">
        <ele>774.96</ele>
        <time>2017-02-26T15:16:31Z</time>
      </trkpt>
      <trkpt lat="42.78021" lon="1.743">
        <ele>775.92</ele>
        <time>2017-02-26T15:16:56Z</time>
      </trkpt>
      <trkpt lat="42.78021" lon="1.74301">
        <ele>777.84</ele>
        <time>2017-02-26T15:17:24Z</time>
      </trkpt>
      <trkpt lat="42.78005" lon="1.7431">
        <ele>776.88</ele>
        <time>2017-02-26T15:17:40Z</time>
      </trkpt>
      <trkpt lat="42.77993" lon="1.74319">
        <ele>775.92</ele>
        <time>2017-02-26T15:17:54Z</time>
      </trkpt>
      <trkpt lat="42.77981" lon="1.74336">
        <ele>773.52</ele>
        <time>2017-02-26T15:18:10Z</time>
      </trkpt>
      <trkpt lat="42.77974" lon="1.74356">
        <ele>771.6</ele>
        <time>2017-02-26T15:18:27Z</time>
      </trkpt>
      <trkpt lat="42.77976" lon="1.74372">
        <ele>771.6</ele>
        <time>2017-02-26T15:18:38Z</time>
      </trkpt>
      <trkpt lat="42.77975" lon="1.74387">
        <ele>768.23</ele>
        <time>2017-02-26T15:18:49Z</time>
      </trkpt>
      <trkpt lat="42.77969" lon="1.74383">
        <ele>766.79</ele>
        <time>2017-02-26T15:18:59Z</time>
      </trkpt>
      <trkpt lat="42.77968" lon="1.74358">
        <ele>765.83</ele>
        <time>2017-02-26T15:19:16Z</time>
      </trkpt>
      <trkpt lat="42.77968" lon="1.74354">
        <ele>765.35</ele>
        <time>2017-02-26T15:19:19Z</time>
      </trkpt>
      <trkpt lat="42.7797" lon="1.74328">
        <ele>762.46</ele>
        <time>2017-02-26T15:19:37Z</time>
      </trkpt>
      <trkpt lat="42.77978" lon="1.74305">
        <ele>759.58</ele>
        <time>2017-02-26T15:19:54Z</time>
      </trkpt>
      <trkpt lat="42.77981" lon="1.74297">
        <ele>759.1</ele>
        <time>2017-02-26T15:20:00Z</time>
      </trkpt>
      <trkpt lat="42.7799" lon="1.74289">
        <ele>757.66</ele>
        <time>2017-02-26T15:20:10Z</time>
      </trkpt>
      <trkpt lat="42.77992" lon="1.74286">
        <ele>757.18</ele>
        <time>2017-02-26T15:20:13Z</time>
      </trkpt>
      <trkpt lat="42.77998" lon="1.74283">
        <ele>757.18</ele>
        <time>2017-02-26T15:20:18Z</time>
      </trkpt>
      <trkpt lat="42.7801" lon="1.74272">
        <ele>756.21</ele>
        <time>2017-02-26T15:20:32Z</time>
      </trkpt>
      <trkpt lat="42.7802" lon="1.7426">
        <ele>754.77</ele>
        <time>2017-02-26T15:20:46Z</time>
      </trkpt>
      <trkpt lat="42.78027" lon="1.74252">
        <ele>753.81</ele>
        <time>2017-02-26T15:20:57Z</time>
      </trkpt>
      <trkpt lat="42.78033" lon="1.7424">
        <ele>753.81</ele>
        <time>2017-02-26T15:21:10Z</time>
      </trkpt>
      <trkpt lat="42.78031" lon="1.74243">
        <ele>751.89</ele>
        <time>2017-02-26T15:21:28Z</time>
      </trkpt>
      <trkpt lat="42.78028" lon="1.74244">
        <ele>750.45</ele>
        <time>2017-02-26T15:21:41Z</time>
      </trkpt>
      <trkpt lat="42.78026" lon="1.74245">
        <ele>749.49</ele>
        <time>2017-02-26T15:21:46Z</time>
      </trkpt>
      <trkpt lat="42.78016" lon="1.7425">
        <ele>746.12</ele>
        <time>2017-02-26T15:21:59Z</time>
      </trkpt>
      <trkpt lat="42.78013" lon="1.74253">
        <ele>745.64</ele>
        <time>2017-02-26T15:22:10Z</time>
      </trkpt>
      <trkpt lat="42.78009" lon="1.74256">
        <ele>746.12</ele>
        <time>2017-02-26T15:22:26Z</time>
      </trkpt>
      <trkpt lat="42.78008" lon="1.74256">
        <ele>746.12</ele>
        <time>2017-02-26T15:22:40Z</time>
      </trkpt>
      <trkpt lat="42.78007" lon="1.74256">
        <ele>745.64</ele>
        <time>2017-02-26T15:22:59Z</time>
      </trkpt>
      <trkpt lat="42.78007" lon="1.74253">
        <ele>747.08</ele>
        <time>2017-02-26T15:23:23Z</time>
      </trkpt>
      <trkpt lat="42.78007" lon="1.74253">
        <ele>749</ele>
        <time>2017-02-26T15:23:40Z</time>
      </trkpt>
      <trkpt lat="42.78008" lon="1.74254">
        <ele>749.49</ele>
        <time>2017-02-26T15:24:03Z</time>
      </trkpt>
      <trkpt lat="42.78007" lon="1.74255">
        <ele>750.93</ele>
        <time>2017-02-26T15:24:18Z</time>
      </trkpt>
      <trkpt lat="42.78007" lon="1.74255">
        <ele>751.41</ele>
        <time>2017-02-26T15:24:38Z</time>
      </trkpt>
      <trkpt lat="42.78007" lon="1.74254">
        <ele>751.89</ele>
        <time>2017-02-26T15:24:59Z</time>
      </trkpt>
      <trkpt lat="42.78007" lon="1.74253">
        <ele>752.85</ele>
        <time>2017-02-26T15:25:17Z</time>
      </trkpt>
      <trkpt lat="42.78006" lon="1.74253">
        <ele>753.33</ele>
        <time>2017-02-26T15:25:35Z</time>
      </trkpt>
      <trkpt lat="42.77997" lon="1.74258">
        <ele>752.37</ele>
        <time>2017-02-26T15:25:50Z</time>
      </trkpt>
      <trkpt lat="42.78001" lon="1.74252">
        <ele>748.52</ele>
        <time>2017-02-26T15:26:04Z</time>
      </trkpt>
      <trkpt lat="42.78008" lon="1.7424">
        <ele>743.72</ele>
        <time>2017-02-26T15:26:20Z</time>
      </trkpt>
      <trkpt lat="42.78008" lon="1.74232">
        <ele>741.31</ele>
        <time>2017-02-26T15:26:31Z</time>
      </trkpt>
      <trkpt lat="42.78009" lon="1.74231">
        <ele>741.31</ele>
        <time>2017-02-26T15:26:34Z</time>
      </trkpt>
      <trkpt lat="42.78013" lon="1.74218">
        <ele>734.1</ele>
        <time>2017-02-26T15:26:48Z</time>
      </trkpt>
      <trkpt lat="42.78016" lon="1.7421">
        <ele>728.34</ele>
        <time>2017-02-26T15:27:03Z</time>
      </trkpt>
      <trkpt lat="42.78013" lon="1.74207">
        <ele>725.45</ele>
        <time>2017-02-26T15:27:18Z</time>
      </trkpt>
      <trkpt lat="42.78024" lon="1.74191">
        <ele>723.53</ele>
        <time>2017-02-26T15:27:35Z</time>
      </trkpt>
      <trkpt lat="42.78035" lon="1.74174">
        <ele>721.13</ele>
        <time>2017-02-26T15:27:52Z</time>
      </trkpt>
      <trkpt lat="42.78034" lon="1.74169">
        <ele>718.72</ele>
        <time>2017-02-26T15:28:06Z</time>
      </trkpt>
      <trkpt lat="42.78024" lon="1.74171">
        <ele>715.36</ele>
        <time>2017-02-26T15:28:21Z</time>
      </trkpt>
      <trkpt lat="42.78016" lon="1.7418">
        <ele>710.07</ele>
        <time>2017-02-26T15:28:36Z</time>
      </trkpt>
      <trkpt lat="42.78012" lon="1.74181">
        <ele>708.15</ele>
        <time>2017-02-26T15:28:51Z</time>
      </trkpt>
      <trkpt lat="42.7801" lon="1.74182">
        <ele>705.75</ele>
        <time>2017-02-26T15:29:10Z</time>
      </trkpt>
      <trkpt lat="42.78007" lon="1.74181">
        <ele>705.26</ele>
        <time>2017-02-26T15:29:23Z</time>
      </trkpt>
      <trkpt lat="42.78003" lon="1.7418">
        <ele>706.71</ele>
        <time>2017-02-26T15:29:42Z</time>
      </trkpt>
      <trkpt lat="42.77995" lon="1.74184">
        <ele>706.23</ele>
        <time>2017-02-26T15:30:03Z</time>
      </trkpt>
      <trkpt lat="42.77977" lon="1.74186">
        <ele>706.71</ele>
        <time>2017-02-26T15:30:21Z</time>
      </trkpt>
      <trkpt lat="42.77964" lon="1.74198">
        <ele>711.03</ele>
        <time>2017-02-26T15:30:40Z</time>
      </trkpt>
      <trkpt lat="42.77952" lon="1.742">
        <ele>714.88</ele>
        <time>2017-02-26T15:30:56Z</time>
      </trkpt>
      <trkpt lat="42.77935" lon="1.74206">
        <ele>719.2</ele>
        <time>2017-02-26T15:31:14Z</time>
      </trkpt>
      <trkpt lat="42.77918" lon="1.74223">
        <ele>725.93</ele>
        <time>2017-02-26T15:31:31Z</time>
      </trkpt>
      <trkpt lat="42.77904" lon="1.74218">
        <ele>728.82</ele>
        <time>2017-02-26T15:31:47Z</time>
      </trkpt>
      <trkpt lat="42.77901" lon="1.74214">
        <ele>730.26</ele>
        <time>2017-02-26T15:31:58Z</time>
      </trkpt>
      <trkpt lat="42.7789" lon="1.74208">
        <ele>731.7</ele>
        <time>2017-02-26T15:32:12Z</time>
      </trkpt>
      <trkpt lat="42.77887" lon="1.74195">
        <ele>735.07</ele>
        <time>2017-02-26T15:32:29Z</time>
      </trkpt>
      <trkpt lat="42.77888" lon="1.74185">
        <ele>736.99</ele>
        <time>2017-02-26T15:32:44Z</time>
      </trkpt>
      <trkpt lat="42.7789" lon="1.7417">
        <ele>736.99</ele>
        <time>2017-02-26T15:32:59Z</time>
      </trkpt>
      <trkpt lat="42.77889" lon="1.7416">
        <ele>736.51</ele>
        <time>2017-02-26T15:33:08Z</time>
      </trkpt>
      <trkpt lat="42.77883" lon="1.74143">
        <ele>734.58</ele>
        <time>2017-02-26T15:33:25Z</time>
      </trkpt>
      <trkpt lat="42.77879" lon="1.74138">
        <ele>733.62</ele>
        <time>2017-02-26T15:33:36Z</time>
      </trkpt>
      <trkpt lat="42.77872" lon="1.74124">
        <ele>730.74</ele>
        <time>2017-02-26T15:33:52Z</time>
      </trkpt>
      <trkpt lat="42.77867" lon="1.74116">
        <ele>728.34</ele>
        <time>2017-02-26T15:34:05Z</time>
      </trkpt>
      <trkpt lat="42.77861" lon="1.74099">
        <ele>725.45</ele>
        <time>2017-02-26T15:34:23Z</time>
      </trkpt>
      <trkpt lat="42.77857" lon="1.74084">
        <ele>723.05</ele>
        <time>2017-02-26T15:34:37Z</time>
      </trkpt>
      <trkpt lat="42.77855" lon="1.74068">
        <ele>720.65</ele>
        <time>2017-02-26T15:34:54Z</time>
      </trkpt>
      <trkpt lat="42.77854" lon="1.74054">
        <ele>719.68</ele>
        <time>2017-02-26T15:35:08Z</time>
      </trkpt>
      <trkpt lat="42.77855" lon="1.74037">
        <ele>717.28</ele>
        <time>2017-02-26T15:35:26Z</time>
      </trkpt>
      <trkpt lat="42.77857" lon="1.7402">
        <ele>714.4</ele>
        <time>2017-02-26T15:35:42Z</time>
      </trkpt>
      <trkpt lat="42.77856" lon="1.7401">
        <ele>712.47</ele>
        <time>2017-02-26T15:35:57Z</time>
      </trkpt>
      <trkpt lat="42.77855" lon="1.74002">
        <ele>711.03</ele>
        <time>2017-02-26T15:36:13Z</time>
      </trkpt>
      <trkpt lat="42.77851" lon="1.73998">
        <ele>711.03</ele>
        <time>2017-02-26T15:36:28Z</time>
      </trkpt>
      <trkpt lat="42.77841" lon="1.73989">
        <ele>708.15</ele>
        <time>2017-02-26T15:36:40Z</time>
      </trkpt>
      <trkpt lat="42.77836" lon="1.73981">
        <ele>706.23</ele>
        <time>2017-02-26T15:36:47Z</time>
      </trkpt>
      <trkpt lat="42.77826" lon="1.73967">
        <ele>702.86</ele>
        <time>2017-02-26T15:37:03Z</time>
      </trkpt>
      <trkpt lat="42.77821" lon="1.73963">
        <ele>700.94</ele>
        <time>2017-02-26T15:37:15Z</time>
      </trkpt>
      <trkpt lat="42.77819" lon="1.73962">
        <ele>700.46</ele>
        <time>2017-02-26T15:37:17Z</time>
      </trkpt>
      <trkpt lat="42.77807" lon="1.73948">
        <ele>697.09</ele>
        <time>2017-02-26T15:37:35Z</time>
      </trkpt>
      <trkpt lat="42.77805" lon="1.73946">
        <ele>696.61</ele>
        <time>2017-02-26T15:37:38Z</time>
      </trkpt>
      <trkpt lat="42.7779" lon="1.73941">
        <ele>692.77</ele>
        <time>2017-02-26T15:37:58Z</time>
      </trkpt>
      <trkpt lat="42.7779" lon="1.73944">
        <ele>692.29</ele>
        <time>2017-02-26T15:38:01Z</time>
      </trkpt>
      <trkpt lat="42.77785" lon="1.73943">
        <ele>689.88</ele>
        <time>2017-02-26T15:38:14Z</time>
      </trkpt>
      <trkpt lat="42.77782" lon="1.73924">
        <ele>685.08</ele>
        <time>2017-02-26T15:38:33Z</time>
      </trkpt>
      <trkpt lat="42.77779" lon="1.73911">
        <ele>681.71</ele>
        <time>2017-02-26T15:38:48Z</time>
      </trkpt>
      <trkpt lat="42.77773" lon="1.73898">
        <ele>680.75</ele>
        <time>2017-02-26T15:39:01Z</time>
      </trkpt>
      <trkpt lat="42.77765" lon="1.73885">
        <ele>677.87</ele>
        <time>2017-02-26T15:39:18Z</time>
      </trkpt>
      <trkpt lat="42.77761" lon="1.73879">
        <ele>675.46</ele>
        <time>2017-02-26T15:39:32Z</time>
      </trkpt>
      <trkpt lat="42.77754" lon="1.73867">
        <ele>675.46</ele>
        <time>2017-02-26T15:39:45Z</time>
      </trkpt>
      <trkpt lat="42.77749" lon="1.73857">
        <ele>673.06</ele>
        <time>2017-02-26T15:40:03Z</time>
      </trkpt>
      <trkpt lat="42.77744" lon="1.73851">
        <ele>671.62</ele>
        <time>2017-02-26T15:40:27Z</time>
      </trkpt>
      <trkpt lat="42.77742" lon="1.73849">
        <ele>670.18</ele>
        <time>2017-02-26T15:40:41Z</time>
      </trkpt>
      <trkpt lat="42.77733" lon="1.73835">
        <ele>665.85</ele>
        <time>2017-02-26T15:40:57Z</time>
      </trkpt>
      <trkpt lat="42.77725" lon="1.73819">
        <ele>661.04</ele>
        <time>2017-02-26T15:41:13Z</time>
      </trkpt>
      <trkpt lat="42.77722" lon="1.73798">
        <ele>659.12</ele>
        <time>2017-02-26T15:41:29Z</time>
      </trkpt>
      <trkpt lat="42.77723" lon="1.73774">
        <ele>658.16</ele>
        <time>2017-02-26T15:41:46Z</time>
      </trkpt>
      <trkpt lat="42.77723" lon="1.73767">
        <ele>656.72</ele>
        <time>2017-02-26T15:41:52Z</time>
      </trkpt>
      <trkpt lat="42.77716" lon="1.73757">
        <ele>655.76</ele>
        <time>2017-02-26T15:42:06Z</time>
      </trkpt>
      <trkpt lat="42.77709" lon="1.73755">
        <ele>654.8</ele>
        <time>2017-02-26T15:42:13Z</time>
      </trkpt>
      <trkpt lat="42.77705" lon="1.73742">
        <ele>652.87</ele>
        <time>2017-02-26T15:42:26Z</time>
      </trkpt>
      <trkpt lat="42.77705" lon="1.73722">
        <ele>650.95</ele>
        <time>2017-02-26T15:42:41Z</time>
      </trkpt>
      <trkpt lat="42.77707" lon="1.737">
        <ele>650.47</ele>
        <time>2017-02-26T15:42:56Z</time>
      </trkpt>
      <trkpt lat="42.77711" lon="1.73677">
        <ele>649.03</ele>
        <time>2017-02-26T15:43:12Z</time>
      </trkpt>
      <trkpt lat="42.77711" lon="1.73672">
        <ele>648.55</ele>
        <time>2017-02-26T15:43:15Z</time>
      </trkpt>
      <trkpt lat="42.77712" lon="1.73668">
        <ele>648.55</ele>
        <time>2017-02-26T15:43:18Z</time>
      </trkpt>
      <trkpt lat="42.77715" lon="1.73651">
        <ele>645.66</ele>
        <time>2017-02-26T15:43:35Z</time>
      </trkpt>
      <trkpt lat="42.77711" lon="1.73647">
        <ele>643.74</ele>
        <time>2017-02-26T15:43:47Z</time>
      </trkpt>
      <trkpt lat="42.77696" lon="1.73647">
        <ele>641.34</ele>
        <time>2017-02-26T15:44:05Z</time>
      </trkpt>
      <trkpt lat="42.77686" lon="1.73644">
        <ele>639.89</ele>
        <time>2017-02-26T15:44:22Z</time>
      </trkpt>
      <trkpt lat="42.77679" lon="1.73642">
        <ele>636.53</ele>
        <time>2017-02-26T15:44:36Z</time>
      </trkpt>
      <trkpt lat="42.7767" lon="1.73639">
        <ele>635.57</ele>
        <time>2017-02-26T15:44:50Z</time>
      </trkpt>
      <trkpt lat="42.77666" lon="1.73638">
        <ele>634.13</ele>
        <time>2017-02-26T15:44:54Z</time>
      </trkpt>
      <trkpt lat="42.77662" lon="1.73638">
        <ele>633.65</ele>
        <time>2017-02-26T15:44:57Z</time>
      </trkpt>
      <trkpt lat="42.77658" lon="1.73637">
        <ele>632.68</ele>
        <time>2017-02-26T15:45:01Z</time>
      </trkpt>
      <trkpt lat="42.77656" lon="1.73637">
        <ele>632.2</ele>
        <time>2017-02-26T15:45:03Z</time>
      </trkpt>
      <trkpt lat="42.77653" lon="1.73637">
        <ele>631.24</ele>
        <time>2017-02-26T15:45:06Z</time>
      </trkpt>
      <trkpt lat="42.77643" lon="1.73633">
        <ele>628.84</ele>
        <time>2017-02-26T15:45:18Z</time>
      </trkpt>
      <trkpt lat="42.77632" lon="1.7363">
        <ele>624.51</ele>
        <time>2017-02-26T15:45:30Z</time>
      </trkpt>
      <trkpt lat="42.77632" lon="1.73629">
        <ele>624.03</ele>
        <time>2017-02-26T15:45:31Z</time>
      </trkpt>
      <trkpt lat="42.77627" lon="1.73624">
        <ele>622.11</ele>
        <time>2017-02-26T15:45:42Z</time>
      </trkpt>
      <trkpt lat="42.77625" lon="1.73621">
        <ele>621.15</ele>
        <time>2017-02-26T15:45:55Z</time>
      </trkpt>
      <trkpt lat="42.77615" lon="1.73614">
        <ele>618.75</ele>
        <time>2017-02-26T15:46:11Z</time>
      </trkpt>
      <trkpt lat="42.7761" lon="1.73614">
        <ele>616.34</ele>
        <time>2017-02-26T15:46:24Z</time>
      </trkpt>
      <trkpt lat="42.77605" lon="1.73618">
        <ele>613.46</ele>
        <time>2017-02-26T15:46:39Z</time>
      </trkpt>
      <trkpt lat="42.77602" lon="1.7362">
        <ele>612.5</ele>
        <time>2017-02-26T15:46:52Z</time>
      </trkpt>
      <trkpt lat="42.77595" lon="1.7362">
        <ele>610.57</ele>
        <time>2017-02-26T15:47:05Z</time>
      </trkpt>
      <trkpt lat="42.77594" lon="1.73611">
        <ele>609.61</ele>
        <time>2017-02-26T15:47:15Z</time>
      </trkpt>
      <trkpt lat="42.77593" lon="1.73596">
        <ele>606.73</ele>
        <time>2017-02-26T15:47:29Z</time>
      </trkpt>
      <trkpt lat="42.77592" lon="1.73595">
        <ele>606.25</ele>
        <time>2017-02-26T15:47:30Z</time>
      </trkpt>
      <trkpt lat="42.7759" lon="1.73589">
        <ele>604.33</ele>
        <time>2017-02-26T15:47:44Z</time>
      </trkpt>
      <trkpt lat="42.77589" lon="1.73578">
        <ele>601.92</ele>
        <time>2017-02-26T15:47:53Z</time>
      </trkpt>
      <trkpt lat="42.77588" lon="1.73569">
        <ele>600.96</ele>
        <time>2017-02-26T15:48:09Z</time>
      </trkpt>
      <trkpt lat="42.77586" lon="1.73566">
        <ele>601.92</ele>
        <time>2017-02-26T15:48:24Z</time>
      </trkpt>
      <trkpt lat="42.77584" lon="1.73562">
        <ele>601.44</ele>
        <time>2017-02-26T15:48:37Z</time>
      </trkpt>
      <trkpt lat="42.77583" lon="1.7356">
        <ele>602.88</ele>
        <time>2017-02-26T15:49:05Z</time>
      </trkpt>
      <trkpt lat="42.77583" lon="1.73559">
        <ele>603.36</ele>
        <time>2017-02-26T15:49:34Z</time>
      </trkpt>
      <trkpt lat="42.77584" lon="1.73558">
        <ele>604.33</ele>
        <time>2017-02-26T15:50:07Z</time>
      </trkpt>
      <trkpt lat="42.77584" lon="1.73558">
        <ele>604.81</ele>
        <time>2017-02-26T15:50:30Z</time>
      </trkpt>
      <trkpt lat="42.77583" lon="1.73559">
        <ele>605.29</ele>
        <time>2017-02-26T15:51:06Z</time>
      </trkpt>
      <trkpt lat="42.77583" lon="1.73558">
        <ele>605.29</ele>
        <time>2017-02-26T15:51:32Z</time>
      </trkpt>
      <trkpt lat="42.77583" lon="1.73558">
        <ele>607.21</ele>
        <time>2017-02-26T15:52:05Z</time>
      </trkpt>
      <trkpt lat="42.77584" lon="1.73558">
        <ele>607.21</ele>
        <time>2017-02-26T15:52:37Z</time>
      </trkpt>
      <trkpt lat="42.77585" lon="1.73559">
        <ele>607.21</ele>
        <time>2017-02-26T15:53:17Z</time>
      </trkpt>
      <trkpt lat="42.77585" lon="1.73558">
        <ele>606.73</ele>
        <time>2017-02-26T15:53:52Z</time>
      </trkpt>
      <trkpt lat="42.77588" lon="1.73556">
        <ele>607.21</ele>
        <time>2017-02-26T15:54:33Z</time>
      </trkpt>
      <trkpt lat="42.77587" lon="1.73556">
        <ele>608.65</ele>
        <time>2017-02-26T15:55:06Z</time>
      </trkpt>
      <trkpt lat="42.77586" lon="1.73557">
        <ele>609.13</ele>
        <time>2017-02-26T15:55:40Z</time>
      </trkpt>
      <trkpt lat="42.77585" lon="1.73556">
        <ele>606.73</ele>
        <time>2017-02-26T15:56:02Z</time>
      </trkpt>
      <trkpt lat="42.77584" lon="1.73557">
        <ele>606.25</ele>
        <time>2017-02-26T15:56:21Z</time>
      </trkpt>
      <trkpt lat="42.77584" lon="1.73556">
        <ele>606.25</ele>
        <time>2017-02-26T15:56:34Z</time>
      </trkpt>
      <trkpt lat="42.77583" lon="1.73556">
        <ele>605.77</ele>
        <time>2017-02-26T15:57:02Z</time>
      </trkpt>
      <trkpt lat="42.77582" lon="1.73558">
        <ele>604.81</ele>
        <time>2017-02-26T15:57:39Z</time>
      </trkpt>
      <trkpt lat="42.77581" lon="1.73558">
        <ele>604.33</ele>
        <time>2017-02-26T15:58:08Z</time>
      </trkpt>
      <trkpt lat="42.77581" lon="1.73558">
        <ele>603.85</ele>
        <time>2017-02-26T15:58:37Z</time>
      </trkpt>
      <trkpt lat="42.77581" lon="1.73559">
        <ele>603.85</ele>
        <time>2017-02-26T15:59:18Z</time>
      </trkpt>
      <trkpt lat="42.7758" lon="1.73559">
        <ele>603.85</ele>
        <time>2017-02-26T15:59:37Z</time>
      </trkpt>
      <trkpt lat="42.77582" lon="1.7356">
        <ele>603.85</ele>
        <time>2017-02-26T16:00:10Z</time>
      </trkpt>
      <trkpt lat="42.77582" lon="1.73562">
        <ele>603.85</ele>
        <time>2017-02-26T16:00:40Z</time>
      </trkpt>
      <trkpt lat="42.77582" lon="1.73561">
        <ele>603.85</ele>
        <time>2017-02-26T16:01:16Z</time>
      </trkpt>
      <trkpt lat="42.77581" lon="1.7356">
        <ele>604.33</ele>
        <time>2017-02-26T16:01:51Z</time>
      </trkpt>
      <trkpt lat="42.77582" lon="1.7356">
        <ele>603.85</ele>
        <time>2017-02-26T16:02:23Z</time>
      </trkpt>
      <trkpt lat="42.77582" lon="1.73558">
        <ele>602.88</ele>
        <time>2017-02-26T16:02:54Z</time>
      </trkpt>
      <trkpt lat="42.77582" lon="1.73557">
        <ele>602.88</ele>
        <time>2017-02-26T16:03:19Z</time>
      </trkpt>
      <trkpt lat="42.77583" lon="1.73556">
        <ele>601.92</ele>
        <time>2017-02-26T16:03:47Z</time>
      </trkpt>
      <trkpt lat="42.7758" lon="1.73552">
        <ele>600.96</ele>
        <time>2017-02-26T16:04:08Z</time>
      </trkpt>
      <trkpt lat="42.77574" lon="1.73538">
        <ele>598.56</ele>
        <time>2017-02-26T16:04:24Z</time>
      </trkpt>
      <trkpt lat="42.77569" lon="1.73524">
        <ele>596.64</ele>
        <time>2017-02-26T16:04:38Z</time>
      </trkpt>
      <trkpt lat="42.77562" lon="1.73507">
        <ele>596.15</ele>
        <time>2017-02-26T16:04:54Z</time>
      </trkpt>
      <trkpt lat="42.77559" lon="1.73495">
        <ele>596.64</ele>
        <time>2017-02-26T16:05:07Z</time>
      </trkpt>
      <trkpt lat="42.7756" lon="1.73487">
        <ele>595.67</ele>
        <time>2017-02-26T16:05:19Z</time>
      </trkpt>
      <trkpt lat="42.77564" lon="1.73467">
        <ele>592.31</ele>
        <time>2017-02-26T16:05:34Z</time>
      </trkpt>
      <trkpt lat="42.77564" lon="1.73461">
        <ele>591.83</ele>
        <time>2017-02-26T16:05:39Z</time>
      </trkpt>
      <trkpt lat="42.77567" lon="1.73456">
        <ele>592.79</ele>
        <time>2017-02-26T16:05:53Z</time>
      </trkpt>
      <trkpt lat="42.77575" lon="1.73452">
        <ele>593.27</ele>
        <time>2017-02-26T16:06:05Z</time>
      </trkpt>
      <trkpt lat="42.77584" lon="1.73447">
        <ele>592.31</ele>
        <time>2017-02-26T16:06:17Z</time>
      </trkpt>
      <trkpt lat="42.77595" lon="1.73436">
        <ele>593.75</ele>
        <time>2017-02-26T16:06:30Z</time>
      </trkpt>
      <trkpt lat="42.77598" lon="1.73428">
        <ele>594.71</ele>
        <time>2017-02-26T16:06:39Z</time>
      </trkpt>
      <trkpt lat="42.776" lon="1.73419">
        <ele>596.15</ele>
        <time>2017-02-26T16:06:49Z</time>
      </trkpt>
      <trkpt lat="42.77606" lon="1.73414">
        <ele>598.56</ele>
        <time>2017-02-26T16:07:00Z</time>
      </trkpt>
      <trkpt lat="42.77609" lon="1.73409">
        <ele>597.6</ele>
        <time>2017-02-26T16:07:15Z</time>
      </trkpt>
      <trkpt lat="42.77612" lon="1.73401">
        <ele>599.04</ele>
        <time>2017-02-26T16:07:28Z</time>
      </trkpt>
      <trkpt lat="42.77616" lon="1.73393">
        <ele>600.48</ele>
        <time>2017-02-26T16:07:40Z</time>
      </trkpt>
      <trkpt lat="42.7762" lon="1.73385">
        <ele>599.04</ele>
        <time>2017-02-26T16:07:50Z</time>
      </trkpt>
      <trkpt lat="42.77622" lon="1.73375">
        <ele>597.12</ele>
        <time>2017-02-26T16:08:02Z</time>
      </trkpt>
      <trkpt lat="42.77624" lon="1.73369">
        <ele>597.6</ele>
        <time>2017-02-26T16:08:15Z</time>
      </trkpt>
      <trkpt lat="42.77624" lon="1.73368">
        <ele>597.6</ele>
        <time>2017-02-26T16:08:26Z</time>
      </trkpt>
      <trkpt lat="42.77626" lon="1.73364">
        <ele>597.12</ele>
        <time>2017-02-26T16:08:29Z</time>
      </trkpt>
      <trkpt lat="42.77628" lon="1.7335">
        <ele>597.12</ele>
        <time>2017-02-26T16:08:36Z</time>
      </trkpt>
      <trkpt lat="42.77633" lon="1.7333">
        <ele>596.15</ele>
        <time>2017-02-26T16:08:49Z</time>
      </trkpt>
      <trkpt lat="42.77634" lon="1.73308">
        <ele>593.27</ele>
        <time>2017-02-26T16:09:05Z</time>
      </trkpt>
      <trkpt lat="42.77634" lon="1.73294">
        <ele>596.15</ele>
        <time>2017-02-26T16:09:19Z</time>
      </trkpt>
      <trkpt lat="42.77631" lon="1.73271">
        <ele>600</ele>
        <time>2017-02-26T16:09:35Z</time>
      </trkpt>
      <trkpt lat="42.7763" lon="1.73254">
        <ele>603.85</ele>
        <time>2017-02-26T16:09:49Z</time>
      </trkpt>
      <trkpt lat="42.7763" lon="1.73236">
        <ele>606.73</ele>
        <time>2017-02-26T16:10:03Z</time>
      </trkpt>
      <trkpt lat="42.77629" lon="1.73232">
        <ele>607.69</ele>
        <time>2017-02-26T16:10:17Z</time>
      </trkpt>
      <trkpt lat="42.77629" lon="1.73231">
        <ele>608.65</ele>
        <time>2017-02-26T16:10:34Z</time>
      </trkpt>
      <trkpt lat="42.7763" lon="1.73217">
        <ele>608.65</ele>
        <time>2017-02-26T16:10:49Z</time>
      </trkpt>
      <trkpt lat="42.77631" lon="1.732">
        <ele>610.57</ele>
        <time>2017-02-26T16:11:04Z</time>
      </trkpt>
      <trkpt lat="42.77635" lon="1.73181">
        <ele>612.5</ele>
        <time>2017-02-26T16:11:19Z</time>
      </trkpt>
      <trkpt lat="42.77639" lon="1.7317">
        <ele>614.9</ele>
        <time>2017-02-26T16:11:32Z</time>
      </trkpt>
      <trkpt lat="42.77642" lon="1.73156">
        <ele>615.38</ele>
        <time>2017-02-26T16:11:44Z</time>
      </trkpt>
      <trkpt lat="42.77645" lon="1.73144">
        <ele>614.42</ele>
        <time>2017-02-26T16:11:57Z</time>
      </trkpt>
      <trkpt lat="42.77652" lon="1.73128">
        <ele>614.9</ele>
        <time>2017-02-26T16:12:11Z</time>
      </trkpt>
      <trkpt lat="42.7766" lon="1.73115">
        <ele>615.38</ele>
        <time>2017-02-26T16:12:26Z</time>
      </trkpt>
      <trkpt lat="42.77667" lon="1.73102">
        <ele>615.86</ele>
        <time>2017-02-26T16:12:40Z</time>
      </trkpt>
      <trkpt lat="42.77677" lon="1.73087">
        <ele>617.3</ele>
        <time>2017-02-26T16:12:53Z</time>
      </trkpt>
      <trkpt lat="42.77681" lon="1.7308">
        <ele>616.82</ele>
        <time>2017-02-26T16:13:08Z</time>
      </trkpt>
      <trkpt lat="42.77685" lon="1.73067">
        <ele>617.3</ele>
        <time>2017-02-26T16:13:21Z</time>
      </trkpt>
      <trkpt lat="42.77692" lon="1.73056">
        <ele>615.86</ele>
        <time>2017-02-26T16:13:35Z</time>
      </trkpt>
      <trkpt lat="42.77698" lon="1.73044">
        <ele>617.3</ele>
        <time>2017-02-26T16:13:48Z</time>
      </trkpt>
      <trkpt lat="42.77705" lon="1.73025">
        <ele>619.71</ele>
        <time>2017-02-26T16:14:01Z</time>
      </trkpt>
      <trkpt lat="42.77709" lon="1.73014">
        <ele>617.3</ele>
        <time>2017-02-26T16:14:15Z</time>
      </trkpt>
      <trkpt lat="42.7772" lon="1.73">
        <ele>617.78</ele>
        <time>2017-02-26T16:14:30Z</time>
      </trkpt>
      <trkpt lat="42.77728" lon="1.7299">
        <ele>615.86</ele>
        <time>2017-02-26T16:14:43Z</time>
      </trkpt>
      <trkpt lat="42.77735" lon="1.72985">
        <ele>617.78</ele>
        <time>2017-02-26T16:14:58Z</time>
      </trkpt>
      <trkpt lat="42.77738" lon="1.7297">
        <ele>618.75</ele>
        <time>2017-02-26T16:15:16Z</time>
      </trkpt>
      <trkpt lat="42.77734" lon="1.72957">
        <ele>618.26</ele>
        <time>2017-02-26T16:15:28Z</time>
      </trkpt>
      <trkpt lat="42.77729" lon="1.72942">
        <ele>616.82</ele>
        <time>2017-02-26T16:15:42Z</time>
      </trkpt>
      <trkpt lat="42.7772" lon="1.72932">
        <ele>612.02</ele>
        <time>2017-02-26T16:15:59Z</time>
      </trkpt>
      <trkpt lat="42.7771" lon="1.72923">
        <ele>612.5</ele>
        <time>2017-02-26T16:16:13Z</time>
      </trkpt>
      <trkpt lat="42.777" lon="1.72916">
        <ele>611.06</ele>
        <time>2017-02-26T16:16:28Z</time>
      </trkpt>
      <trkpt lat="42.77695" lon="1.72896">
        <ele>611.54</ele>
        <time>2017-02-26T16:16:43Z</time>
      </trkpt>
      <trkpt lat="42.77696" lon="1.72876">
        <ele>613.94</ele>
        <time>2017-02-26T16:16:58Z</time>
      </trkpt>
      <trkpt lat="42.7769" lon="1.72867">
        <ele>611.06</ele>
        <time>2017-02-26T16:17:14Z</time>
      </trkpt>
      <trkpt lat="42.77684" lon="1.72867">
        <ele>608.65</ele>
        <time>2017-02-26T16:17:28Z</time>
      </trkpt>
      <trkpt lat="42.77675" lon="1.72864">
        <ele>605.29</ele>
        <time>2017-02-26T16:17:44Z</time>
      </trkpt>
      <trkpt lat="42.77663" lon="1.72852">
        <ele>606.25</ele>
        <time>2017-02-26T16:17:58Z</time>
      </trkpt>
      <trkpt lat="42.77656" lon="1.72836">
        <ele>606.25</ele>
        <time>2017-02-26T16:18:13Z</time>
      </trkpt>
      <trkpt lat="42.77653" lon="1.72834">
        <ele>606.73</ele>
        <time>2017-02-26T16:18:25Z</time>
      </trkpt>
      <trkpt lat="42.77651" lon="1.72838">
        <ele>607.21</ele>
        <time>2017-02-26T16:18:56Z</time>
      </trkpt>
      <trkpt lat="42.7765" lon="1.72842">
        <ele>606.73</ele>
        <time>2017-02-26T16:19:08Z</time>
      </trkpt>
      <trkpt lat="42.77643" lon="1.72854">
        <ele>601.92</ele>
        <time>2017-02-26T16:19:24Z</time>
      </trkpt>
      <trkpt lat="42.77641" lon="1.72853">
        <ele>600.48</ele>
        <time>2017-02-26T16:19:40Z</time>
      </trkpt>
      <trkpt lat="42.77634" lon="1.72832">
        <ele>602.88</ele>
        <time>2017-02-26T16:19:54Z</time>
      </trkpt>
      <trkpt lat="42.77634" lon="1.72818">
        <ele>605.29</ele>
        <time>2017-02-26T16:20:10Z</time>
      </trkpt>
      <trkpt lat="42.77634" lon="1.72802">
        <ele>606.25</ele>
        <time>2017-02-26T16:20:24Z</time>
      </trkpt>
      <trkpt lat="42.77635" lon="1.72794">
        <ele>605.77</ele>
        <time>2017-02-26T16:20:38Z</time>
      </trkpt>
      <trkpt lat="42.77636" lon="1.72782">
        <ele>604.81</ele>
        <time>2017-02-26T16:20:48Z</time>
      </trkpt>
      <trkpt lat="42.77637" lon="1.7277">
        <ele>604.33</ele>
        <time>2017-02-26T16:20:55Z</time>
      </trkpt>
      <trkpt lat="42.7764" lon="1.7276">
        <ele>605.77</ele>
        <time>2017-02-26T16:21:08Z</time>
      </trkpt>
      <trkpt lat="42.77643" lon="1.72744">
        <ele>605.77</ele>
        <time>2017-02-26T16:21:22Z</time>
      </trkpt>
      <trkpt lat="42.77646" lon="1.72728">
        <ele>606.25</ele>
        <time>2017-02-26T16:21:39Z</time>
      </trkpt>
      <trkpt lat="42.77647" lon="1.7271">
        <ele>605.29</ele>
        <time>2017-02-26T16:21:53Z</time>
      </trkpt>
      <trkpt lat="42.77647" lon="1.72696">
        <ele>604.33</ele>
        <time>2017-02-26T16:22:07Z</time>
      </trkpt>
      <trkpt lat="42.77649" lon="1.72681">
        <ele>604.81</ele>
        <time>2017-02-26T16:22:20Z</time>
      </trkpt>
      <trkpt lat="42.77648" lon="1.72669">
        <ele>605.29</ele>
        <time>2017-02-26T16:22:32Z</time>
      </trkpt>
      <trkpt lat="42.77647" lon="1.7265">
        <ele>605.29</ele>
        <time>2017-02-26T16:22:47Z</time>
      </trkpt>
      <trkpt lat="42.77646" lon="1.72634">
        <ele>604.81</ele>
        <time>2017-02-26T16:23:02Z</time>
      </trkpt>
      <trkpt lat="42.77648" lon="1.72613">
        <ele>603.85</ele>
        <time>2017-02-26T16:23:20Z</time>
      </trkpt>
      <trkpt lat="42.77647" lon="1.72598">
        <ele>601.92</ele>
        <time>2017-02-26T16:23:34Z</time>
      </trkpt>
      <trkpt lat="42.77643" lon="1.72582">
        <ele>602.4</ele>
        <time>2017-02-26T16:23:49Z</time>
      </trkpt>
      <trkpt lat="42.7764" lon="1.72566">
        <ele>600.48</ele>
        <time>2017-02-26T16:24:02Z</time>
      </trkpt>
      <trkpt lat="42.7764" lon="1.72553">
        <ele>598.56</ele>
        <time>2017-02-26T16:24:12Z</time>
      </trkpt>
      <trkpt lat="42.77637" lon="1.72542">
        <ele>600</ele>
        <time>2017-02-26T16:24:23Z</time>
      </trkpt>
      <trkpt lat="42.7763" lon="1.72521">
        <ele>606.25</ele>
        <time>2017-02-26T16:24:39Z</time>
      </trkpt>
      <trkpt lat="42.77625" lon="1.72497">
        <ele>607.21</ele>
        <time>2017-02-26T16:24:56Z</time>
      </trkpt>
      <trkpt lat="42.77621" lon="1.72474">
        <ele>605.77</ele>
        <time>2017-02-26T16:25:13Z</time>
      </trkpt>
      <trkpt lat="42.7762" lon="1.72448">
        <ele>606.25</ele>
        <time>2017-02-26T16:25:30Z</time>
      </trkpt>
      <trkpt lat="42.77617" lon="1.72434">
        <ele>605.77</ele>
        <time>2017-02-26T16:25:41Z</time>
      </trkpt>
      <trkpt lat="42.77615" lon="1.7242">
        <ele>605.77</ele>
        <time>2017-02-26T16:25:50Z</time>
      </trkpt>
      <trkpt lat="42.77614" lon="1.72411">
        <ele>607.69</ele>
        <time>2017-02-26T16:25:56Z</time>
      </trkpt>
      <trkpt lat="42.77612" lon="1.72396">
        <ele>605.29</ele>
        <time>2017-02-26T16:26:08Z</time>
      </trkpt>
      <trkpt lat="42.77607" lon="1.72378">
        <ele>605.29</ele>
        <time>2017-02-26T16:26:22Z</time>
      </trkpt>
      <trkpt lat="42.77602" lon="1.72369">
        <ele>606.25</ele>
        <time>2017-02-26T16:26:36Z</time>
      </trkpt>
      <trkpt lat="42.776" lon="1.72356">
        <ele>605.77</ele>
        <time>2017-02-26T16:26:44Z</time>
      </trkpt>
      <trkpt lat="42.77596" lon="1.7234">
        <ele>604.33</ele>
        <time>2017-02-26T16:26:59Z</time>
      </trkpt>
      <trkpt lat="42.77589" lon="1.72323">
        <ele>603.85</ele>
        <time>2017-02-26T16:27:12Z</time>
      </trkpt>
      <trkpt lat="42.77584" lon="1.72306">
        <ele>603.85</ele>
        <time>2017-02-26T16:27:26Z</time>
      </trkpt>
      <trkpt lat="42.77582" lon="1.72289">
        <ele>603.36</ele>
        <time>2017-02-26T16:27:39Z</time>
      </trkpt>
      <trkpt lat="42.77582" lon="1.72283">
        <ele>603.36</ele>
        <time>2017-02-26T16:27:44Z</time>
      </trkpt>
      <trkpt lat="42.77581" lon="1.72272">
        <ele>602.88</ele>
        <time>2017-02-26T16:27:51Z</time>
      </trkpt>
      <trkpt lat="42.77582" lon="1.72262">
        <ele>602.4</ele>
        <time>2017-02-26T16:27:58Z</time>
      </trkpt>
      <trkpt lat="42.77582" lon="1.72258">
        <ele>602.88</ele>
        <time>2017-02-26T16:28:01Z</time>
      </trkpt>
      <trkpt lat="42.77573" lon="1.72245">
        <ele>601.44</ele>
        <time>2017-02-26T16:28:14Z</time>
      </trkpt>
      <trkpt lat="42.77565" lon="1.72227">
        <ele>598.56</ele>
        <time>2017-02-26T16:28:29Z</time>
      </trkpt>
      <trkpt lat="42.77557" lon="1.7221">
        <ele>599.52</ele>
        <time>2017-02-26T16:28:44Z</time>
      </trkpt>
      <trkpt lat="42.77547" lon="1.72191">
        <ele>600</ele>
        <time>2017-02-26T16:29:01Z</time>
      </trkpt>
      <trkpt lat="42.77538" lon="1.72179">
        <ele>600.48</ele>
        <time>2017-02-26T16:29:16Z</time>
      </trkpt>
      <trkpt lat="42.77523" lon="1.72165">
        <ele>596.15</ele>
        <time>2017-02-26T16:29:34Z</time>
      </trkpt>
      <trkpt lat="42.7751" lon="1.72163">
        <ele>589.43</ele>
        <time>2017-02-26T16:29:50Z</time>
      </trkpt>
      <trkpt lat="42.77502" lon="1.72165">
        <ele>585.58</ele>
        <time>2017-02-26T16:29:59Z</time>
      </trkpt>
      <trkpt lat="42.77489" lon="1.72164">
        <ele>593.75</ele>
        <time>2017-02-26T16:30:14Z</time>
      </trkpt>
      <trkpt lat="42.77488" lon="1.72165">
        <ele>597.12</ele>
        <time>2017-02-26T16:30:42Z</time>
      </trkpt>
      <trkpt lat="42.77487" lon="1.72164">
        <ele>597.12</ele>
        <time>2017-02-26T16:31:10Z</time>
      </trkpt>
      <trkpt lat="42.77488" lon="1.72163">
        <ele>598.56</ele>
        <time>2017-02-26T16:31:40Z</time>
      </trkpt>
      <trkpt lat="42.77487" lon="1.72163">
        <ele>598.56</ele>
        <time>2017-02-26T16:32:04Z</time>
      </trkpt>
      <trkpt lat="42.77487" lon="1.72163">
        <ele>600</ele>
        <time>2017-02-26T16:32:39Z</time>
      </trkpt>
      <trkpt lat="42.77485" lon="1.72163">
        <ele>600</ele>
        <time>2017-02-26T16:33:11Z</time>
      </trkpt>
      <trkpt lat="42.77486" lon="1.72164">
        <ele>600.96</ele>
        <time>2017-02-26T16:33:39Z</time>
      </trkpt>
      <trkpt lat="42.77487" lon="1.72164">
        <ele>601.44</ele>
        <time>2017-02-26T16:34:04Z</time>
      </trkpt>
      <trkpt lat="42.77487" lon="1.72164">
        <ele>600.96</ele>
        <time>2017-02-26T16:34:33Z</time>
      </trkpt>
      <trkpt lat="42.77488" lon="1.72163">
        <ele>600.96</ele>
        <time>2017-02-26T16:35:03Z</time>
      </trkpt>
      <trkpt lat="42.77488" lon="1.72163">
        <ele>601.44</ele>
        <time>2017-02-26T16:35:28Z</time>
      </trkpt>
      <trkpt lat="42.77487" lon="1.72163">
        <ele>600.48</ele>
        <time>2017-02-26T16:36:01Z</time>
      </trkpt>
      <trkpt lat="42.77487" lon="1.72164">
        <ele>601.44</ele>
        <time>2017-02-26T16:36:24Z</time>
      </trkpt>
      <trkpt lat="42.77489" lon="1.72156">
        <ele>602.4</ele>
        <time>2017-02-26T16:36:30Z</time>
      </trkpt>
      <trkpt lat="42.77492" lon="1.72141">
        <ele>604.33</ele>
        <time>2017-02-26T16:36:37Z</time>
      </trkpt>
      <trkpt lat="42.77495" lon="1.72137">
        <ele>603.85</ele>
        <time>2017-02-26T16:36:41Z</time>
      </trkpt>
      <trkpt lat="42.77512" lon="1.7214">
        <ele>604.81</ele>
        <time>2017-02-26T16:36:55Z</time>
      </trkpt>
      <trkpt lat="42.77515" lon="1.72139">
        <ele>604.81</ele>
        <time>2017-02-26T16:36:58Z</time>
      </trkpt>
      <trkpt lat="42.77527" lon="1.72119">
        <ele>607.69</ele>
        <time>2017-02-26T16:37:15Z</time>
      </trkpt>
      <trkpt lat="42.77528" lon="1.72118">
        <ele>607.69</ele>
        <time>2017-02-26T16:37:17Z</time>
      </trkpt>
    </trkseg>
  </trk>
</gpx>